Darstellungsparameter: Aktuell verwendete Einstellungen:
Skalierung der Graphiken ... ?
xyx+y,   Skalierungsfaktor:      Skalierung: Modus: x, Faktor: 1
Darstellungszeitraum ... ?
Vom - - bis: - -   Zeitraum: 22.08.2011 - 21.09.2011
Min/Max/Avg-Anzeige ... ?
Zeige MMA aktuell
Zeige MMA Monat
Zeige MMA alles
Zeige --A aktuell
Zeige --A Monat
Zeige --A alles
Keine MMA-Anzeige
MMA:
Average (ber die Originaldaten)
MMA-Basis: 22.08.2011 - 21.09.2011
Quicknavigation für Darstellung... ?
Tage:      1T, 2T, 3T, 5T -1T -2T -3T -5T +1T +2T +3T +5T
Wochen: 1W, 2W, 3W -1W -2W -3W +1W +2W +3W
Monate: 1M, 3M, 6M -1M -3M -6M +1M +3M +6M
Jahre:    1J, 3J, 5J, 10J -1J -3J -5J -10J +1J +3J +5J +10J
Nutze für die Darstellung ... ?
Originaldaten oder Mittelwerte auf ...
Stundenbasis Tagesbasis Wochenbasis
Monatsbasis Jahresbasis      Datenbasis: Original-Daten
Darstellen als:
Statistik (Auto) Statistik J:M      Darstellung:
Zur Graphik,    zurück zur Übersicht aller Sensoren.
 
Tabellarische Datenbersicht: ?
 
Sensor: Nr:Datum:Temp:Abs-Feuchte:Windchill:Wind:
Aussen-T/F 1 22-08-2011 00:10:02 22.3 C 14.41 g/m*3 22.3 C 0 km/h
2 22-08-2011 00:22:01 22.3 C 14.41 g/m*3 22.3 C 0 km/h
3 22-08-2011 00:34:02 22.3 C 14.41 g/m*3 22.3 C 0 km/h
4 22-08-2011 00:46:01 22.3 C 14.41 g/m*3 22.3 C 0 km/h
5 22-08-2011 00:58:01 22.3 C 14.41 g/m*3 22.3 C 0 km/h
6 22-08-2011 01:10:02 22.3 C 14.41 g/m*3 22.3 C 0 km/h
7 22-08-2011 01:23:03 19.6 C 14.69 g/m*3 19.6 C 0 km/h
8 22-08-2011 01:35:03 19.8 C 14.86 g/m*3 19.8 C 0 km/h
9 22-08-2011 01:47:03 20 C 14.86 g/m*3 20 C 0 km/h
10 22-08-2011 01:59:03 20 C 14.86 g/m*3 20 C 0 km/h
11 22-08-2011 02:11:04 19.8 C 14.86 g/m*3 19.8 C 0 km/h
12 22-08-2011 02:23:04 19.7 C 14.6 g/m*3 19.7 C 0 km/h
13 22-08-2011 02:35:04 19.7 C 14.6 g/m*3 19.7 C 0 km/h
14 22-08-2011 02:47:04 19.7 C 14.6 g/m*3 19.7 C 0 km/h
15 22-08-2011 02:59:04 19.3 C 14.43 g/m*3 19.3 C 0 km/h
16 22-08-2011 03:11:04 19.6 C 14.69 g/m*3 19.6 C 0 km/h
17 22-08-2011 03:23:04 19.2 C 14.35 g/m*3 19.2 C 0 km/h
18 22-08-2011 03:35:04 19.7 C 14.77 g/m*3 19.7 C 0 km/h
19 22-08-2011 03:47:04 20.1 C 14.95 g/m*3 20.1 C 0 km/h
20 22-08-2011 03:59:04 20.3 C 15.13 g/m*3 20.3 C 0 km/h
21 22-08-2011 04:11:04 20.4 C 15.21 g/m*3 20.4 C 0 km/h
22 22-08-2011 04:23:04 20.5 C 15.48 g/m*3 20.5 C 0 km/h
23 22-08-2011 04:35:04 20.4 C 15.21 g/m*3 20.4 C 0 km/h
24 22-08-2011 04:47:04 20.2 C 14.86 g/m*3 20.2 C 0 km/h
25 22-08-2011 04:59:04 19.8 C 14.69 g/m*3 19.8 C 0 km/h
Sensor: Nr:Datum:Temp:Abs-Feuchte:Windchill:Wind:
Aussen-T/F 26 22-08-2011 05:11:04 19.5 C 14.27 g/m*3 19.5 C 0 km/h
27 22-08-2011 05:23:04 19.6 C 14.35 g/m*3 19.6 C 0 km/h
28 22-08-2011 05:35:04 19.6 C 14.52 g/m*3 19.6 C 0 km/h
29 22-08-2011 05:47:04 19.6 C 14.35 g/m*3 19.6 C 0 km/h
30 22-08-2011 05:59:04 19.4 C 14.18 g/m*3 19.4 C 0 km/h
31 22-08-2011 06:11:05 19.4 C 14.18 g/m*3 19.4 C 0 km/h
32 22-08-2011 06:23:05 19 C 13.85 g/m*3 19 C 0 km/h
33 22-08-2011 06:35:05 18.9 C 14.09 g/m*3 18.9 C 0 km/h
34 22-08-2011 06:47:05 18.7 C 13.93 g/m*3 18.7 C 0 km/h
35 22-08-2011 06:59:05 18.8 C 14.01 g/m*3 18.8 C 0 km/h
36 22-08-2011 07:11:05 18.9 C 14.09 g/m*3 18.9 C 0 km/h
37 22-08-2011 07:23:05 19.1 C 14.1 g/m*3 19.1 C 0 km/h
38 22-08-2011 07:35:03 19.1 C 14.1 g/m*3 19.1 C 0 km/h
39 22-08-2011 07:47:02 19.1 C 14.1 g/m*3 19.1 C 0 km/h
40 22-08-2011 07:59:02 19.1 C 14.1 g/m*3 19.1 C 0 km/h
41 22-08-2011 08:11:02 19.1 C 14.1 g/m*3 19.1 C 0 km/h
42 22-08-2011 08:23:01 19.1 C 14.1 g/m*3 19.1 C 0 km/h
43 22-08-2011 08:35:02 19.1 C 14.1 g/m*3 19.1 C 0 km/h
44 22-08-2011 08:47:02 20.7 C 14.94 g/m*3 20.7 C 0 km/h
45 22-08-2011 08:59:02 21.1 C 14.56 g/m*3 21.1 C 0 km/h
46 22-08-2011 09:11:02 21.9 C 15.24 g/m*3 21.9 C 0 km/h
47 22-08-2011 09:23:02 22.2 C 14.33 g/m*3 22.2 C 0 km/h
48 22-08-2011 09:35:02 22.6 C 14.66 g/m*3 22.6 C 0 km/h
49 22-08-2011 09:47:01 23 C 13.77 g/m*3 23 C 0 km/h
50 22-08-2011 09:59:01 23 C 13.57 g/m*3 23 C 0 km/h
Sensor: Nr:Datum:Temp:Abs-Feuchte:Windchill:Wind:
Aussen-T/F 51 22-08-2011 10:11:02 22.7 C 13.74 g/m*3 22.7 C 0 km/h
52 22-08-2011 10:23:02 22.6 C 13.86 g/m*3 22.6 C 0 km/h
53 22-08-2011 10:35:02 23.2 C 13.51 g/m*3 23.2 C 0 km/h
54 22-08-2011 10:47:02 23.6 C 13.19 g/m*3 23.6 C 0 km/h
55 22-08-2011 10:59:02 24 C 12.62 g/m*3 24 C 0 km/h
56 22-08-2011 11:11:02 23.9 C 12.76 g/m*3 23.9 C 0 km/h
57 22-08-2011 11:23:02 24.6 C 12.83 g/m*3 24.6 C 0 km/h
58 22-08-2011 11:35:02 24.5 C 12.76 g/m*3 24.5 C 0 km/h
59 22-08-2011 11:47:03 24.8 C 12.29 g/m*3 24.8 C 0 km/h
60 22-08-2011 11:59:03 25.7 C 12.21 g/m*3 25.7 C 0 km/h
61 22-08-2011 12:11:02 26 C 11.69 g/m*3 26 C 0 km/h
62 22-08-2011 12:23:03 25.7 C 11.97 g/m*3 25.7 C 0 km/h
63 22-08-2011 12:35:02 26.2 C 12.06 g/m*3 26.2 C 0 km/h
64 22-08-2011 12:47:02 25.7 C 11.73 g/m*3 25.7 C 0 km/h
65 22-08-2011 12:59:02 26 C 11.93 g/m*3 26 C 0 km/h
66 22-08-2011 13:11:02 26.1 C 11.75 g/m*3 26.1 C 0 km/h
67 22-08-2011 13:23:02 27 C 11.84 g/m*3 27 C 0 km/h
68 22-08-2011 13:35:02 27 C 11.84 g/m*3 27 C 0 km/h
69 22-08-2011 13:47:02 28.1 C 11.48 g/m*3 28.1 C 0 km/h
70 22-08-2011 13:59:02 30.9 C 11.14 g/m*3 30.9 C 0 km/h
71 22-08-2011 14:11:02 31.7 C 9.97 g/m*3 31.7 C 0 km/h
72 22-08-2011 14:23:02 31.2 C 9.7 g/m*3 31.2 C 0 km/h
73 22-08-2011 14:35:02 31.3 C 10.08 g/m*3 31.3 C 0 km/h
74 22-08-2011 14:47:02 31.4 C 10.14 g/m*3 31.4 C 0 km/h
75 22-08-2011 14:59:02 31.8 C 8.68 g/m*3 31.8 C 0 km/h
Sensor: Nr:Datum:Temp:Abs-Feuchte:Windchill:Wind:
Aussen-T/F 76 22-08-2011 15:11:02 31.9 C 7.39 g/m*3 31.9 C 0 km/h
77 22-08-2011 15:23:02 31.5 C 7.23 g/m*3 31.5 C 0 km/h
78 22-08-2011 15:35:01 31.6 C 8.26 g/m*3 31.6 C 0 km/h
79 22-08-2011 15:47:02 31.2 C 8.09 g/m*3 31.2 C 0 km/h
80 22-08-2011 15:59:02 31.9 C 8.39 g/m*3 31.9 C 0 km/h
81 22-08-2011 16:11:01 33.3 C 7.23 g/m*3 33.3 C 0 km/h
82 22-08-2011 16:23:01 32.4 C 6.9 g/m*3 32.4 C 0 km/h
83 22-08-2011 16:35:02 32.5 C 6.93 g/m*3 32.5 C 0 km/h
84 22-08-2011 16:47:02 32.8 C 7.04 g/m*3 32.8 C 0 km/h
85 22-08-2011 16:59:02 31.9 C 10.07 g/m*3 31.9 C 0 km/h
86 22-08-2011 17:11:01 32.5 C 8.67 g/m*3 32.5 C 0 km/h
87 22-08-2011 17:23:02 32.8 C 7.75 g/m*3 32.8 C 0 km/h
88 22-08-2011 17:35:02 32.5 C 7.28 g/m*3 32.5 C 0 km/h
89 22-08-2011 17:47:02 33.3 C 8.32 g/m*3 33.3 C 0 km/h
90 22-08-2011 17:59:02 32.7 C 7.71 g/m*3 32.7 C 0 km/h
91 22-08-2011 18:11:01 32.7 C 8.41 g/m*3 32.7 C 0 km/h
92 22-08-2011 18:23:02 32.3 C 7.2 g/m*3 32.3 C 0 km/h
93 22-08-2011 18:35:01 30.6 C 8.14 g/m*3 30.6 C 0 km/h
94 22-08-2011 18:47:02 30.1 C 10.06 g/m*3 30.1 C 0 km/h
95 22-08-2011 18:59:02 28.7 C 11.02 g/m*3 28.7 C 0 km/h
96 22-08-2011 19:11:02 28.1 C 11.76 g/m*3 28.1 C 0 km/h
97 22-08-2011 19:23:03 26.8 C 12.47 g/m*3 26.8 C 0 km/h
98 22-08-2011 19:35:02 26.2 C 11.82 g/m*3 26.2 C 0 km/h
99 22-08-2011 19:47:03 25.3 C 12.64 g/m*3 25.3 C 0 km/h
100 22-08-2011 19:59:03 24.6 C 12.83 g/m*3 24.6 C 0 km/h
Sensor: Nr:Datum:Temp:Abs-Feuchte:Windchill:Wind:
Aussen-T/F 101 22-08-2011 20:11:02 24.1 C 12.69 g/m*3 24.1 C 0 km/h
102 22-08-2011 20:23:02 23.4 C 12.41 g/m*3 23.4 C 0 km/h
103 22-08-2011 20:35:02 22.9 C 12.06 g/m*3 22.9 C 0 km/h
104 22-08-2011 20:47:02 22.4 C 11.92 g/m*3 22.4 C 0 km/h
105 22-08-2011 20:59:02 21.7 C 11.83 g/m*3 21.7 C 0 km/h
106 22-08-2011 21:11:02 21.2 C 11.68 g/m*3 21.2 C 0 km/h
107 22-08-2011 21:23:02 21.1 C 11.79 g/m*3 21.1 C 0 km/h
108 22-08-2011 21:36:02 20.7 C 12.06 g/m*3 20.7 C 0 km/h
109 22-08-2011 21:48:02 21 C 11.91 g/m*3 21 C 0 km/h
110 22-08-2011 22:00:02 20 C 11.92 g/m*3 20 C 0 km/h
111 22-08-2011 22:12:02 19.9 C 12.03 g/m*3 19.9 C 0 km/h
112 22-08-2011 22:24:02 19.9 C 12.03 g/m*3 19.9 C 0 km/h
113 22-08-2011 22:36:02 19.5 C 12.25 g/m*3 19.5 C 0 km/h
114 22-08-2011 22:48:02 18.9 C 12.15 g/m*3 18.9 C 0 km/h
115 22-08-2011 23:00:02 18.9 C 12.15 g/m*3 18.9 C 0 km/h
116 22-08-2011 23:12:03 18.6 C 11.78 g/m*3 18.6 C 0 km/h
117 22-08-2011 23:24:03 18.4 C 11.8 g/m*3 18.4 C 0 km/h
118 22-08-2011 23:36:03 18.4 C 12.11 g/m*3 18.4 C 0 km/h
119 22-08-2011 23:48:03 18.4 C 12.27 g/m*3 18.4 C 0 km/h
120 23-08-2011 00:00:03 18.1 C 12.05 g/m*3 18.1 C 0 km/h
121 23-08-2011 00:12:03 18.3 C 12.2 g/m*3 18.3 C 0 km/h
122 23-08-2011 00:24:03 18 C 12.13 g/m*3 18 C 0 km/h
123 23-08-2011 00:36:03 17.7 C 12.07 g/m*3 17.7 C 0 km/h
124 23-08-2011 00:48:03 17.4 C 12 g/m*3 17.4 C 0 km/h
125 23-08-2011 01:00:03 17.6 C 12.3 g/m*3 17.6 C 0 km/h
Sensor: Nr:Datum:Temp:Abs-Feuchte:Windchill:Wind:
Aussen-T/F 126 23-08-2011 01:12:03 17.3 C 12.23 g/m*3 17.3 C 0 km/h
127 23-08-2011 01:24:03 17.3 C 12.23 g/m*3 17.3 C 0 km/h
128 23-08-2011 01:36:03 17.2 C 12.15 g/m*3 17.2 C 0 km/h
129 23-08-2011 01:48:03 17.1 C 12.08 g/m*3 17.1 C 0 km/h
130 23-08-2011 02:00:03 17.2 C 12.3 g/m*3 17.2 C 0 km/h
131 23-08-2011 02:12:03 17.4 C 12.45 g/m*3 17.4 C 0 km/h
132 23-08-2011 02:24:03 17.1 C 12.23 g/m*3 17.1 C 0 km/h
133 23-08-2011 02:36:03 17.5 C 12.52 g/m*3 17.5 C 0 km/h
134 23-08-2011 02:48:03 17.7 C 12.67 g/m*3 17.7 C 0 km/h
135 23-08-2011 03:00:03 17.8 C 12.75 g/m*3 17.8 C 0 km/h
136 23-08-2011 03:12:03 17.9 C 12.83 g/m*3 17.9 C 0 km/h
137 23-08-2011 03:24:04 17.7 C 12.52 g/m*3 17.7 C 0 km/h
138 23-08-2011 03:36:04 18.5 C 12.66 g/m*3 18.5 C 0 km/h
139 23-08-2011 03:48:04 18.4 C 11.8 g/m*3 18.4 C 0 km/h
140 23-08-2011 04:00:04 18.2 C 11.81 g/m*3 18.2 C 0 km/h
141 23-08-2011 04:12:04 18 C 11.67 g/m*3 18 C 0 km/h
142 23-08-2011 04:24:04 17.7 C 11.62 g/m*3 17.7 C 0 km/h
143 23-08-2011 04:36:04 17.5 C 11.78 g/m*3 17.5 C 0 km/h
144 23-08-2011 04:48:04 17.1 C 11.65 g/m*3 17.1 C 0 km/h
145 23-08-2011 05:00:04 16.9 C 11.79 g/m*3 16.9 C 0 km/h
146 23-08-2011 05:12:04 17.3 C 12.08 g/m*3 17.3 C 0 km/h
147 23-08-2011 05:24:04 17.4 C 12 g/m*3 17.4 C 0 km/h
148 23-08-2011 05:36:04 17.3 C 11.93 g/m*3 17.3 C 0 km/h
149 23-08-2011 05:48:04 17.3 C 11.93 g/m*3 17.3 C 0 km/h
150 23-08-2011 06:00:04 17.1 C 11.94 g/m*3 17.1 C 0 km/h
Sensor: Nr:Datum:Temp:Abs-Feuchte:Windchill:Wind:
Aussen-T/F 151 23-08-2011 06:12:04 17 C 11.87 g/m*3 17 C 0 km/h
152 23-08-2011 06:24:04 16.8 C 11.87 g/m*3 16.8 C 0 km/h
153 23-08-2011 06:36:04 16.8 C 11.87 g/m*3 16.8 C 0 km/h
154 23-08-2011 06:48:04 16.8 C 12.01 g/m*3 16.8 C 0 km/h
155 23-08-2011 07:00:04 17.2 C 12.3 g/m*3 17.2 C 0 km/h
156 23-08-2011 07:12:04 17.6 C 12.6 g/m*3 17.6 C 0 km/h
157 23-08-2011 07:24:04 18 C 12.44 g/m*3 18 C 0 km/h
158 23-08-2011 07:36:02 18.3 C 12.35 g/m*3 18.3 C 0 km/h
159 23-08-2011 07:48:02 18.7 C 12.49 g/m*3 18.7 C 0 km/h
160 23-08-2011 08:00:02 19.1 C 12.46 g/m*3 19.1 C 0 km/h
161 23-08-2011 08:12:02 19.3 C 12.11 g/m*3 19.3 C 0 km/h
162 23-08-2011 08:24:02 19.5 C 12.25 g/m*3 19.5 C 0 km/h
163 23-08-2011 08:36:02 19.7 C 12.57 g/m*3 19.7 C 0 km/h
164 23-08-2011 08:48:01 20.1 C 11.99 g/m*3 20.1 C 0 km/h
165 23-08-2011 09:00:01 20.3 C 11.96 g/m*3 20.3 C 0 km/h
166 23-08-2011 09:12:02 20.4 C 12.21 g/m*3 20.4 C 0 km/h
167 23-08-2011 09:24:01 19.8 C 12.47 g/m*3 19.8 C 0 km/h
168 23-08-2011 09:36:02 20.3 C 12.84 g/m*3 20.3 C 0 km/h
169 23-08-2011 09:48:02 21 C 13.01 g/m*3 21 C 0 km/h
170 23-08-2011 10:00:02 21.8 C 13.24 g/m*3 21.8 C 0 km/h
171 23-08-2011 10:12:02 22.2 C 12.76 g/m*3 22.2 C 0 km/h
172 23-08-2011 10:24:02 22.8 C 12.6 g/m*3 22.8 C 0 km/h
173 23-08-2011 10:36:02 22.8 C 12.8 g/m*3 22.8 C 0 km/h
174 23-08-2011 10:48:02 23.2 C 13.1 g/m*3 23.2 C 0 km/h
175 23-08-2011 11:00:02 23.5 C 13.11 g/m*3 23.5 C 0 km/h
Sensor: Nr:Datum:Temp:Abs-Feuchte:Windchill:Wind:
Aussen-T/F 176 23-08-2011 11:12:03 23.1 C 13.23 g/m*3 23.1 C 0 km/h
177 23-08-2011 11:24:02 23.6 C 13.82 g/m*3 23.6 C 0 km/h
178 23-08-2011 11:36:02 23.9 C 13.63 g/m*3 23.9 C 0 km/h
179 23-08-2011 11:48:01 25.2 C 13.74 g/m*3 25.2 C 0 km/h
180 23-08-2011 12:00:01 25.9 C 13.07 g/m*3 25.9 C 0 km/h
181 23-08-2011 12:12:02 27.7 C 12.57 g/m*3 27.7 C 0 km/h
182 23-08-2011 12:24:01 28 C 13.33 g/m*3 28 C 0 km/h
183 23-08-2011 12:36:01 27.7 C 13.11 g/m*3 27.7 C 0 km/h
184 23-08-2011 12:48:01 28.1 C 12.85 g/m*3 28.1 C 0 km/h
185 23-08-2011 13:00:01 29.2 C 12.49 g/m*3 29.2 C 0 km/h
186 23-08-2011 13:12:02 29.5 C 12.99 g/m*3 29.5 C 0 km/h
187 23-08-2011 13:24:02 29.9 C 13.87 g/m*3 29.9 C 0 km/h
188 23-08-2011 13:36:01 29.4 C 13.21 g/m*3 29.4 C 0 km/h
189 23-08-2011 13:48:01 30.3 C 12.02 g/m*3 30.3 C 0 km/h
190 23-08-2011 14:00:01 32.4 C 11.72 g/m*3 32.4 C 0 km/h
191 23-08-2011 14:12:01 33 C 9.26 g/m*3 33 C 0 km/h
192 23-08-2011 14:24:02 31.3 C 9.43 g/m*3 31.3 C 0 km/h
193 23-08-2011 14:36:01 30.9 C 9.87 g/m*3 30.9 C 0 km/h
194 23-08-2011 14:48:02 31.3 C 9.11 g/m*3 31.3 C 0 km/h
195 23-08-2011 15:00:02 31.7 C 9.3 g/m*3 31.7 C 0 km/h
196 23-08-2011 15:12:01 31.8 C 9.02 g/m*3 31.8 C 0 km/h
197 23-08-2011 15:24:02 32.3 C 8.58 g/m*3 32.3 C 0 km/h
198 23-08-2011 15:36:01 32.7 C 8.06 g/m*3 32.7 C 0 km/h
199 23-08-2011 15:48:02 32.9 C 8.14 g/m*3 32.9 C 0 km/h
200 23-08-2011 16:00:02 33 C 7.83 g/m*3 33 C 0 km/h
Sensor: Nr:Datum:Temp:Abs-Feuchte:Windchill:Wind:
Aussen-T/F 201 23-08-2011 16:12:02 33.5 C 8.04 g/m*3 33.5 C 0 km/h
202 23-08-2011 16:24:02 33.3 C 8.32 g/m*3 33.3 C 0 km/h
203 23-08-2011 16:36:02 32.9 C 9.21 g/m*3 32.9 C 0 km/h
204 23-08-2011 16:48:01 32.3 C 9.26 g/m*3 32.3 C 0 km/h
205 23-08-2011 17:00:01 33.3 C 9.04 g/m*3 33.3 C 0 km/h
206 23-08-2011 17:12:01 32.7 C 8.76 g/m*3 32.7 C 0 km/h
207 23-08-2011 17:24:01 32.9 C 8.5 g/m*3 32.9 C 0 km/h
208 23-08-2011 17:36:01 33 C 8.9 g/m*3 33 C 0 km/h
209 23-08-2011 17:48:01 31.4 C 9.81 g/m*3 31.4 C 0 km/h
210 23-08-2011 18:00:01 30.4 C 11.16 g/m*3 30.4 C 0 km/h
211 23-08-2011 18:12:01 29.6 C 12.46 g/m*3 29.6 C 0 km/h
212 23-08-2011 18:24:02 30 C 12.13 g/m*3 30 C 0 km/h
213 23-08-2011 18:36:01 31.3 C 11.38 g/m*3 31.3 C 0 km/h
214 23-08-2011 18:48:01 31 C 11.84 g/m*3 31 C 0 km/h
215 23-08-2011 19:00:01 30.7 C 12.6 g/m*3 30.7 C 0 km/h
216 23-08-2011 19:12:01 30.6 C 10.34 g/m*3 30.6 C 0 km/h
217 23-08-2011 19:24:02 30.6 C 10.96 g/m*3 30.6 C 0 km/h
218 23-08-2011 19:36:01 28.9 C 12 g/m*3 28.9 C 0 km/h
219 23-08-2011 19:48:03 27.7 C 12.84 g/m*3 27.7 C 0 km/h
220 23-08-2011 20:00:03 26.5 C 13.27 g/m*3 26.5 C 0 km/h
221 23-08-2011 20:12:02 25.5 C 13.49 g/m*3 25.5 C 0 km/h
222 23-08-2011 20:24:02 24.6 C 13.5 g/m*3 24.6 C 0 km/h
223 23-08-2011 20:36:02 24.1 C 14 g/m*3 24.1 C 0 km/h
224 23-08-2011 20:48:02 23.7 C 14.12 g/m*3 23.7 C 0 km/h
225 23-08-2011 21:00:02 23.4 C 13.88 g/m*3 23.4 C 0 km/h
Sensor: Nr:Datum:Temp:Abs-Feuchte:Windchill:Wind:
Aussen-T/F 226 23-08-2011 21:12:02 23.3 C 12.55 g/m*3 23.3 C 0 km/h
227 23-08-2011 21:24:02 23.2 C 12.68 g/m*3 23.2 C 0 km/h
228 23-08-2011 21:36:02 22.8 C 13.21 g/m*3 22.8 C 0 km/h
229 23-08-2011 21:48:02 22.5 C 12.98 g/m*3 22.5 C 0 km/h
230 23-08-2011 22:00:02 21.8 C 12.85 g/m*3 21.8 C 0 km/h
231 23-08-2011 22:12:02 21.6 C 13.09 g/m*3 21.6 C 0 km/h
232 23-08-2011 22:24:01 21.2 C 12.97 g/m*3 21.2 C 0 km/h
233 23-08-2011 22:36:02 20.9 C 12.93 g/m*3 20.9 C 0 km/h
234 23-08-2011 22:48:02 20.6 C 12.89 g/m*3 20.6 C 0 km/h
235 23-08-2011 23:00:02 20.4 C 12.91 g/m*3 20.4 C 0 km/h
236 23-08-2011 23:12:02 20.5 C 13.17 g/m*3 20.5 C 0 km/h
237 23-08-2011 23:25:03 20.1 C 13.04 g/m*3 20.1 C 0 km/h
238 23-08-2011 23:37:03 20 C 12.96 g/m*3 20 C 0 km/h
239 23-08-2011 23:49:03 20.3 C 13.37 g/m*3 20.3 C 0 km/h
240 24-08-2011 00:01:03 20.3 C 13.01 g/m*3 20.3 C 0 km/h
241 24-08-2011 00:13:03 20.8 C 13.22 g/m*3 20.8 C 0 km/h
242 24-08-2011 00:25:03 20.9 C 13.11 g/m*3 20.9 C 0 km/h
243 24-08-2011 00:37:03 20.7 C 12.6 g/m*3 20.7 C 0 km/h
244 24-08-2011 00:49:03 20.5 C 12.63 g/m*3 20.5 C 0 km/h
245 24-08-2011 01:01:03 20.3 C 12.49 g/m*3 20.3 C 0 km/h
246 24-08-2011 01:13:03 20.4 C 12.38 g/m*3 20.4 C 0 km/h
247 24-08-2011 01:25:03 20.1 C 12.34 g/m*3 20.1 C 0 km/h
248 24-08-2011 01:37:04 20.7 C 12.42 g/m*3 20.7 C 0 km/h
249 24-08-2011 01:49:04 20.4 C 12.03 g/m*3 20.4 C 0 km/h
250 24-08-2011 02:01:04 20.5 C 12.1 g/m*3 20.5 C 0 km/h
Sensor: Nr:Datum:Temp:Abs-Feuchte:Windchill:Wind:
Aussen-T/F 251 24-08-2011 02:13:04 20.7 C 12.24 g/m*3 20.7 C 0 km/h
252 24-08-2011 02:25:04 20.4 C 12.03 g/m*3 20.4 C 0 km/h
253 24-08-2011 02:37:04 20.3 C 12.14 g/m*3 20.3 C 0 km/h
254 24-08-2011 02:49:04 19.9 C 12.54 g/m*3 19.9 C 0 km/h
255 24-08-2011 03:01:04 19.9 C 12.54 g/m*3 19.9 C 0 km/h
256 24-08-2011 03:13:04 19.5 C 12.42 g/m*3 19.5 C 0 km/h
257 24-08-2011 03:25:04 18.9 C 12.47 g/m*3 18.9 C 0 km/h
258 24-08-2011 03:37:04 18.9 C 12.64 g/m*3 18.9 C 0 km/h
259 24-08-2011 03:49:04 19.1 C 12.62 g/m*3 19.1 C 0 km/h
260 24-08-2011 04:01:04 19.1 C 12.46 g/m*3 19.1 C 0 km/h
261 24-08-2011 04:13:04 19.2 C 12.53 g/m*3 19.2 C 0 km/h
262 24-08-2011 04:25:04 19.1 C 12.29 g/m*3 19.1 C 0 km/h
263 24-08-2011 04:37:04 18.7 C 12.33 g/m*3 18.7 C 0 km/h
264 24-08-2011 04:49:04 18.6 C 12.57 g/m*3 18.6 C 0 km/h
265 24-08-2011 05:01:04 18.2 C 12.43 g/m*3 18.2 C 0 km/h
266 24-08-2011 05:13:04 17.8 C 12.45 g/m*3 17.8 C 0 km/h
267 24-08-2011 05:25:04 17.5 C 12.23 g/m*3 17.5 C 0 km/h
268 24-08-2011 05:37:04 17.4 C 12.15 g/m*3 17.4 C 0 km/h
269 24-08-2011 05:49:05 17.2 C 12.15 g/m*3 17.2 C 0 km/h
270 24-08-2011 06:01:05 17.2 C 12.15 g/m*3 17.2 C 0 km/h
271 24-08-2011 06:13:05 17.2 C 12.3 g/m*3 17.2 C 0 km/h
272 24-08-2011 06:25:05 17 C 12.15 g/m*3 17 C 0 km/h
273 24-08-2011 06:37:05 16.8 C 12.01 g/m*3 16.8 C 0 km/h
274 24-08-2011 06:49:05 16.9 C 12.23 g/m*3 16.9 C 0 km/h
275 24-08-2011 07:01:05 16.8 C 12.15 g/m*3 16.8 C 0 km/h
Sensor: Nr:Datum:Temp:Abs-Feuchte:Windchill:Wind:
Aussen-T/F 276 24-08-2011 07:13:05 17.2 C 12.45 g/m*3 17.2 C 0 km/h
277 24-08-2011 07:25:02 17.7 C 12.82 g/m*3 17.7 C 0 km/h
278 24-08-2011 07:37:03 17.7 C 12.67 g/m*3 17.7 C 0 km/h
279 24-08-2011 07:49:03 17.6 C 12.6 g/m*3 17.6 C 0 km/h
280 24-08-2011 08:01:02 18.3 C 13.13 g/m*3 18.3 C 0 km/h
281 24-08-2011 08:13:02 19.2 C 12.86 g/m*3 19.2 C 0 km/h
282 24-08-2011 08:25:02 19.3 C 12.44 g/m*3 19.3 C 0 km/h
283 24-08-2011 08:37:02 19.5 C 12.42 g/m*3 19.5 C 0 km/h
284 24-08-2011 08:49:02 19.6 C 12.32 g/m*3 19.6 C 0 km/h
285 24-08-2011 09:01:02 19.2 C 12.53 g/m*3 19.2 C 0 km/h
286 24-08-2011 09:13:02 19 C 12.71 g/m*3 19 C 0 km/h
287 24-08-2011 09:25:02 19.2 C 13.03 g/m*3 19.2 C 0 km/h
288 24-08-2011 09:37:02 19.3 C 13.1 g/m*3 19.3 C 0 km/h
289 24-08-2011 09:49:02 19.3 C 13.1 g/m*3 19.3 C 0 km/h
290 24-08-2011 10:01:02 19.9 C 13.4 g/m*3 19.9 C 0 km/h
291 24-08-2011 10:13:02 20.4 C 12.91 g/m*3 20.4 C 0 km/h
292 24-08-2011 10:25:01 20.9 C 12.93 g/m*3 20.9 C 0 km/h
293 24-08-2011 10:37:02 21.3 C 13.05 g/m*3 21.3 C 0 km/h
294 24-08-2011 10:49:02 22.7 C 13.13 g/m*3 22.7 C 0 km/h
295 24-08-2011 11:01:02 22.6 C 12.86 g/m*3 22.6 C 0 km/h
296 24-08-2011 11:13:02 22.9 C 12.47 g/m*3 22.9 C 0 km/h
297 24-08-2011 11:25:02 23.1 C 12.2 g/m*3 23.1 C 0 km/h
298 24-08-2011 11:37:02 24.7 C 12 g/m*3 24.7 C 0 km/h
299 24-08-2011 11:49:02 25.6 C 11.19 g/m*3 25.6 C 0 km/h
300 24-08-2011 12:01:02 25.4 C 11.06 g/m*3 25.4 C 0 km/h
Sensor: Nr:Datum:Temp:Abs-Feuchte:Windchill:Wind:
Aussen-T/F 301 24-08-2011 12:13:03 25.7 C 11.25 g/m*3 25.7 C 0 km/h
302 24-08-2011 12:25:02 25.5 C 11.6 g/m*3 25.5 C 0 km/h
303 24-08-2011 12:37:02 25.6 C 11.43 g/m*3 25.6 C 0 km/h
304 24-08-2011 12:49:01 26 C 11.44 g/m*3 26 C 0 km/h
305 24-08-2011 13:01:01 26.1 C 11.02 g/m*3 26.1 C 0 km/h
306 24-08-2011 13:13:01 26.6 C 11.08 g/m*3 26.6 C 0 km/h
307 24-08-2011 13:25:02 27.1 C 11.13 g/m*3 27.1 C 0 km/h
308 24-08-2011 13:37:01 27.4 C 10.52 g/m*3 27.4 C 0 km/h
309 24-08-2011 13:49:02 28.3 C 10.78 g/m*3 28.3 C 0 km/h
310 24-08-2011 14:01:02 30.1 C 9.45 g/m*3 30.1 C 0 km/h
311 24-08-2011 14:13:02 31.5 C 9.2 g/m*3 31.5 C 0 km/h
312 24-08-2011 14:25:02 28.6 C 10.12 g/m*3 28.6 C 0 km/h
313 24-08-2011 14:37:02 26.8 C 11.2 g/m*3 26.8 C 0 km/h
314 24-08-2011 14:49:01 25.7 C 11.73 g/m*3 25.7 C 0 km/h
315 24-08-2011 15:01:01 24.8 C 12.29 g/m*3 24.8 C 0 km/h
316 24-08-2011 15:13:01 23.8 C 13.12 g/m*3 23.8 C 0 km/h
317 24-08-2011 15:25:02 24.1 C 11.16 g/m*3 24.1 C 0 km/h
318 24-08-2011 15:37:01 24 C 10.88 g/m*3 24 C 0 km/h
319 24-08-2011 15:49:03 24.5 C 10.97 g/m*3 24.5 C 0 km/h
320 24-08-2011 16:01:02 25.6 C 9.52 g/m*3 25.6 C 0 km/h
321 24-08-2011 16:13:02 24.9 C 9.84 g/m*3 24.9 C 0 km/h
322 24-08-2011 16:25:02 23.8 C 10.76 g/m*3 23.8 C 0 km/h
323 24-08-2011 16:37:02 21.5 C 11.69 g/m*3 21.5 C 0 km/h
324 24-08-2011 16:49:02 22.2 C 12.57 g/m*3 22.2 C 0 km/h
325 24-08-2011 17:01:02 22.5 C 11.78 g/m*3 22.5 C 0 km/h
Sensor: Nr:Datum:Temp:Abs-Feuchte:Windchill:Wind:
Aussen-T/F 326 24-08-2011 17:13:02 22.9 C 11.04 g/m*3 22.9 C 0 km/h
327 24-08-2011 17:25:02 21.9 C 11.96 g/m*3 21.9 C 0 km/h
328 24-08-2011 17:37:02 23.7 C 10.48 g/m*3 23.7 C 0 km/h
329 24-08-2011 17:49:02 22.4 C 11.32 g/m*3 22.4 C 0 km/h
330 24-08-2011 18:01:02 22.3 C 11.85 g/m*3 22.3 C 0 km/h
331 24-08-2011 18:13:02 21.6 C 12.33 g/m*3 21.6 C 0 km/h
332 24-08-2011 18:25:02 21.1 C 12.9 g/m*3 21.1 C 0 km/h
333 24-08-2011 18:37:02 21.2 C 12.97 g/m*3 21.2 C 0 km/h
334 24-08-2011 18:49:02 21.7 C 12.97 g/m*3 21.7 C 0 km/h
335 24-08-2011 19:01:02 21.8 C 11.7 g/m*3 21.8 C 0 km/h
336 24-08-2011 19:13:02 21.6 C 11.19 g/m*3 21.6 C 0 km/h
337 24-08-2011 19:25:02 21.6 C 11.38 g/m*3 21.6 C 0 km/h
338 24-08-2011 19:37:02 21.7 C 11.25 g/m*3 21.7 C 0 km/h
339 24-08-2011 19:49:02 20.7 C 11.34 g/m*3 20.7 C 0 km/h
340 24-08-2011 20:01:02 20.2 C 11.71 g/m*3 20.2 C 0 km/h
341 24-08-2011 20:13:02 20 C 11.58 g/m*3 20 C 0 km/h
342 24-08-2011 20:25:03 20 C 11.58 g/m*3 20 C 0 km/h
343 24-08-2011 20:37:02 19.6 C 11.65 g/m*3 19.6 C 0 km/h
344 24-08-2011 20:49:02 19.8 C 11.44 g/m*3 19.8 C 0 km/h
345 24-08-2011 21:01:02 19.1 C 11.47 g/m*3 19.1 C 0 km/h
346 24-08-2011 21:13:02 18.8 C 11.76 g/m*3 18.8 C 0 km/h
347 24-08-2011 21:25:02 18.8 C 11.76 g/m*3 18.8 C 0 km/h
348 24-08-2011 21:37:02 18.1 C 11.74 g/m*3 18.1 C 0 km/h
349 24-08-2011 21:49:01 18 C 11.98 g/m*3 18 C 0 km/h
350 24-08-2011 22:01:02 17.8 C 12.14 g/m*3 17.8 C 0 km/h
Sensor: Nr:Datum:Temp:Abs-Feuchte:Windchill:Wind:
Aussen-T/F 351 24-08-2011 22:13:02 17.8 C 12.29 g/m*3 17.8 C 0 km/h
352 24-08-2011 22:26:03 17.8 C 12.29 g/m*3 17.8 C 0 km/h
353 24-08-2011 22:38:03 18.2 C 12.28 g/m*3 18.2 C 0 km/h
354 24-08-2011 22:50:03 17.7 C 12.07 g/m*3 17.7 C 0 km/h
355 24-08-2011 23:02:03 17.6 C 12.3 g/m*3 17.6 C 0 km/h
356 24-08-2011 23:14:03 17.7 C 12.37 g/m*3 17.7 C 0 km/h
357 24-08-2011 23:26:03 17.5 C 12.23 g/m*3 17.5 C 0 km/h
358 24-08-2011 23:38:03 17.3 C 12.08 g/m*3 17.3 C 0 km/h
359 24-08-2011 23:50:03 17.2 C 12.15 g/m*3 17.2 C 0 km/h
360 25-08-2011 00:02:03 17.5 C 12.37 g/m*3 17.5 C 0 km/h
361 25-08-2011 00:14:03 17.2 C 12.15 g/m*3 17.2 C 0 km/h
362 25-08-2011 00:26:03 17.1 C 12.08 g/m*3 17.1 C 0 km/h
363 25-08-2011 00:38:03 17.3 C 12.23 g/m*3 17.3 C 0 km/h
364 25-08-2011 00:50:03 16.5 C 11.65 g/m*3 16.5 C 0 km/h
365 25-08-2011 01:02:03 16.2 C 11.58 g/m*3 16.2 C 0 km/h
366 25-08-2011 01:14:03 16.1 C 11.51 g/m*3 16.1 C 0 km/h
367 25-08-2011 01:26:04 15.5 C 11.24 g/m*3 15.5 C 0 km/h
368 25-08-2011 01:38:04 15.2 C 11.03 g/m*3 15.2 C 0 km/h
369 25-08-2011 01:50:04 15.4 C 11.3 g/m*3 15.4 C 0 km/h
370 25-08-2011 02:02:04 15.6 C 11.57 g/m*3 15.6 C 0 km/h
371 25-08-2011 02:14:04 15.2 C 11.29 g/m*3 15.2 C 0 km/h
372 25-08-2011 02:26:04 15.2 C 11.29 g/m*3 15.2 C 0 km/h
373 25-08-2011 02:38:04 14.8 C 11.15 g/m*3 14.8 C 0 km/h
374 25-08-2011 02:50:04 14.7 C 11.08 g/m*3 14.7 C 0 km/h
375 25-08-2011 03:02:04 14.7 C 11.08 g/m*3 14.7 C 0 km/h
Sensor: Nr:Datum:Temp:Abs-Feuchte:Windchill:Wind:
Aussen-T/F 376 25-08-2011 03:14:04 14.6 C 11.01 g/m*3 14.6 C 0 km/h
377 25-08-2011 03:26:04 14.5 C 10.94 g/m*3 14.5 C 0 km/h
378 25-08-2011 03:38:04 14.4 C 10.88 g/m*3 14.4 C 0 km/h
379 25-08-2011 03:50:04 14.7 C 11.08 g/m*3 14.7 C 0 km/h
380 25-08-2011 04:02:04 14.4 C 10.88 g/m*3 14.4 C 0 km/h
381 25-08-2011 04:14:04 14.3 C 10.81 g/m*3 14.3 C 0 km/h
382 25-08-2011 04:26:04 14.4 C 10.88 g/m*3 14.4 C 0 km/h
383 25-08-2011 04:38:04 14.8 C 11.27 g/m*3 14.8 C 0 km/h
384 25-08-2011 04:50:04 14.9 C 11.34 g/m*3 14.9 C 0 km/h
385 25-08-2011 05:02:04 14.8 C 11.27 g/m*3 14.8 C 0 km/h
386 25-08-2011 05:14:04 14.7 C 11.21 g/m*3 14.7 C 0 km/h
387 25-08-2011 05:26:04 14.3 C 10.93 g/m*3 14.3 C 0 km/h
388 25-08-2011 05:38:05 14.4 C 11 g/m*3 14.4 C 0 km/h
389 25-08-2011 05:50:05 14.1 C 10.8 g/m*3 14.1 C 0 km/h
390 25-08-2011 06:02:05 13.9 C 10.67 g/m*3 13.9 C 0 km/h
391 25-08-2011 06:14:05 14.2 C 10.87 g/m*3 14.2 C 0 km/h
392 25-08-2011 06:26:05 14.6 C 11.14 g/m*3 14.6 C 0 km/h
393 25-08-2011 06:38:05 15.1 C 11.48 g/m*3 15.1 C 0 km/h
394 25-08-2011 06:50:05 15.4 C 11.69 g/m*3 15.4 C 0 km/h
395 25-08-2011 07:02:05 15.6 C 11.84 g/m*3 15.6 C 0 km/h
396 25-08-2011 07:14:05 15.8 C 12.11 g/m*3 15.8 C 0 km/h
397 25-08-2011 07:26:05 15.8 C 12.11 g/m*3 15.8 C 0 km/h
398 25-08-2011 07:38:03 16.1 C 12.2 g/m*3 16.1 C 0 km/h
399 25-08-2011 07:50:02 16.2 C 12.27 g/m*3 16.2 C 0 km/h
400 25-08-2011 08:02:02 16.2 C 12.27 g/m*3 16.2 C 0 km/h
Sensor: Nr:Datum:Temp:Abs-Feuchte:Windchill:Wind:
Aussen-T/F 401 25-08-2011 08:14:02 16.6 C 12.57 g/m*3 16.6 C 0 km/h
402 25-08-2011 08:26:01 16.7 C 12.65 g/m*3 16.7 C 0 km/h
403 25-08-2011 08:38:02 16.8 C 12.72 g/m*3 16.8 C 0 km/h
404 25-08-2011 08:50:02 16.9 C 12.66 g/m*3 16.9 C 0 km/h
405 25-08-2011 09:02:02 17.5 C 12.97 g/m*3 17.5 C 0 km/h
406 25-08-2011 09:14:02 18.1 C 12.67 g/m*3 18.1 C 0 km/h
407 25-08-2011 09:26:02 18.3 C 12.2 g/m*3 18.3 C 0 km/h
408 25-08-2011 09:38:02 18.5 C 11.87 g/m*3 18.5 C 0 km/h
409 25-08-2011 09:50:02 18.9 C 12.15 g/m*3 18.9 C 0 km/h
410 25-08-2011 10:02:02 19.1 C 11.8 g/m*3 19.1 C 0 km/h
411 25-08-2011 10:14:03 19.4 C 11.68 g/m*3 19.4 C 0 km/h
412 25-08-2011 10:26:02 19.8 C 11.44 g/m*3 19.8 C 0 km/h
413 25-08-2011 10:38:02 19.8 C 11.27 g/m*3 19.8 C 0 km/h
414 25-08-2011 10:50:01 20.4 C 11.32 g/m*3 20.4 C 0 km/h
415 25-08-2011 11:02:01 20.8 C 11.41 g/m*3 20.8 C 0 km/h
416 25-08-2011 11:14:01 21.3 C 11 g/m*3 21.3 C 0 km/h
417 25-08-2011 11:26:01 20.3 C 11.26 g/m*3 20.3 C 0 km/h
418 25-08-2011 11:38:01 20.1 C 11.3 g/m*3 20.1 C 0 km/h
419 25-08-2011 11:50:01 20.2 C 11.71 g/m*3 20.2 C 0 km/h
420 25-08-2011 12:02:01 20.8 C 11.77 g/m*3 20.8 C 0 km/h
421 25-08-2011 12:14:01 21.2 C 11.86 g/m*3 21.2 C 0 km/h
422 25-08-2011 12:26:02 22 C 11.65 g/m*3 22 C 0 km/h
423 25-08-2011 12:38:01 22.4 C 11.92 g/m*3 22.4 C 0 km/h
424 25-08-2011 12:50:03 23.3 C 12.13 g/m*3 23.3 C 0 km/h
425 25-08-2011 13:02:02 24.1 C 12.03 g/m*3 24.1 C 0 km/h
Sensor: Nr:Datum:Temp:Abs-Feuchte:Windchill:Wind:
Aussen-T/F 426 25-08-2011 13:14:02 24.7 C 12 g/m*3 24.7 C 0 km/h
427 25-08-2011 13:26:03 25.3 C 11.71 g/m*3 25.3 C 0 km/h
428 25-08-2011 13:38:02 25.4 C 11.77 g/m*3 25.4 C 0 km/h
429 25-08-2011 13:50:01 27.2 C 11.45 g/m*3 27.2 C 0 km/h
430 25-08-2011 14:02:01 29.6 C 11.28 g/m*3 29.6 C 0 km/h
431 25-08-2011 14:14:01 31.2 C 10.35 g/m*3 31.2 C 0 km/h
432 25-08-2011 14:26:02 31.2 C 10.67 g/m*3 31.2 C 0 km/h
433 25-08-2011 14:38:01 31.4 C 10.14 g/m*3 31.4 C 0 km/h
434 25-08-2011 14:50:02 31.5 C 9.53 g/m*3 31.5 C 0 km/h
435 25-08-2011 15:02:02 30.7 C 9.45 g/m*3 30.7 C 0 km/h
436 25-08-2011 15:14:02 31.1 C 9.97 g/m*3 31.1 C 0 km/h
437 25-08-2011 15:26:02 30.7 C 10.39 g/m*3 30.7 C 0 km/h
438 25-08-2011 15:38:02 30.7 C 10.08 g/m*3 30.7 C 0 km/h
439 25-08-2011 15:50:02 30.2 C 9.81 g/m*3 30.2 C 0 km/h
440 25-08-2011 16:02:02 29.8 C 10.8 g/m*3 29.8 C 0 km/h
441 25-08-2011 16:14:02 29.3 C 10.51 g/m*3 29.3 C 0 km/h
442 25-08-2011 16:26:02 28.3 C 11.06 g/m*3 28.3 C 0 km/h
443 25-08-2011 16:38:01 27.9 C 11.63 g/m*3 27.9 C 0 km/h
444 25-08-2011 16:50:02 27.2 C 11.45 g/m*3 27.2 C 0 km/h
445 25-08-2011 17:02:01 27.1 C 11.65 g/m*3 27.1 C 0 km/h
446 25-08-2011 17:14:01 26.5 C 11.51 g/m*3 26.5 C 0 km/h
447 25-08-2011 17:26:02 25.7 C 12.21 g/m*3 25.7 C 0 km/h
448 25-08-2011 17:38:02 25.3 C 12.64 g/m*3 25.3 C 0 km/h
449 25-08-2011 17:50:02 25.1 C 12.96 g/m*3 25.1 C 0 km/h
450 25-08-2011 18:02:02 25.6 C 13.33 g/m*3 25.6 C 0 km/h
Sensor: Nr:Datum:Temp:Abs-Feuchte:Windchill:Wind:
Aussen-T/F 451 25-08-2011 18:14:02 27.6 C 11.97 g/m*3 27.6 C 0 km/h
452 25-08-2011 18:26:02 28.4 C 11.12 g/m*3 28.4 C 0 km/h
453 25-08-2011 18:38:03 27.8 C 11.83 g/m*3 27.8 C 0 km/h
454 25-08-2011 18:50:02 26.8 C 12.73 g/m*3 26.8 C 0 km/h
455 25-08-2011 19:02:02 25.6 C 12.38 g/m*3 25.6 C 0 km/h
456 25-08-2011 19:14:02 25.3 C 12.64 g/m*3 25.3 C 0 km/h
457 25-08-2011 19:26:02 24.7 C 12.9 g/m*3 24.7 C 0 km/h
458 25-08-2011 19:38:01 24.4 C 12.91 g/m*3 24.4 C 0 km/h
459 25-08-2011 19:50:02 23.7 C 13.26 g/m*3 23.7 C 0 km/h
460 25-08-2011 20:02:01 23.3 C 13.59 g/m*3 23.3 C 0 km/h
461 25-08-2011 20:14:01 23 C 13.15 g/m*3 23 C 0 km/h
462 25-08-2011 20:26:02 22.7 C 13.54 g/m*3 22.7 C 0 km/h
463 25-08-2011 20:38:02 22.3 C 13.43 g/m*3 22.3 C 0 km/h
464 25-08-2011 20:50:02 21.9 C 13.7 g/m*3 21.9 C 0 km/h
465 25-08-2011 21:02:02 21.1 C 13.45 g/m*3 21.1 C 0 km/h
466 25-08-2011 21:14:02 20.7 C 13.68 g/m*3 20.7 C 0 km/h
467 25-08-2011 21:26:02 21.2 C 13.9 g/m*3 21.2 C 0 km/h
468 25-08-2011 21:38:02 21.2 C 13.71 g/m*3 21.2 C 0 km/h
469 25-08-2011 21:50:02 20.8 C 14.12 g/m*3 20.8 C 0 km/h
470 25-08-2011 22:02:02 20.5 C 14.23 g/m*3 20.5 C 0 km/h
471 25-08-2011 22:14:03 20.4 C 14.51 g/m*3 20.4 C 0 km/h
472 25-08-2011 22:27:03 20.4 C 14.51 g/m*3 20.4 C 0 km/h
473 25-08-2011 22:39:03 20.3 C 14.6 g/m*3 20.3 C 0 km/h
474 25-08-2011 22:51:03 20.1 C 14.43 g/m*3 20.1 C 0 km/h
475 25-08-2011 23:03:03 20.1 C 14.43 g/m*3 20.1 C 0 km/h
Sensor: Nr:Datum:Temp:Abs-Feuchte:Windchill:Wind:
Aussen-T/F 476 25-08-2011 23:15:03 20.1 C 14.43 g/m*3 20.1 C 0 km/h
477 25-08-2011 23:27:03 20 C 14.34 g/m*3 20 C 0 km/h
478 25-08-2011 23:39:03 19.8 C 14.35 g/m*3 19.8 C 0 km/h
479 25-08-2011 23:51:03 20 C 14.52 g/m*3 20 C 0 km/h
480 26-08-2011 00:03:03 19.6 C 14.18 g/m*3 19.6 C 0 km/h
481 26-08-2011 00:15:03 19.5 C 14.27 g/m*3 19.5 C 0 km/h
482 26-08-2011 00:27:04 19.6 C 14.35 g/m*3 19.6 C 0 km/h
483 26-08-2011 00:39:04 19.8 C 14.69 g/m*3 19.8 C 0 km/h
484 26-08-2011 00:51:04 20 C 14.69 g/m*3 20 C 0 km/h
485 26-08-2011 01:03:04 19.8 C 14.69 g/m*3 19.8 C 0 km/h
486 26-08-2011 01:15:04 19.7 C 14.43 g/m*3 19.7 C 0 km/h
487 26-08-2011 01:27:04 19.6 C 14.35 g/m*3 19.6 C 0 km/h
488 26-08-2011 01:39:04 19.6 C 14.35 g/m*3 19.6 C 0 km/h
489 26-08-2011 01:51:04 19.4 C 14.18 g/m*3 19.4 C 0 km/h
490 26-08-2011 02:03:04 19.1 C 13.93 g/m*3 19.1 C 0 km/h
491 26-08-2011 02:15:04 19.1 C 13.93 g/m*3 19.1 C 0 km/h
492 26-08-2011 02:27:04 19.1 C 13.93 g/m*3 19.1 C 0 km/h
493 26-08-2011 02:39:04 19 C 14.01 g/m*3 19 C 0 km/h
494 26-08-2011 02:51:04 19 C 14.01 g/m*3 19 C 0 km/h
495 26-08-2011 03:03:04 18.8 C 14.01 g/m*3 18.8 C 0 km/h
496 26-08-2011 03:15:04 19.1 C 14.1 g/m*3 19.1 C 0 km/h
497 26-08-2011 03:27:04 19.1 C 14.1 g/m*3 19.1 C 0 km/h
498 26-08-2011 03:39:04 19.3 C 14.43 g/m*3 19.3 C 0 km/h
499 26-08-2011 03:51:04 19.1 C 14.26 g/m*3 19.1 C 0 km/h
500 26-08-2011 04:03:04 18.9 C 14.09 g/m*3 18.9 C 0 km/h
Sensor: Nr:Datum:Temp:Abs-Feuchte:Windchill:Wind:
Aussen-T/F 501 26-08-2011 04:15:04 18.5 C 13.77 g/m*3 18.5 C 0 km/h
502 26-08-2011 04:27:04 18.3 C 13.6 g/m*3 18.3 C 0 km/h
503 26-08-2011 04:39:04 18.3 C 13.6 g/m*3 18.3 C 0 km/h
504 26-08-2011 04:51:05 18.2 C 13.52 g/m*3 18.2 C 0 km/h
505 26-08-2011 05:03:05 18.1 C 13.44 g/m*3 18.1 C 0 km/h
506 26-08-2011 05:15:05 18 C 13.36 g/m*3 18 C 0 km/h
507 26-08-2011 05:27:05 18.2 C 13.52 g/m*3 18.2 C 0 km/h
508 26-08-2011 05:39:05 17.9 C 13.44 g/m*3 17.9 C 0 km/h
509 26-08-2011 05:51:05 17.9 C 13.44 g/m*3 17.9 C 0 km/h
510 26-08-2011 06:03:05 17.7 C 13.28 g/m*3 17.7 C 0 km/h
511 26-08-2011 06:15:05 17.5 C 13.12 g/m*3 17.5 C 0 km/h
512 26-08-2011 06:27:05 17.8 C 13.36 g/m*3 17.8 C 0 km/h
513 26-08-2011 06:39:05 17.7 C 13.28 g/m*3 17.7 C 0 km/h
514 26-08-2011 06:51:05 17.9 C 13.44 g/m*3 17.9 C 0 km/h
515 26-08-2011 07:03:05 17.7 C 13.43 g/m*3 17.7 C 0 km/h
516 26-08-2011 07:15:05 18 C 13.52 g/m*3 18 C 0 km/h
517 26-08-2011 07:27:05 18.1 C 13.6 g/m*3 18.1 C 0 km/h
518 26-08-2011 07:39:02 18.2 C 13.68 g/m*3 18.2 C 0 km/h
519 26-08-2011 07:51:01 18.3 C 13.76 g/m*3 18.3 C 0 km/h
520 26-08-2011 08:03:01 18.8 C 14.17 g/m*3 18.8 C 0 km/h
521 26-08-2011 08:15:01 18.5 C 13.77 g/m*3 18.5 C 0 km/h
522 26-08-2011 08:27:01 18.6 C 13.85 g/m*3 18.6 C 0 km/h
523 26-08-2011 08:39:02 18.7 C 13.93 g/m*3 18.7 C 0 km/h
524 26-08-2011 08:51:02 18.9 C 13.93 g/m*3 18.9 C 0 km/h
525 26-08-2011 09:03:02 19.1 C 13.77 g/m*3 19.1 C 0 km/h
Sensor: Nr:Datum:Temp:Abs-Feuchte:Windchill:Wind:
Aussen-T/F 526 26-08-2011 09:15:01 19.2 C 13.85 g/m*3 19.2 C 0 km/h
527 26-08-2011 09:27:01 19.6 C 14.01 g/m*3 19.6 C 0 km/h
528 26-08-2011 09:39:02 20.2 C 14.34 g/m*3 20.2 C 0 km/h
529 26-08-2011 09:51:02 21.4 C 15.19 g/m*3 21.4 C 0 km/h
530 26-08-2011 10:03:02 22.7 C 14.75 g/m*3 22.7 C 0 km/h
531 26-08-2011 10:15:02 23.3 C 14.84 g/m*3 23.3 C 0 km/h
532 26-08-2011 10:27:02 24.8 C 14.34 g/m*3 24.8 C 0 km/h
533 26-08-2011 10:39:02 25.3 C 13.58 g/m*3 25.3 C 0 km/h
534 26-08-2011 10:51:02 25.3 C 13.34 g/m*3 25.3 C 0 km/h
535 26-08-2011 11:03:02 25.4 C 13.42 g/m*3 25.4 C 0 km/h
536 26-08-2011 11:15:02 25.8 C 13 g/m*3 25.8 C 0 km/h
537 26-08-2011 11:27:02 27 C 12.61 g/m*3 27 C 0 km/h
538 26-08-2011 11:39:02 27.4 C 12.63 g/m*3 27.4 C 0 km/h
539 26-08-2011 11:51:02 26.4 C 12.45 g/m*3 26.4 C 0 km/h
540 26-08-2011 12:03:02 24.7 C 14.49 g/m*3 24.7 C 0 km/h
541 26-08-2011 12:15:02 25 C 14.96 g/m*3 25 C 0 km/h
542 26-08-2011 12:27:02 25.8 C 13.96 g/m*3 25.8 C 0 km/h
543 26-08-2011 12:39:02 26.6 C 13.59 g/m*3 26.6 C 0 km/h
544 26-08-2011 12:51:02 27.2 C 13.01 g/m*3 27.2 C 0 km/h
545 26-08-2011 13:03:02 27.7 C 12.3 g/m*3 27.7 C 0 km/h
546 26-08-2011 13:15:03 28.7 C 13.85 g/m*3 28.7 C 0 km/h
547 26-08-2011 13:27:03 29.5 C 10.92 g/m*3 29.5 C 0 km/h
548 26-08-2011 13:39:02 28.8 C 13.35 g/m*3 28.8 C 0 km/h
549 26-08-2011 13:51:03 30.6 C 10.34 g/m*3 30.6 C 0 km/h
550 26-08-2011 14:03:02 31.3 C 10.73 g/m*3 31.3 C 0 km/h
Sensor: Nr:Datum:Temp:Abs-Feuchte:Windchill:Wind:
Aussen-T/F 551 26-08-2011 14:15:02 30.8 C 11.4 g/m*3 30.8 C 0 km/h
552 26-08-2011 14:27:02 30.1 C 11.89 g/m*3 30.1 C 0 km/h
553 26-08-2011 14:39:02 30 C 10.92 g/m*3 30 C 0 km/h
554 26-08-2011 14:51:02 31.3 C 8.46 g/m*3 31.3 C 0 km/h
555 26-08-2011 15:03:02 31.7 C 7.97 g/m*3 31.7 C 0 km/h
556 26-08-2011 15:15:02 31.9 C 8.39 g/m*3 31.9 C 0 km/h
557 26-08-2011 15:27:02 30.8 C 9.5 g/m*3 30.8 C 0 km/h
558 26-08-2011 15:39:02 29.6 C 10.39 g/m*3 29.6 C 0 km/h
559 26-08-2011 15:51:02 28.5 C 11.46 g/m*3 28.5 C 0 km/h
560 26-08-2011 16:03:01 27.1 C 12.42 g/m*3 27.1 C 0 km/h
561 26-08-2011 16:15:36 21.9 C 10.42 g/m*3 21.9 C 0 km/h
562 26-08-2011 16:27:36 19.1 C 11.64 g/m*3 19.1 C 0 km/h
563 26-08-2011 16:39:36 18.6 C 12.73 g/m*3 18.6 C 0 km/h
564 26-08-2011 16:51:36 21.3 C 14.17 g/m*3 21.3 C 0 km/h
565 26-08-2011 17:03:37 26.6 C 12.08 g/m*3 26.6 C 0 km/h
566 26-08-2011 17:15:01 25.2 C 11.41 g/m*3 25.2 C 0 km/h
567 26-08-2011 17:27:01 22.2 C 12.37 g/m*3 22.2 C 0 km/h
568 26-08-2011 17:39:01 21 C 13.01 g/m*3 21 C 0 km/h
569 26-08-2011 17:51:02 20.5 C 13.35 g/m*3 20.5 C 0 km/h
570 26-08-2011 18:03:02 20.2 C 13.29 g/m*3 20.2 C 0 km/h
571 26-08-2011 18:15:02 19.8 C 13.32 g/m*3 19.8 C 0 km/h
572 26-08-2011 18:27:02 19.3 C 13.1 g/m*3 19.3 C 0 km/h
573 26-08-2011 18:39:02 19.3 C 13.44 g/m*3 19.3 C 0 km/h
574 26-08-2011 18:51:01 18.9 C 13.45 g/m*3 18.9 C 0 km/h
575 26-08-2011 19:03:01 18.6 C 13.37 g/m*3 18.6 C 0 km/h
Sensor: Nr:Datum:Temp:Abs-Feuchte:Windchill:Wind:
Aussen-T/F 576 26-08-2011 19:15:02 18.5 C 13.45 g/m*3 18.5 C 0 km/h
577 26-08-2011 19:27:02 18.3 C 13.29 g/m*3 18.3 C 0 km/h
578 26-08-2011 19:39:01 18.2 C 13.21 g/m*3 18.2 C 0 km/h
579 26-08-2011 19:51:03 18.2 C 13.37 g/m*3 18.2 C 0 km/h
580 26-08-2011 20:03:02 18.1 C 13.29 g/m*3 18.1 C 0 km/h
581 26-08-2011 20:15:02 17.4 C 12.89 g/m*3 17.4 C 0 km/h
582 26-08-2011 20:27:02 16.4 C 11.72 g/m*3 16.4 C 0 km/h
583 26-08-2011 20:39:02 16.1 C 11.65 g/m*3 16.1 C 0 km/h
584 26-08-2011 20:51:02 16 C 11.44 g/m*3 16 C 0 km/h
585 26-08-2011 21:03:02 15.8 C 11.58 g/m*3 15.8 C 0 km/h
586 26-08-2011 21:15:02 15.8 C 11.58 g/m*3 15.8 C 0 km/h
587 26-08-2011 21:27:02 15.6 C 11.44 g/m*3 15.6 C 0 km/h
588 26-08-2011 21:40:03 15.5 C 11.37 g/m*3 15.5 C 0 km/h
589 26-08-2011 21:52:03 15.3 C 11.36 g/m*3 15.3 C 0 km/h
590 26-08-2011 22:04:03 15.4 C 11.43 g/m*3 15.4 C 0 km/h
591 26-08-2011 22:16:03 15.4 C 11.56 g/m*3 15.4 C 0 km/h
592 26-08-2011 22:28:03 15.5 C 11.63 g/m*3 15.5 C 0 km/h
593 26-08-2011 22:40:03 15.5 C 11.63 g/m*3 15.5 C 0 km/h
594 26-08-2011 22:52:03 15.5 C 11.63 g/m*3 15.5 C 0 km/h
595 26-08-2011 23:04:03 15.4 C 11.56 g/m*3 15.4 C 0 km/h
596 26-08-2011 23:16:03 15.4 C 11.56 g/m*3 15.4 C 0 km/h
597 26-08-2011 23:28:03 15.4 C 11.56 g/m*3 15.4 C 0 km/h
598 26-08-2011 23:40:03 15.4 C 11.56 g/m*3 15.4 C 0 km/h
599 26-08-2011 23:52:03 15.2 C 11.42 g/m*3 15.2 C 0 km/h
600 27-08-2011 00:04:03 15.2 C 11.42 g/m*3 15.2 C 0 km/h
Sensor: Nr:Datum:Temp:Abs-Feuchte:Windchill:Wind:
Aussen-T/F 601 27-08-2011 00:16:03 15.2 C 11.29 g/m*3 15.2 C 0 km/h
602 27-08-2011 00:28:03 15.2 C 11.29 g/m*3 15.2 C 0 km/h
603 27-08-2011 00:40:03 15.1 C 11.22 g/m*3 15.1 C 0 km/h
604 27-08-2011 00:52:03 15 C 11.16 g/m*3 15 C 0 km/h
605 27-08-2011 01:04:03 14.8 C 11.15 g/m*3 14.8 C 0 km/h
606 27-08-2011 01:16:04 14.8 C 11.15 g/m*3 14.8 C 0 km/h
607 27-08-2011 01:28:04 14.7 C 11.08 g/m*3 14.7 C 0 km/h
608 27-08-2011 01:40:04 14.5 C 10.94 g/m*3 14.5 C 0 km/h
609 27-08-2011 01:52:04 14.5 C 10.94 g/m*3 14.5 C 0 km/h
610 27-08-2011 02:04:04 14.4 C 10.75 g/m*3 14.4 C 0 km/h
611 27-08-2011 02:16:04 14.2 C 10.75 g/m*3 14.2 C 0 km/h
612 27-08-2011 02:28:04 14.2 C 10.75 g/m*3 14.2 C 0 km/h
613 27-08-2011 02:40:04 14 C 10.61 g/m*3 14 C 0 km/h
614 27-08-2011 02:52:04 14 C 10.61 g/m*3 14 C 0 km/h
615 27-08-2011 03:04:04 13.8 C 10.48 g/m*3 13.8 C 0 km/h
616 27-08-2011 03:16:04 13.8 C 10.48 g/m*3 13.8 C 0 km/h
617 27-08-2011 03:28:04 13.8 C 10.48 g/m*3 13.8 C 0 km/h
618 27-08-2011 03:40:04 13.9 C 10.67 g/m*3 13.9 C 0 km/h
619 27-08-2011 03:52:04 13.7 C 10.54 g/m*3 13.7 C 0 km/h
620 27-08-2011 04:04:04 13.7 C 10.54 g/m*3 13.7 C 0 km/h
621 27-08-2011 04:16:04 13.7 C 10.54 g/m*3 13.7 C 0 km/h
622 27-08-2011 04:28:04 13.6 C 10.47 g/m*3 13.6 C 0 km/h
623 27-08-2011 04:40:04 13.5 C 10.41 g/m*3 13.5 C 0 km/h
624 27-08-2011 04:52:04 13.4 C 10.35 g/m*3 13.4 C 0 km/h
625 27-08-2011 05:04:04 13.3 C 10.28 g/m*3 13.3 C 0 km/h
Sensor: Nr:Datum:Temp:Abs-Feuchte:Windchill:Wind:
Aussen-T/F 626 27-08-2011 05:16:04 13.3 C 10.28 g/m*3 13.3 C 0 km/h
627 27-08-2011 05:28:04 13.3 C 10.28 g/m*3 13.3 C 0 km/h
628 27-08-2011 05:40:04 13.2 C 10.22 g/m*3 13.2 C 0 km/h
629 27-08-2011 05:52:05 13.3 C 10.28 g/m*3 13.3 C 0 km/h
630 27-08-2011 06:04:05 13.2 C 10.22 g/m*3 13.2 C 0 km/h
631 27-08-2011 06:16:05 13 C 10.09 g/m*3 13 C 0 km/h
632 27-08-2011 06:28:05 13 C 10.09 g/m*3 13 C 0 km/h
633 27-08-2011 06:40:05 13 C 10.09 g/m*3 13 C 0 km/h
634 27-08-2011 06:52:05 12.8 C 10.08 g/m*3 12.8 C 0 km/h
635 27-08-2011 07:04:05 12.8 C 10.08 g/m*3 12.8 C 0 km/h
636 27-08-2011 07:16:05 12.8 C 10.08 g/m*3 12.8 C 0 km/h
637 27-08-2011 07:28:05 12.8 C 10.08 g/m*3 12.8 C 0 km/h
638 27-08-2011 07:40:05 12.8 C 10.08 g/m*3 12.8 C 0 km/h
639 27-08-2011 07:52:05 12.9 C 10.14 g/m*3 12.9 C 0 km/h
640 27-08-2011 08:04:05 12.8 C 10.08 g/m*3 12.8 C 0 km/h
641 27-08-2011 08:16:05 12.8 C 10.08 g/m*3 12.8 C 0 km/h
642 27-08-2011 08:28:05 12.8 C 10.08 g/m*3 12.8 C 0 km/h
643 27-08-2011 08:40:03 12.9 C 10.14 g/m*3 12.9 C 0 km/h
644 27-08-2011 08:52:02 12.9 C 10.03 g/m*3 12.9 C 0 km/h
645 27-08-2011 09:04:03 13.1 C 10.16 g/m*3 13.1 C 0 km/h
646 27-08-2011 09:16:02 13.1 C 10.04 g/m*3 13.1 C 0 km/h
647 27-08-2011 09:28:02 13.2 C 10.1 g/m*3 13.2 C 0 km/h
648 27-08-2011 09:40:02 13.4 C 10.11 g/m*3 13.4 C 0 km/h
649 27-08-2011 09:52:02 13 C 9.75 g/m*3 13 C 0 km/h
650 27-08-2011 10:04:02 13.1 C 9.81 g/m*3 13.1 C 0 km/h
Sensor: Nr:Datum:Temp:Abs-Feuchte:Windchill:Wind:
Aussen-T/F 651 27-08-2011 10:16:01 13.4 C 10 g/m*3 13.4 C 0 km/h
652 27-08-2011 10:28:01 14.2 C 10.26 g/m*3 14.2 C 0 km/h
653 27-08-2011 10:40:02 14.4 C 9.77 g/m*3 14.4 C 0 km/h
654 27-08-2011 10:52:02 15.6 C 9.71 g/m*3 15.6 C 0 km/h
655 27-08-2011 11:04:02 15.6 C 9.71 g/m*3 15.6 C 0 km/h
656 27-08-2011 11:16:01 15.1 C 9.29 g/m*3 15.1 C 0 km/h
657 27-08-2011 11:28:01 15 C 9.49 g/m*3 15 C 0 km/h
658 27-08-2011 11:40:02 14.8 C 9.5 g/m*3 14.8 C 0 km/h
659 27-08-2011 11:52:02 14.4 C 9.52 g/m*3 14.4 C 0 km/h
660 27-08-2011 12:04:01 14.6 C 9.39 g/m*3 14.6 C 0 km/h
661 27-08-2011 12:16:02 15.3 C 9.4 g/m*3 15.3 C 0 km/h
662 27-08-2011 12:28:02 15.7 C 9.63 g/m*3 15.7 C 0 km/h
663 27-08-2011 12:40:03 16.8 C 9.44 g/m*3 16.8 C 0 km/h
664 27-08-2011 12:52:02 17.5 C 9.24 g/m*3 17.5 C 0 km/h
665 27-08-2011 13:04:02 17.3 C 8.84 g/m*3 17.3 C 0 km/h
666 27-08-2011 13:16:03 17.1 C 9.17 g/m*3 17.1 C 0 km/h
667 27-08-2011 13:28:03 16.8 C 8.58 g/m*3 16.8 C 0 km/h
668 27-08-2011 13:40:03 17.1 C 8.59 g/m*3 17.1 C 0 km/h
669 27-08-2011 13:52:02 19.3 C 8.79 g/m*3 19.3 C 0 km/h
670 27-08-2011 14:04:02 17.4 C 8.6 g/m*3 17.4 C 0 km/h
671 27-08-2011 14:16:03 16.6 C 9.32 g/m*3 16.6 C 0 km/h
672 27-08-2011 14:28:03 16.9 C 9.06 g/m*3 16.9 C 0 km/h
673 27-08-2011 14:40:02 17.6 C 8.85 g/m*3 17.6 C 0 km/h
674 27-08-2011 14:52:02 20.5 C 8.72 g/m*3 20.5 C 0 km/h
675 27-08-2011 15:04:01 21.2 C 8.15 g/m*3 21.2 C 0 km/h
Sensor: Nr:Datum:Temp:Abs-Feuchte:Windchill:Wind:
Aussen-T/F 676 27-08-2011 15:16:02 22.9 C 8.17 g/m*3 22.9 C 0 km/h
677 27-08-2011 15:28:02 18.7 C 7.84 g/m*3 18.7 C 0 km/h
678 27-08-2011 15:40:02 19.7 C 7.81 g/m*3 19.7 C 0 km/h
679 27-08-2011 15:52:02 21.9 C 7.72 g/m*3 21.9 C 0 km/h
680 27-08-2011 16:04:02 18.7 C 8.01 g/m*3 18.7 C 0 km/h
681 27-08-2011 16:16:02 22.3 C 7.5 g/m*3 22.3 C 0 km/h
682 27-08-2011 16:28:02 22.6 C 7.63 g/m*3 22.6 C 0 km/h
683 27-08-2011 16:40:03 19.4 C 7.67 g/m*3 19.4 C 0 km/h
684 27-08-2011 16:52:02 17.9 C 8.24 g/m*3 17.9 C 0 km/h
685 27-08-2011 17:04:02 20.8 C 8.33 g/m*3 20.8 C 0 km/h
686 27-08-2011 17:16:02 18.5 C 8.23 g/m*3 18.5 C 0 km/h
687 27-08-2011 17:28:02 18.2 C 8.08 g/m*3 18.2 C 0 km/h
688 27-08-2011 17:40:02 21.3 C 7.64 g/m*3 21.3 C 0 km/h
689 27-08-2011 17:52:02 19.4 C 8.01 g/m*3 19.4 C 0 km/h
690 27-08-2011 18:04:02 18.1 C 8.5 g/m*3 18.1 C 0 km/h
691 27-08-2011 18:16:02 19.5 C 8.56 g/m*3 19.5 C 0 km/h
692 27-08-2011 18:28:02 18.6 C 8.28 g/m*3 18.6 C 0 km/h
693 27-08-2011 18:40:02 17.5 C 8.95 g/m*3 17.5 C 0 km/h
694 27-08-2011 18:52:02 16.2 C 8.96 g/m*3 16.2 C 0 km/h
695 27-08-2011 19:04:02 14.9 C 9.94 g/m*3 14.9 C 0 km/h
696 27-08-2011 19:16:03 15 C 10 g/m*3 15 C 0 km/h
697 27-08-2011 19:28:03 14.4 C 10.01 g/m*3 14.4 C 0 km/h
698 27-08-2011 19:40:02 14 C 9.89 g/m*3 14 C 0 km/h
699 27-08-2011 19:52:01 13.2 C 9.64 g/m*3 13.2 C 0 km/h
700 27-08-2011 20:04:01 13.5 C 10.06 g/m*3 13.5 C 0 km/h
Sensor: Nr:Datum:Temp:Abs-Feuchte:Windchill:Wind:
Aussen-T/F 701 27-08-2011 20:16:02 13.6 C 10.24 g/m*3 13.6 C 0 km/h
702 27-08-2011 20:28:02 13.6 C 10.24 g/m*3 13.6 C 0 km/h
703 27-08-2011 20:40:01 13.5 C 10.06 g/m*3 13.5 C 0 km/h
704 27-08-2011 20:52:03 13.4 C 10 g/m*3 13.4 C 0 km/h
705 27-08-2011 21:04:02 13.2 C 9.76 g/m*3 13.2 C 0 km/h
706 27-08-2011 21:16:02 13.2 C 9.76 g/m*3 13.2 C 0 km/h
707 27-08-2011 21:28:03 13.1 C 9.59 g/m*3 13.1 C 0 km/h
708 27-08-2011 21:40:02 12.9 C 9.47 g/m*3 12.9 C 0 km/h
709 27-08-2011 21:52:02 13 C 9.19 g/m*3 13 C 0 km/h
710 27-08-2011 22:04:02 12.8 C 8.96 g/m*3 12.8 C 0 km/h
711 27-08-2011 22:16:02 12.5 C 9.02 g/m*3 12.5 C 0 km/h
712 27-08-2011 22:28:02 12.1 C 9.01 g/m*3 12.1 C 0 km/h
713 27-08-2011 22:40:02 11.9 C 9.11 g/m*3 11.9 C 0 km/h
714 27-08-2011 22:53:03 11.9 C 9.11 g/m*3 11.9 C 0 km/h
715 27-08-2011 23:05:03 11.6 C 9.04 g/m*3 11.6 C 0 km/h
716 27-08-2011 23:17:03 11.9 C 9.21 g/m*3 11.9 C 0 km/h
717 27-08-2011 23:29:03 12.4 C 9.51 g/m*3 12.4 C 0 km/h
718 27-08-2011 23:41:04 12.4 C 9.51 g/m*3 12.4 C 0 km/h
719 27-08-2011 23:53:04 12.5 C 9.57 g/m*3 12.5 C 0 km/h
720 28-08-2011 00:05:04 12.5 C 9.57 g/m*3 12.5 C 0 km/h
721 28-08-2011 00:17:04 12.4 C 9.51 g/m*3 12.4 C 0 km/h
722 28-08-2011 00:29:04 12.4 C 9.51 g/m*3 12.4 C 0 km/h
723 28-08-2011 00:41:04 12.8 C 9.74 g/m*3 12.8 C 0 km/h
724 28-08-2011 00:53:04 12.5 C 9.35 g/m*3 12.5 C 0 km/h
725 28-08-2011 01:05:04 12.7 C 9.57 g/m*3 12.7 C 0 km/h
Sensor: Nr:Datum:Temp:Abs-Feuchte:Windchill:Wind:
Aussen-T/F 726 28-08-2011 01:17:04 12.7 C 9.46 g/m*3 12.7 C 0 km/h
727 28-08-2011 01:29:04 12.5 C 9.24 g/m*3 12.5 C 0 km/h
728 28-08-2011 01:41:04 12.8 C 9.3 g/m*3 12.8 C 0 km/h
729 28-08-2011 01:53:04 13.2 C 9.3 g/m*3 13.2 C 0 km/h
730 28-08-2011 02:05:04 13 C 9.07 g/m*3 13 C 0 km/h
731 28-08-2011 02:17:04 13.2 C 9.07 g/m*3 13.2 C 0 km/h
732 28-08-2011 02:29:04 13 C 8.96 g/m*3 13 C 0 km/h
733 28-08-2011 02:41:04 12.6 C 8.96 g/m*3 12.6 C 0 km/h
734 28-08-2011 02:53:04 12.7 C 9.13 g/m*3 12.7 C 0 km/h
735 28-08-2011 03:05:04 12.9 C 8.9 g/m*3 12.9 C 0 km/h
736 28-08-2011 03:17:05 13 C 8.73 g/m*3 13 C 0 km/h
737 28-08-2011 03:29:05 13.1 C 8.79 g/m*3 13.1 C 0 km/h
738 28-08-2011 03:41:05 13 C 8.73 g/m*3 13 C 0 km/h
739 28-08-2011 03:53:05 12.8 C 8.85 g/m*3 12.8 C 0 km/h
740 28-08-2011 04:05:05 12.9 C 8.9 g/m*3 12.9 C 0 km/h
741 28-08-2011 04:17:05 13.1 C 8.79 g/m*3 13.1 C 0 km/h
742 28-08-2011 04:29:05 12.5 C 8.69 g/m*3 12.5 C 0 km/h
743 28-08-2011 04:41:05 12.4 C 8.85 g/m*3 12.4 C 0 km/h
744 28-08-2011 04:53:05 12.6 C 8.85 g/m*3 12.6 C 0 km/h
745 28-08-2011 05:05:05 12.7 C 9.02 g/m*3 12.7 C 0 km/h
746 28-08-2011 05:17:05 12.7 C 9.02 g/m*3 12.7 C 0 km/h
747 28-08-2011 05:29:05 12.1 C 8.79 g/m*3 12.1 C 0 km/h
748 28-08-2011 05:41:06 11.9 C 8.9 g/m*3 11.9 C 0 km/h
749 28-08-2011 05:53:06 11.8 C 8.95 g/m*3 11.8 C 0 km/h
750 28-08-2011 06:05:06 11.7 C 8.99 g/m*3 11.7 C 0 km/h
Sensor: Nr:Datum:Temp:Abs-Feuchte:Windchill:Wind:
Aussen-T/F 751 28-08-2011 06:17:06 11.9 C 9.11 g/m*3 11.9 C 0 km/h
752 28-08-2011 06:29:06 12 C 9.06 g/m*3 12 C 0 km/h
753 28-08-2011 06:41:06 11.9 C 8.9 g/m*3 11.9 C 0 km/h
754 28-08-2011 06:53:06 11.4 C 8.62 g/m*3 11.4 C 0 km/h
755 28-08-2011 07:05:06 11.6 C 8.83 g/m*3 11.6 C 0 km/h
756 28-08-2011 07:17:06 11.7 C 8.79 g/m*3 11.7 C 0 km/h
757 28-08-2011 07:29:06 12 C 8.74 g/m*3 12 C 0 km/h
758 28-08-2011 07:41:06 11.9 C 8.68 g/m*3 11.9 C 0 km/h
759 28-08-2011 07:53:06 12.1 C 8.58 g/m*3 12.1 C 0 km/h
760 28-08-2011 08:05:06 12.4 C 8.52 g/m*3 12.4 C 0 km/h
761 28-08-2011 08:17:06 12.1 C 8.36 g/m*3 12.1 C 0 km/h
762 28-08-2011 08:29:06 12.4 C 8.52 g/m*3 12.4 C 0 km/h
763 28-08-2011 08:41:02 12.8 C 8.4 g/m*3 12.8 C 0 km/h
764 28-08-2011 08:53:02 13 C 7.94 g/m*3 13 C 0 km/h
765 28-08-2011 09:05:01 13.4 C 8.14 g/m*3 13.4 C 0 km/h
766 28-08-2011 09:17:02 13.8 C 8.1 g/m*3 13.8 C 0 km/h
767 28-08-2011 09:29:02 14.2 C 8.06 g/m*3 14.2 C 0 km/h
768 28-08-2011 09:41:02 14.4 C 8.03 g/m*3 14.4 C 0 km/h
769 28-08-2011 09:53:02 14.7 C 8.06 g/m*3 14.7 C 0 km/h
770 28-08-2011 10:05:03 14.7 C 7.93 g/m*3 14.7 C 0 km/h
771 28-08-2011 10:17:02 14.6 C 8.13 g/m*3 14.6 C 0 km/h
772 28-08-2011 10:29:02 15 C 7.69 g/m*3 15 C 0 km/h
773 28-08-2011 10:41:02 16.1 C 8.09 g/m*3 16.1 C 0 km/h
774 28-08-2011 10:53:01 16.6 C 7.77 g/m*3 16.6 C 0 km/h
775 28-08-2011 11:05:02 16.6 C 7.49 g/m*3 16.6 C 0 km/h
Sensor: Nr:Datum:Temp:Abs-Feuchte:Windchill:Wind:
Aussen-T/F 776 28-08-2011 11:17:01 17.2 C 7.32 g/m*3 17.2 C 0 km/h
777 28-08-2011 11:29:01 17.2 C 7.47 g/m*3 17.2 C 0 km/h
778 28-08-2011 11:41:02 17.4 C 7.56 g/m*3 17.4 C 0 km/h
779 28-08-2011 11:53:02 17.4 C 7.56 g/m*3 17.4 C 0 km/h
780 28-08-2011 12:05:02 17.7 C 7.54 g/m*3 17.7 C 0 km/h
781 28-08-2011 12:17:01 18.3 C 7.35 g/m*3 18.3 C 0 km/h
782 28-08-2011 12:29:01 18.3 C 7.04 g/m*3 18.3 C 0 km/h
783 28-08-2011 12:41:02 18.3 C 7.04 g/m*3 18.3 C 0 km/h
784 28-08-2011 12:53:02 17.9 C 7.18 g/m*3 17.9 C 0 km/h
785 28-08-2011 13:05:02 19 C 7.33 g/m*3 19 C 0 km/h
786 28-08-2011 13:17:02 18.7 C 6.72 g/m*3 18.7 C 0 km/h
787 28-08-2011 13:29:02 17.9 C 7.02 g/m*3 17.9 C 0 km/h
788 28-08-2011 13:41:02 18.1 C 6.95 g/m*3 18.1 C 0 km/h
789 28-08-2011 13:53:01 18.7 C 7.04 g/m*3 18.7 C 0 km/h
790 28-08-2011 14:05:02 18.8 C 6.76 g/m*3 18.8 C 0 km/h
791 28-08-2011 14:17:02 18.3 C 7.35 g/m*3 18.3 C 0 km/h
792 28-08-2011 14:29:02 18.1 C 7.73 g/m*3 18.1 C 0 km/h
793 28-08-2011 14:41:02 18.6 C 7.16 g/m*3 18.6 C 0 km/h
794 28-08-2011 14:53:02 19 C 6.68 g/m*3 19 C 0 km/h
795 28-08-2011 15:05:02 18.4 C 6.92 g/m*3 18.4 C 0 km/h
796 28-08-2011 15:17:02 18.2 C 7.46 g/m*3 18.2 C 0 km/h
797 28-08-2011 15:29:02 18.5 C 7.44 g/m*3 18.5 C 0 km/h
798 28-08-2011 15:41:01 19.1 C 6.88 g/m*3 19.1 C 0 km/h
799 28-08-2011 15:53:02 19.9 C 7.9 g/m*3 19.9 C 0 km/h
800 28-08-2011 16:05:01 20.5 C 7.3 g/m*3 20.5 C 0 km/h
Sensor: Nr:Datum:Temp:Abs-Feuchte:Windchill:Wind:
Aussen-T/F 801 28-08-2011 16:17:01 19.3 C 6.8 g/m*3 19.3 C 0 km/h
802 28-08-2011 16:29:01 19.4 C 7.51 g/m*3 19.4 C 0 km/h
803 28-08-2011 16:41:02 20.5 C 6.58 g/m*3 20.5 C 0 km/h
804 28-08-2011 16:53:02 21.2 C 7.04 g/m*3 21.2 C 0 km/h
805 28-08-2011 17:05:02 23.8 C 6.24 g/m*3 23.8 C 0 km/h
806 28-08-2011 17:17:01 22 C 5.82 g/m*3 22 C 0 km/h
807 28-08-2011 17:29:01 22.5 C 5.99 g/m*3 22.5 C 0 km/h
808 28-08-2011 17:41:02 22.5 C 5.99 g/m*3 22.5 C 0 km/h
809 28-08-2011 17:53:02 22 C 5.63 g/m*3 22 C 0 km/h
810 28-08-2011 18:05:02 20.2 C 6.47 g/m*3 20.2 C 0 km/h
811 28-08-2011 18:17:02 19.8 C 7.34 g/m*3 19.8 C 0 km/h
812 28-08-2011 18:29:02 18.9 C 6.48 g/m*3 18.9 C 0 km/h
813 28-08-2011 18:41:02 18.3 C 6.88 g/m*3 18.3 C 0 km/h
814 28-08-2011 18:53:02 18.5 C 6.65 g/m*3 18.5 C 0 km/h
815 28-08-2011 19:05:02 20.7 C 6.66 g/m*3 20.7 C 0 km/h
816 28-08-2011 19:17:02 18 C 6.6 g/m*3 18 C 0 km/h
817 28-08-2011 19:29:02 17.7 C 6.79 g/m*3 17.7 C 0 km/h
818 28-08-2011 19:41:02 17.1 C 6.84 g/m*3 17.1 C 0 km/h
819 28-08-2011 19:53:02 16.7 C 7.82 g/m*3 16.7 C 0 km/h
820 28-08-2011 20:05:02 16.3 C 7.08 g/m*3 16.3 C 0 km/h
821 28-08-2011 20:17:02 15.9 C 7.31 g/m*3 15.9 C 0 km/h
822 28-08-2011 20:29:02 15.4 C 7.23 g/m*3 15.4 C 0 km/h
823 28-08-2011 20:41:03 14.8 C 7.6 g/m*3 14.8 C 0 km/h
824 28-08-2011 20:53:02 14.3 C 7.74 g/m*3 14.3 C 0 km/h
825 28-08-2011 21:05:02 14.7 C 7.43 g/m*3 14.7 C 0 km/h
Sensor: Nr:Datum:Temp:Abs-Feuchte:Windchill:Wind:
Aussen-T/F 826 28-08-2011 21:17:02 14 C 7.72 g/m*3 14 C 0 km/h
827 28-08-2011 21:29:02 13.2 C 8.04 g/m*3 13.2 C 0 km/h
828 28-08-2011 21:41:02 13.3 C 8.09 g/m*3 13.3 C 0 km/h
829 28-08-2011 21:53:02 12.7 C 8.01 g/m*3 12.7 C 0 km/h
830 28-08-2011 22:05:02 12.3 C 8.14 g/m*3 12.3 C 0 km/h
831 28-08-2011 22:17:02 12.2 C 8.2 g/m*3 12.2 C 0 km/h
832 28-08-2011 22:29:02 12.2 C 8.09 g/m*3 12.2 C 0 km/h
833 28-08-2011 22:41:02 12.1 C 8.15 g/m*3 12.1 C 0 km/h
834 28-08-2011 22:54:03 12 C 8.21 g/m*3 12 C 0 km/h
835 28-08-2011 23:06:03 12.1 C 8.36 g/m*3 12.1 C 0 km/h
836 28-08-2011 23:18:03 12.3 C 8.47 g/m*3 12.3 C 0 km/h
837 28-08-2011 23:30:03 12.5 C 8.58 g/m*3 12.5 C 0 km/h
838 28-08-2011 23:42:03 12.3 C 8.36 g/m*3 12.3 C 0 km/h
839 28-08-2011 23:54:03 12 C 8.31 g/m*3 12 C 0 km/h
840 29-08-2011 00:06:03 11.6 C 8.21 g/m*3 11.6 C 0 km/h
841 29-08-2011 00:18:03 10.7 C 7.96 g/m*3 10.7 C 0 km/h
842 29-08-2011 00:30:03 10.8 C 8.11 g/m*3 10.8 C 0 km/h
843 29-08-2011 00:42:04 10.8 C 8.3 g/m*3 10.8 C 0 km/h
844 29-08-2011 00:54:04 11.6 C 8.73 g/m*3 11.6 C 0 km/h
845 29-08-2011 01:06:04 11.5 C 8.57 g/m*3 11.5 C 0 km/h
846 29-08-2011 01:18:04 11.3 C 8.36 g/m*3 11.3 C 0 km/h
847 29-08-2011 01:30:04 11.5 C 8.26 g/m*3 11.5 C 0 km/h
848 29-08-2011 01:42:04 12.1 C 8.04 g/m*3 12.1 C 0 km/h
849 29-08-2011 01:54:04 11.9 C 8.05 g/m*3 11.9 C 0 km/h
850 29-08-2011 02:06:04 12.2 C 7.99 g/m*3 12.2 C 0 km/h
Sensor: Nr:Datum:Temp:Abs-Feuchte:Windchill:Wind:
Aussen-T/F 851 29-08-2011 02:18:04 12.2 C 7.88 g/m*3 12.2 C 0 km/h
852 29-08-2011 02:30:04 12.2 C 7.99 g/m*3 12.2 C 0 km/h
853 29-08-2011 02:42:04 12.2 C 7.99 g/m*3 12.2 C 0 km/h
854 29-08-2011 02:54:04 12.3 C 7.93 g/m*3 12.3 C 0 km/h
855 29-08-2011 03:06:04 12.3 C 7.93 g/m*3 12.3 C 0 km/h
856 29-08-2011 03:18:04 12.4 C 8.09 g/m*3 12.4 C 0 km/h
857 29-08-2011 03:30:04 12.5 C 8.25 g/m*3 12.5 C 0 km/h
858 29-08-2011 03:42:04 12.7 C 8.13 g/m*3 12.7 C 0 km/h
859 29-08-2011 03:54:04 13 C 7.94 g/m*3 13 C 0 km/h
860 29-08-2011 04:06:04 13 C 7.94 g/m*3 13 C 0 km/h
861 29-08-2011 04:18:04 12.7 C 7.9 g/m*3 12.7 C 0 km/h
862 29-08-2011 04:30:04 12.6 C 7.97 g/m*3 12.6 C 0 km/h
863 29-08-2011 04:42:04 12.1 C 7.94 g/m*3 12.1 C 0 km/h
864 29-08-2011 04:54:04 11.8 C 8.21 g/m*3 11.8 C 0 km/h
865 29-08-2011 05:06:05 11.5 C 8.16 g/m*3 11.5 C 0 km/h
866 29-08-2011 05:18:05 11.4 C 8.21 g/m*3 11.4 C 0 km/h
867 29-08-2011 05:30:05 11.3 C 8.26 g/m*3 11.3 C 0 km/h
868 29-08-2011 05:42:05 11 C 8.21 g/m*3 11 C 0 km/h
869 29-08-2011 05:54:05 10.8 C 8.2 g/m*3 10.8 C 0 km/h
870 29-08-2011 06:06:05 10.7 C 8.25 g/m*3 10.7 C 0 km/h
871 29-08-2011 06:18:05 10.2 C 7.99 g/m*3 10.2 C 0 km/h
872 29-08-2011 06:30:05 10.2 C 8.09 g/m*3 10.2 C 0 km/h
873 29-08-2011 06:42:05 10.2 C 8.09 g/m*3 10.2 C 0 km/h
874 29-08-2011 06:54:05 10.1 C 8.13 g/m*3 10.1 C 0 km/h
875 29-08-2011 07:06:05 10 C 8.08 g/m*3 10 C 0 km/h
Sensor: Nr:Datum:Temp:Abs-Feuchte:Windchill:Wind:
Aussen-T/F 876 29-08-2011 07:18:03 9.7 C 8.02 g/m*3 9.7 C 0 km/h
877 29-08-2011 07:30:03 10 C 8.17 g/m*3 10 C 0 km/h
878 29-08-2011 07:42:03 10.2 C 8.28 g/m*3 10.2 C 0 km/h
879 29-08-2011 07:54:03 10.4 C 8.38 g/m*3 10.4 C 0 km/h
880 29-08-2011 08:06:02 10.5 C 8.44 g/m*3 10.5 C 0 km/h
881 29-08-2011 08:18:02 10.8 C 8.6 g/m*3 10.8 C 0 km/h
882 29-08-2011 08:30:02 11.4 C 8.72 g/m*3 11.4 C 0 km/h
883 29-08-2011 08:42:02 11.9 C 8.79 g/m*3 11.9 C 0 km/h
884 29-08-2011 08:54:02 12 C 8.42 g/m*3 12 C 0 km/h
885 29-08-2011 09:06:02 12.5 C 8.25 g/m*3 12.5 C 0 km/h
886 29-08-2011 09:18:03 13.1 C 8.1 g/m*3 13.1 C 0 km/h
887 29-08-2011 09:30:03 13.6 C 7.77 g/m*3 13.6 C 0 km/h
888 29-08-2011 09:42:02 13.9 C 7.91 g/m*3 13.9 C 0 km/h
889 29-08-2011 09:54:03 14.2 C 7.69 g/m*3 14.2 C 0 km/h
890 29-08-2011 10:06:02 14.4 C 7.66 g/m*3 14.4 C 0 km/h
891 29-08-2011 10:18:02 14.7 C 7.55 g/m*3 14.7 C 0 km/h
892 29-08-2011 10:30:02 15.2 C 7.4 g/m*3 15.2 C 0 km/h
893 29-08-2011 10:42:02 15.2 C 7.53 g/m*3 15.2 C 0 km/h
894 29-08-2011 10:54:02 15.8 C 7.54 g/m*3 15.8 C 0 km/h
895 29-08-2011 11:06:02 16.4 C 7.4 g/m*3 16.4 C 0 km/h
896 29-08-2011 11:18:02 16.8 C 7.29 g/m*3 16.8 C 0 km/h
897 29-08-2011 11:30:02 17 C 7.09 g/m*3 17 C 0 km/h
898 29-08-2011 11:42:02 16.9 C 6.62 g/m*3 16.9 C 0 km/h
899 29-08-2011 11:54:02 17.2 C 6.59 g/m*3 17.2 C 0 km/h
900 29-08-2011 12:06:01 17.7 C 6.49 g/m*3 17.7 C 0 km/h
Sensor: Nr:Datum:Temp:Abs-Feuchte:Windchill:Wind:
Aussen-T/F 901 29-08-2011 12:18:02 18.2 C 6.37 g/m*3 18.2 C 0 km/h
902 29-08-2011 12:30:02 18 C 6.14 g/m*3 18 C 0 km/h
903 29-08-2011 12:42:02 18 C 6.3 g/m*3 18 C 0 km/h
904 29-08-2011 12:54:02 18 C 6.45 g/m*3 18 C 0 km/h
905 29-08-2011 13:06:02 17.8 C 6.68 g/m*3 17.8 C 0 km/h
906 29-08-2011 13:18:02 18.2 C 6.37 g/m*3 18.2 C 0 km/h
907 29-08-2011 13:30:02 18.3 C 6.25 g/m*3 18.3 C 0 km/h
908 29-08-2011 13:42:03 18 C 6.14 g/m*3 18 C 0 km/h
909 29-08-2011 13:54:02 19.3 C 6.3 g/m*3 19.3 C 0 km/h
910 29-08-2011 14:06:01 18.3 C 5.94 g/m*3 18.3 C 0 km/h
911 29-08-2011 14:18:02 19.3 C 6.14 g/m*3 19.3 C 0 km/h
912 29-08-2011 14:30:02 18.2 C 5.91 g/m*3 18.2 C 0 km/h
913 29-08-2011 14:42:02 17.9 C 5.8 g/m*3 17.9 C 0 km/h
914 29-08-2011 14:54:02 18.5 C 5.54 g/m*3 18.5 C 0 km/h
915 29-08-2011 15:06:01 18.7 C 5.6 g/m*3 18.7 C 0 km/h
916 29-08-2011 15:18:01 19.1 C 5.57 g/m*3 19.1 C 0 km/h
917 29-08-2011 15:30:01 20.8 C 5.43 g/m*3 20.8 C 0 km/h
918 29-08-2011 15:42:02 21.9 C 5.79 g/m*3 21.9 C 0 km/h
919 29-08-2011 15:54:02 20.6 C 5.37 g/m*3 20.6 C 0 km/h
920 29-08-2011 16:06:02 22.5 C 5.59 g/m*3 22.5 C 0 km/h
921 29-08-2011 16:18:02 20.7 C 5.22 g/m*3 20.7 C 0 km/h
922 29-08-2011 16:30:02 21.8 C 4.8 g/m*3 21.8 C 0 km/h
923 29-08-2011 16:42:02 20.2 C 4.72 g/m*3 20.2 C 0 km/h
924 29-08-2011 16:54:02 19.4 C 4.67 g/m*3 19.4 C 0 km/h
925 29-08-2011 17:06:02 20.7 C 4.68 g/m*3 20.7 C 0 km/h
Sensor: Nr:Datum:Temp:Abs-Feuchte:Windchill:Wind:
Aussen-T/F 926 29-08-2011 17:18:02 19.5 C 5.2 g/m*3 19.5 C 0 km/h
927 29-08-2011 17:30:02 19.5 C 5.37 g/m*3 19.5 C 0 km/h
928 29-08-2011 17:42:02 19 C 5.54 g/m*3 19 C 0 km/h
929 29-08-2011 17:54:01 19.5 C 5.54 g/m*3 19.5 C 0 km/h
930 29-08-2011 18:06:01 20.6 C 5.19 g/m*3 20.6 C 0 km/h
931 29-08-2011 18:18:01 22 C 5.05 g/m*3 22 C 0 km/h
932 29-08-2011 18:30:01 19.3 C 5.14 g/m*3 19.3 C 0 km/h
933 29-08-2011 18:42:01 19.5 C 5.54 g/m*3 19.5 C 0 km/h
934 29-08-2011 18:54:02 18.7 C 5.6 g/m*3 18.7 C 0 km/h
935 29-08-2011 19:06:02 18.1 C 5.56 g/m*3 18.1 C 0 km/h
936 29-08-2011 19:18:01 17.5 C 5.81 g/m*3 17.5 C 0 km/h
937 29-08-2011 19:30:01 16.1 C 6.85 g/m*3 16.1 C 0 km/h
938 29-08-2011 19:42:01 15.9 C 6.64 g/m*3 15.9 C 0 km/h
939 29-08-2011 19:54:01 15.9 C 6.64 g/m*3 15.9 C 0 km/h
940 29-08-2011 20:06:02 13.9 C 7.19 g/m*3 13.9 C 0 km/h
941 29-08-2011 20:18:01 13.9 C 7.19 g/m*3 13.9 C 0 km/h
942 29-08-2011 20:30:01 13.3 C 7.28 g/m*3 13.3 C 0 km/h
943 29-08-2011 20:42:02 13.3 C 7.28 g/m*3 13.3 C 0 km/h
944 29-08-2011 20:54:01 13.1 C 6.73 g/m*3 13.1 C 0 km/h
945 29-08-2011 21:06:02 13 C 7.14 g/m*3 13 C 0 km/h
946 29-08-2011 21:18:02 13 C 7.14 g/m*3 13 C 0 km/h
947 29-08-2011 21:30:02 13 C 7.14 g/m*3 13 C 0 km/h
948 29-08-2011 21:43:02 13.3 C 7.16 g/m*3 13.3 C 0 km/h
949 29-08-2011 21:55:02 13.7 C 6.87 g/m*3 13.7 C 0 km/h
950 29-08-2011 22:07:02 13.4 C 6.74 g/m*3 13.4 C 0 km/h
Sensor: Nr:Datum:Temp:Abs-Feuchte:Windchill:Wind:
Aussen-T/F 951 29-08-2011 22:19:02 13.3 C 6.82 g/m*3 13.3 C 0 km/h
952 29-08-2011 22:31:02 13.1 C 6.73 g/m*3 13.1 C 0 km/h
953 29-08-2011 22:43:02 13.4 C 6.51 g/m*3 13.4 C 0 km/h
954 29-08-2011 22:55:02 13.1 C 6.62 g/m*3 13.1 C 0 km/h
955 29-08-2011 23:07:02 12.6 C 7.08 g/m*3 12.6 C 0 km/h
956 29-08-2011 23:19:02 12.3 C 6.95 g/m*3 12.3 C 0 km/h
957 29-08-2011 23:31:02 12.1 C 6.86 g/m*3 12.1 C 0 km/h
958 29-08-2011 23:43:02 11.7 C 7.11 g/m*3 11.7 C 0 km/h
959 29-08-2011 23:55:02 11.5 C 7.13 g/m*3 11.5 C 0 km/h
960 30-08-2011 00:07:02 11.3 C 7.04 g/m*3 11.3 C 0 km/h
961 30-08-2011 00:19:02 11.2 C 7.2 g/m*3 11.2 C 0 km/h
962 30-08-2011 00:31:03 11 C 7.21 g/m*3 11 C 0 km/h
963 30-08-2011 00:43:03 10.6 C 7.22 g/m*3 10.6 C 0 km/h
964 30-08-2011 00:55:03 10.7 C 7.27 g/m*3 10.7 C 0 km/h
965 30-08-2011 01:07:03 10.3 C 7.18 g/m*3 10.3 C 0 km/h
966 30-08-2011 01:19:03 9.9 C 7.28 g/m*3 9.9 C 0 km/h
967 30-08-2011 01:31:03 9.3 C 7.1 g/m*3 9.3 C 0 km/h
968 30-08-2011 01:43:03 9 C 7.14 g/m*3 9 C 0 km/h
969 30-08-2011 01:55:03 9 C 7.23 g/m*3 9 C 0 km/h
970 30-08-2011 02:07:03 8.6 C 7.22 g/m*3 8.6 C 0 km/h
971 30-08-2011 02:19:03 8.9 C 7.45 g/m*3 8.9 C 0 km/h
972 30-08-2011 02:31:03 8.9 C 7.45 g/m*3 8.9 C 0 km/h
973 30-08-2011 02:43:03 9 C 7.41 g/m*3 9 C 0 km/h
974 30-08-2011 02:55:03 8.7 C 7.35 g/m*3 8.7 C 0 km/h
975 30-08-2011 03:07:03 8.5 C 7.26 g/m*3 8.5 C 0 km/h
Sensor: Nr:Datum:Temp:Abs-Feuchte:Windchill:Wind:
Aussen-T/F 976 30-08-2011 03:19:03 7.8 C 7.02 g/m*3 7.8 C 0 km/h
977 30-08-2011 03:31:03 8 C 7.11 g/m*3 8 C 0 km/h
978 30-08-2011 03:43:03 7.8 C 7.18 g/m*3 7.8 C 0 km/h
979 30-08-2011 03:55:03 8 C 7.28 g/m*3 8 C 0 km/h
980 30-08-2011 04:07:03 7.7 C 7.22 g/m*3 7.7 C 0 km/h
981 30-08-2011 04:19:03 8.1 C 7.32 g/m*3 8.1 C 0 km/h
982 30-08-2011 04:31:03 7.7 C 7.22 g/m*3 7.7 C 0 km/h
983 30-08-2011 04:43:04 7.6 C 7.17 g/m*3 7.6 C 0 km/h
984 30-08-2011 04:55:04 7.5 C 7.2 g/m*3 7.5 C 0 km/h
985 30-08-2011 05:07:04 7.4 C 7.16 g/m*3 7.4 C 0 km/h
986 30-08-2011 05:19:04 7.4 C 7.16 g/m*3 7.4 C 0 km/h
987 30-08-2011 05:31:04 7.1 C 7.02 g/m*3 7.1 C 0 km/h
988 30-08-2011 05:43:04 7.3 C 7.11 g/m*3 7.3 C 0 km/h
989 30-08-2011 05:55:04 6.9 C 7.01 g/m*3 6.9 C 0 km/h
990 30-08-2011 06:07:04 7 C 6.97 g/m*3 7 C 0 km/h
991 30-08-2011 06:19:04 7.2 C 7.06 g/m*3 7.2 C 0 km/h
992 30-08-2011 06:31:04 7 C 7.05 g/m*3 7 C 0 km/h
993 30-08-2011 06:43:04 6.9 C 7.08 g/m*3 6.9 C 0 km/h
994 30-08-2011 06:55:04 6.9 C 7.08 g/m*3 6.9 C 0 km/h
995 30-08-2011 07:07:04 6.9 C 7.08 g/m*3 6.9 C 0 km/h
996 30-08-2011 07:19:02 6.7 C 6.99 g/m*3 6.7 C 0 km/h
997 30-08-2011 07:31:02 7.1 C 7.1 g/m*3 7.1 C 0 km/h
998 30-08-2011 07:43:02 7.3 C 7.27 g/m*3 7.3 C 0 km/h
999 30-08-2011 07:55:02 7.3 C 7.27 g/m*3 7.3 C 0 km/h
1000 30-08-2011 08:07:02 7.1 C 7.18 g/m*3 7.1 C 0 km/h
Sensor: Nr:Datum:Temp:Abs-Feuchte:Windchill:Wind:
Aussen-T/F 1001 30-08-2011 08:19:02 7.5 C 7.36 g/m*3 7.5 C 0 km/h
1002 30-08-2011 08:31:02 7.6 C 7.41 g/m*3 7.6 C 0 km/h
1003 30-08-2011 08:43:02 7.7 C 7.46 g/m*3 7.7 C 0 km/h
1004 30-08-2011 08:55:02 7.8 C 7.51 g/m*3 7.8 C 0 km/h
1005 30-08-2011 09:07:02 8.2 C 7.62 g/m*3 8.2 C 0 km/h
1006 30-08-2011 09:19:02 8.4 C 7.72 g/m*3 8.4 C 0 km/h
1007 30-08-2011 09:31:01 8.9 C 7.97 g/m*3 8.9 C 0 km/h
1008 30-08-2011 09:43:01 9.5 C 8.19 g/m*3 9.5 C 0 km/h
1009 30-08-2011 09:55:01 10 C 8.36 g/m*3 10 C 0 km/h
1010 30-08-2011 10:07:01 10.5 C 8.63 g/m*3 10.5 C 0 km/h
1011 30-08-2011 10:19:02 10.7 C 8.64 g/m*3 10.7 C 0 km/h
1012 30-08-2011 10:31:01 11.1 C 8.66 g/m*3 11.1 C 0 km/h
1013 30-08-2011 10:43:01 12 C 8.53 g/m*3 12 C 0 km/h
1014 30-08-2011 10:55:02 12.8 C 7.62 g/m*3 12.8 C 0 km/h
1015 30-08-2011 11:07:01 13.4 C 7.32 g/m*3 13.4 C 0 km/h
1016 30-08-2011 11:19:01 14 C 7.12 g/m*3 14 C 0 km/h
1017 30-08-2011 11:31:01 14.3 C 6.76 g/m*3 14.3 C 0 km/h
1018 30-08-2011 11:43:01 14.8 C 6.46 g/m*3 14.8 C 0 km/h
1019 30-08-2011 11:55:02 16.6 C 6.22 g/m*3 16.6 C 0 km/h
1020 30-08-2011 12:07:02 16.5 C 5.48 g/m*3 16.5 C 0 km/h
1021 30-08-2011 12:19:02 16.5 C 6.6 g/m*3 16.5 C 0 km/h
1022 30-08-2011 12:31:02 15.9 C 7.45 g/m*3 15.9 C 0 km/h
1023 30-08-2011 12:43:02 16.2 C 7.58 g/m*3 16.2 C 0 km/h
1024 30-08-2011 12:55:02 17.3 C 6.04 g/m*3 17.3 C 0 km/h
1025 30-08-2011 13:07:02 18 C 6.45 g/m*3 18 C 0 km/h
Sensor: Nr:Datum:Temp:Abs-Feuchte:Windchill:Wind:
Aussen-T/F 1026 30-08-2011 13:19:01 17.5 C 6.11 g/m*3 17.5 C 0 km/h
1027 30-08-2011 13:31:02 18.2 C 5.6 g/m*3 18.2 C 0 km/h
1028 30-08-2011 13:43:02 18.4 C 5.98 g/m*3 18.4 C 0 km/h
1029 30-08-2011 13:55:02 21 C 5.86 g/m*3 21 C 0 km/h
1030 30-08-2011 14:07:02 19.7 C 5.6 g/m*3 19.7 C 0 km/h
1031 30-08-2011 14:19:02 18.4 C 5.66 g/m*3 18.4 C 0 km/h
1032 30-08-2011 14:31:02 18.2 C 6.37 g/m*3 18.2 C 0 km/h
1033 30-08-2011 14:43:03 18.1 C 6.18 g/m*3 18.1 C 0 km/h
1034 30-08-2011 14:55:02 18.2 C 6.06 g/m*3 18.2 C 0 km/h
1035 30-08-2011 15:07:02 18.1 C 5.87 g/m*3 18.1 C 0 km/h
1036 30-08-2011 15:19:02 17.5 C 5.81 g/m*3 17.5 C 0 km/h
1037 30-08-2011 15:31:02 17.4 C 5.93 g/m*3 17.4 C 0 km/h
1038 30-08-2011 15:43:02 17.4 C 6.08 g/m*3 17.4 C 0 km/h
1039 30-08-2011 15:55:02 17.2 C 6 g/m*3 17.2 C 0 km/h
1040 30-08-2011 16:07:02 17 C 6.22 g/m*3 17 C 0 km/h
1041 30-08-2011 16:19:02 16.8 C 6.43 g/m*3 16.8 C 0 km/h
1042 30-08-2011 16:31:03 16.8 C 6.43 g/m*3 16.8 C 0 km/h
1043 30-08-2011 16:43:03 16.7 C 5.97 g/m*3 16.7 C 0 km/h
1044 30-08-2011 16:55:02 16.6 C 6.07 g/m*3 16.6 C 0 km/h
1045 30-08-2011 17:07:02 16.8 C 6 g/m*3 16.8 C 0 km/h
1046 30-08-2011 17:19:02 16.9 C 6.04 g/m*3 16.9 C 0 km/h
1047 30-08-2011 17:31:02 17.1 C 6.26 g/m*3 17.1 C 0 km/h
1048 30-08-2011 17:43:02 16.9 C 7.34 g/m*3 16.9 C 0 km/h
1049 30-08-2011 17:55:02 16.9 C 7.77 g/m*3 16.9 C 0 km/h
1050 30-08-2011 18:07:03 17 C 7.96 g/m*3 17 C 0 km/h
Sensor: Nr:Datum:Temp:Abs-Feuchte:Windchill:Wind:
Aussen-T/F 1051 30-08-2011 18:19:02 21.3 C 6.15 g/m*3 21.3 C 0 km/h
1052 30-08-2011 18:31:02 22.1 C 5.47 g/m*3 22.1 C 0 km/h
1053 30-08-2011 18:43:02 22 C 5.82 g/m*3 22 C 0 km/h
1054 30-08-2011 18:55:01 21 C 5.86 g/m*3 21 C 0 km/h
1055 30-08-2011 19:07:02 21 C 5.86 g/m*3 21 C 0 km/h
1056 30-08-2011 19:19:01 18.4 C 7.08 g/m*3 18.4 C 0 km/h
1057 30-08-2011 19:31:01 15.9 C 7.72 g/m*3 15.9 C 0 km/h
1058 30-08-2011 19:43:01 14.7 C 7.93 g/m*3 14.7 C 0 km/h
1059 30-08-2011 19:55:01 13.9 C 8.03 g/m*3 13.9 C 0 km/h
1060 30-08-2011 20:07:02 13.3 C 7.86 g/m*3 13.3 C 0 km/h
1061 30-08-2011 20:19:02 12.4 C 7.76 g/m*3 12.4 C 0 km/h
1062 30-08-2011 20:31:01 11.8 C 7.68 g/m*3 11.8 C 0 km/h
1063 30-08-2011 20:43:01 11.6 C 7.59 g/m*3 11.6 C 0 km/h
1064 30-08-2011 20:55:01 11.7 C 7.84 g/m*3 11.7 C 0 km/h
1065 30-08-2011 21:07:01 11.2 C 7.7 g/m*3 11.2 C 0 km/h
1066 30-08-2011 21:19:02 11 C 7.81 g/m*3 11 C 0 km/h
1067 30-08-2011 21:32:02 10.6 C 7.71 g/m*3 10.6 C 0 km/h
1068 30-08-2011 21:44:02 10.5 C 7.86 g/m*3 10.5 C 0 km/h
1069 30-08-2011 21:56:02 10.1 C 7.66 g/m*3 10.1 C 0 km/h
1070 30-08-2011 22:08:02 9.8 C 7.7 g/m*3 9.8 C 0 km/h
1071 30-08-2011 22:20:02 9.3 C 7.55 g/m*3 9.3 C 0 km/h
1072 30-08-2011 22:32:02 9 C 7.41 g/m*3 9 C 0 km/h
1073 30-08-2011 22:44:02 8.9 C 7.53 g/m*3 8.9 C 0 km/h
1074 30-08-2011 22:56:02 9 C 7.49 g/m*3 9 C 0 km/h
1075 30-08-2011 23:08:02 9.1 C 7.63 g/m*3 9.1 C 0 km/h
Sensor: Nr:Datum:Temp:Abs-Feuchte:Windchill:Wind:
Aussen-T/F 1076 30-08-2011 23:20:02 8.6 C 7.48 g/m*3 8.6 C 0 km/h
1077 30-08-2011 23:32:02 8.5 C 7.43 g/m*3 8.5 C 0 km/h
1078 30-08-2011 23:44:02 8.4 C 7.47 g/m*3 8.4 C 0 km/h
1079 30-08-2011 23:56:02 8.3 C 7.42 g/m*3 8.3 C 0 km/h
1080 31-08-2011 00:08:02 8.5 C 7.51 g/m*3 8.5 C 0 km/h
1081 31-08-2011 00:20:02 8.2 C 7.37 g/m*3 8.2 C 0 km/h
1082 31-08-2011 00:32:02 8.2 C 7.37 g/m*3 8.2 C 0 km/h
1083 31-08-2011 00:44:02 7.8 C 7.35 g/m*3 7.8 C 0 km/h
1084 31-08-2011 00:56:03 7.9 C 7.39 g/m*3 7.9 C 0 km/h
1085 31-08-2011 01:08:03 7.8 C 7.35 g/m*3 7.8 C 0 km/h
1086 31-08-2011 01:20:03 7.8 C 7.35 g/m*3 7.8 C 0 km/h
1087 31-08-2011 01:32:03 7.6 C 7.25 g/m*3 7.6 C 0 km/h
1088 31-08-2011 01:44:03 7.8 C 7.35 g/m*3 7.8 C 0 km/h
1089 31-08-2011 01:56:03 7.4 C 7.16 g/m*3 7.4 C 0 km/h
1090 31-08-2011 02:08:03 7.3 C 7.11 g/m*3 7.3 C 0 km/h
1091 31-08-2011 02:20:03 7.4 C 7.16 g/m*3 7.4 C 0 km/h
1092 31-08-2011 02:32:03 7.5 C 7.28 g/m*3 7.5 C 0 km/h
1093 31-08-2011 02:44:03 7.5 C 7.28 g/m*3 7.5 C 0 km/h
1094 31-08-2011 02:56:03 7.7 C 7.38 g/m*3 7.7 C 0 km/h
1095 31-08-2011 03:08:03 7.4 C 7.24 g/m*3 7.4 C 0 km/h
1096 31-08-2011 03:20:03 7.1 C 7.1 g/m*3 7.1 C 0 km/h
1097 31-08-2011 03:32:03 6.7 C 6.91 g/m*3 6.7 C 0 km/h
1098 31-08-2011 03:44:03 6.6 C 6.95 g/m*3 6.6 C 0 km/h
1099 31-08-2011 03:56:03 6.5 C 6.9 g/m*3 6.5 C 0 km/h
1100 31-08-2011 04:08:03 6.3 C 6.81 g/m*3 6.3 C 0 km/h
Sensor: Nr:Datum:Temp:Abs-Feuchte:Windchill:Wind:
Aussen-T/F 1101 31-08-2011 04:20:03 6.3 C 6.81 g/m*3 6.3 C 0 km/h
1102 31-08-2011 04:32:03 7.3 C 7.27 g/m*3 7.3 C 0 km/h
1103 31-08-2011 04:44:03 7.1 C 7.18 g/m*3 7.1 C 0 km/h
1104 31-08-2011 04:56:04 7.2 C 7.22 g/m*3 7.2 C 0 km/h
1105 31-08-2011 05:08:04 7.1 C 7.18 g/m*3 7.1 C 0 km/h
1106 31-08-2011 05:20:04 7.3 C 7.27 g/m*3 7.3 C 0 km/h
1107 31-08-2011 05:32:04 7 C 7.13 g/m*3 7 C 0 km/h
1108 31-08-2011 05:44:04 6.9 C 7.16 g/m*3 6.9 C 0 km/h
1109 31-08-2011 05:56:04 6.7 C 7.07 g/m*3 6.7 C 0 km/h
1110 31-08-2011 06:08:04 6.8 C 7.11 g/m*3 6.8 C 0 km/h
1111 31-08-2011 06:20:04 7.1 C 7.18 g/m*3 7.1 C 0 km/h
1112 31-08-2011 06:32:04 7 C 7.13 g/m*3 7 C 0 km/h
1113 31-08-2011 06:44:04 7 C 7.13 g/m*3 7 C 0 km/h
1114 31-08-2011 06:56:03 7.2 C 7.3 g/m*3 7.2 C 0 km/h
1115 31-08-2011 07:08:02 7.2 C 7.3 g/m*3 7.2 C 0 km/h
1116 31-08-2011 07:20:02 7.2 C 7.3 g/m*3 7.2 C 0 km/h
1117 31-08-2011 07:32:02 7.2 C 7.3 g/m*3 7.2 C 0 km/h
1118 31-08-2011 07:44:02 7.2 C 7.3 g/m*3 7.2 C 0 km/h
1119 31-08-2011 07:56:02 7.4 C 7.4 g/m*3 7.4 C 0 km/h
1120 31-08-2011 08:08:02 7.3 C 7.35 g/m*3 7.3 C 0 km/h
1121 31-08-2011 08:20:03 7.8 C 7.59 g/m*3 7.8 C 0 km/h
1122 31-08-2011 08:32:02 8 C 7.61 g/m*3 8 C 0 km/h
1123 31-08-2011 08:44:02 8.1 C 7.66 g/m*3 8.1 C 0 km/h
1124 31-08-2011 08:56:02 8.4 C 7.8 g/m*3 8.4 C 0 km/h
1125 31-08-2011 09:08:01 8.5 C 7.85 g/m*3 8.5 C 0 km/h
Sensor: Nr:Datum:Temp:Abs-Feuchte:Windchill:Wind:
Aussen-T/F 1126 31-08-2011 09:20:02 8.7 C 7.87 g/m*3 8.7 C 0 km/h
1127 31-08-2011 09:32:02 8.7 C 7.87 g/m*3 8.7 C 0 km/h
1128 31-08-2011 09:44:02 9 C 7.85 g/m*3 9 C 0 km/h
1129 31-08-2011 09:56:01 9.7 C 8.11 g/m*3 9.7 C 0 km/h
1130 31-08-2011 10:08:01 9.5 C 7.83 g/m*3 9.5 C 0 km/h
1131 31-08-2011 10:20:01 9.3 C 7.64 g/m*3 9.3 C 0 km/h
1132 31-08-2011 10:32:02 9.7 C 7.84 g/m*3 9.7 C 0 km/h
1133 31-08-2011 10:44:02 10.1 C 7.85 g/m*3 10.1 C 0 km/h
1134 31-08-2011 10:56:02 10.6 C 8.1 g/m*3 10.6 C 0 km/h
1135 31-08-2011 11:08:02 11 C 8.11 g/m*3 11 C 0 km/h
1136 31-08-2011 11:20:02 11.5 C 8.37 g/m*3 11.5 C 0 km/h
1137 31-08-2011 11:32:02 12 C 8.42 g/m*3 12 C 0 km/h
1138 31-08-2011 11:44:03 12.2 C 8.63 g/m*3 12.2 C 0 km/h
1139 31-08-2011 11:56:02 12.7 C 8.46 g/m*3 12.7 C 0 km/h
1140 31-08-2011 12:08:02 13.1 C 8.44 g/m*3 13.1 C 0 km/h
1141 31-08-2011 12:20:02 13.7 C 8.05 g/m*3 13.7 C 0 km/h
1142 31-08-2011 12:32:02 14 C 7.84 g/m*3 14 C 0 km/h
1143 31-08-2011 12:44:02 14.6 C 7.13 g/m*3 14.6 C 0 km/h
1144 31-08-2011 12:56:01 15 C 6.54 g/m*3 15 C 0 km/h
1145 31-08-2011 13:08:01 15.8 C 6.6 g/m*3 15.8 C 0 km/h
1146 31-08-2011 13:20:01 16.6 C 6.5 g/m*3 16.6 C 0 km/h
1147 31-08-2011 13:32:01 17.1 C 6.11 g/m*3 17.1 C 0 km/h
1148 31-08-2011 13:44:01 17.7 C 6.04 g/m*3 17.7 C 0 km/h
1149 31-08-2011 13:56:01 20.1 C 5.91 g/m*3 20.1 C 0 km/h
1150 31-08-2011 14:08:01 21 C 5.13 g/m*3 21 C 0 km/h
Sensor: Nr:Datum:Temp:Abs-Feuchte:Windchill:Wind:
Aussen-T/F 1151 31-08-2011 14:20:02 22.7 C 5.25 g/m*3 22.7 C 0 km/h
1152 31-08-2011 14:32:01 20.7 C 5.4 g/m*3 20.7 C 0 km/h
1153 31-08-2011 14:44:01 21.9 C 4.82 g/m*3 21.9 C 0 km/h
1154 31-08-2011 14:56:03 24.6 C 4.5 g/m*3 24.6 C 0 km/h
1155 31-08-2011 15:08:02 26.2 C 4.92 g/m*3 26.2 C 0 km/h
1156 31-08-2011 15:20:02 26.9 C 5.12 g/m*3 26.9 C 0 km/h
1157 31-08-2011 15:32:02 25.7 C 4.79 g/m*3 25.7 C 0 km/h
1158 31-08-2011 15:44:02 27.5 C 5.29 g/m*3 27.5 C 0 km/h
1159 31-08-2011 15:56:02 26.9 C 5.12 g/m*3 26.9 C 0 km/h
1160 31-08-2011 16:08:02 25.5 C 5.21 g/m*3 25.5 C 0 km/h
1161 31-08-2011 16:20:02 27.2 C 5.46 g/m*3 27.2 C 0 km/h
1162 31-08-2011 16:32:02 27 C 5.15 g/m*3 27 C 0 km/h
1163 31-08-2011 16:44:02 25.2 C 4.66 g/m*3 25.2 C 0 km/h
1164 31-08-2011 16:56:03 25.5 C 4.73 g/m*3 25.5 C 0 km/h
1165 31-08-2011 17:08:03 24 C 5.22 g/m*3 24 C 0 km/h
1166 31-08-2011 17:20:02 21.8 C 7.48 g/m*3 21.8 C 0 km/h
1167 31-08-2011 17:32:03 22.8 C 6.91 g/m*3 22.8 C 0 km/h
1168 31-08-2011 17:44:03 24.9 C 5.26 g/m*3 24.9 C 0 km/h
1169 31-08-2011 17:56:02 24.6 C 5.18 g/m*3 24.6 C 0 km/h
1170 31-08-2011 18:08:02 22.7 C 7.07 g/m*3 22.7 C 0 km/h
1171 31-08-2011 18:20:02 22.2 C 6.09 g/m*3 22.2 C 0 km/h
1172 31-08-2011 18:32:02 21.2 C 6.12 g/m*3 21.2 C 0 km/h
1173 31-08-2011 18:44:02 22.4 C 6.36 g/m*3 22.4 C 0 km/h
1174 31-08-2011 18:56:02 21.5 C 6.6 g/m*3 21.5 C 0 km/h
1175 31-08-2011 19:08:03 20 C 7.78 g/m*3 20 C 0 km/h
Sensor: Nr:Datum:Temp:Abs-Feuchte:Windchill:Wind:
Aussen-T/F 1176 31-08-2011 19:20:02 18.2 C 8.24 g/m*3 18.2 C 0 km/h
1177 31-08-2011 19:32:02 16.4 C 8.23 g/m*3 16.4 C 0 km/h
1178 31-08-2011 19:44:02 15.6 C 8.25 g/m*3 15.6 C 0 km/h
1179 31-08-2011 19:56:01 15 C 7.95 g/m*3 15 C 0 km/h
1180 31-08-2011 20:08:02 14.7 C 8.06 g/m*3 14.7 C 0 km/h
1181 31-08-2011 20:20:01 14.4 C 7.79 g/m*3 14.4 C 0 km/h
1182 31-08-2011 20:32:01 14 C 7.72 g/m*3 14 C 0 km/h
1183 31-08-2011 20:44:01 13.6 C 7.77 g/m*3 13.6 C 0 km/h
1184 31-08-2011 20:56:01 13.3 C 7.86 g/m*3 13.3 C 0 km/h
1185 31-08-2011 21:08:02 13.4 C 7.9 g/m*3 13.4 C 0 km/h
1186 31-08-2011 21:20:01 13.2 C 7.81 g/m*3 13.2 C 0 km/h
1187 31-08-2011 21:32:02 12.5 C 7.7 g/m*3 12.5 C 0 km/h
1188 31-08-2011 21:44:02 12.5 C 7.7 g/m*3 12.5 C 0 km/h
1189 31-08-2011 21:57:48 12.7 C 7.79 g/m*3 12.7 C 0 km/h
1190 31-08-2011 22:09:48 12.4 C 7.98 g/m*3 12.4 C 0 km/h
1191 31-08-2011 22:21:48 12 C 7.78 g/m*3 12 C 0 km/h
1192 31-08-2011 22:33:48 11.8 C 8 g/m*3 11.8 C 0 km/h
1193 31-08-2011 22:45:48 11.6 C 8.11 g/m*3 11.6 C 0 km/h
1194 31-08-2011 22:57:48 11.3 C 8.06 g/m*3 11.3 C 0 km/h
1195 31-08-2011 23:09:48 11 C 8.01 g/m*3 11 C 0 km/h
1196 31-08-2011 23:21:48 10.7 C 7.96 g/m*3 10.7 C 0 km/h
1197 31-08-2011 23:33:48 10.5 C 7.95 g/m*3 10.5 C 0 km/h
1198 31-08-2011 23:45:48 10.4 C 8 g/m*3 10.4 C 0 km/h
1199 31-08-2011 23:57:48 10.4 C 8 g/m*3 10.4 C 0 km/h
1200 01-09-2011 00:09:49 10.2 C 7.9 g/m*3 10.2 C 0 km/h
Sensor: Nr:Datum:Temp:Abs-Feuchte:Windchill:Wind:
Aussen-T/F 1201 01-09-2011 00:21:49 9.8 C 7.89 g/m*3 9.8 C 0 km/h
1202 01-09-2011 00:33:49 9.4 C 7.6 g/m*3 9.4 C 0 km/h
1203 01-09-2011 00:45:49 9.2 C 7.5 g/m*3 9.2 C 0 km/h
1204 01-09-2011 00:57:49 9.3 C 7.64 g/m*3 9.3 C 0 km/h
1205 01-09-2011 01:09:49 9.2 C 7.68 g/m*3 9.2 C 0 km/h
1206 01-09-2011 01:21:49 8.8 C 7.57 g/m*3 8.8 C 0 km/h
1207 01-09-2011 01:33:49 8.8 C 7.57 g/m*3 8.8 C 0 km/h
1208 01-09-2011 01:45:49 8.7 C 7.61 g/m*3 8.7 C 0 km/h
1209 01-09-2011 01:57:49 8.6 C 7.56 g/m*3 8.6 C 0 km/h
1210 01-09-2011 02:09:49 8.7 C 7.61 g/m*3 8.7 C 0 km/h
1211 01-09-2011 02:21:49 8.5 C 7.51 g/m*3 8.5 C 0 km/h
1212 01-09-2011 02:33:49 8.4 C 7.47 g/m*3 8.4 C 0 km/h
1213 01-09-2011 02:45:49 8.4 C 7.47 g/m*3 8.4 C 0 km/h
1214 01-09-2011 02:57:49 8.3 C 7.5 g/m*3 8.3 C 0 km/h
1215 01-09-2011 03:09:49 8.4 C 7.55 g/m*3 8.4 C 0 km/h
1216 01-09-2011 03:21:49 8.3 C 7.5 g/m*3 8.3 C 0 km/h
1217 01-09-2011 03:33:49 8 C 7.36 g/m*3 8 C 0 km/h
1218 01-09-2011 03:45:49 7.9 C 7.39 g/m*3 7.9 C 0 km/h
1219 01-09-2011 03:57:49 7.7 C 7.3 g/m*3 7.7 C 0 km/h
1220 01-09-2011 04:09:49 7.9 C 7.39 g/m*3 7.9 C 0 km/h
1221 01-09-2011 04:21:50 7.9 C 7.39 g/m*3 7.9 C 0 km/h
1222 01-09-2011 04:33:50 7.8 C 7.35 g/m*3 7.8 C 0 km/h
1223 01-09-2011 04:45:50 7.6 C 7.25 g/m*3 7.6 C 0 km/h
1224 01-09-2011 04:57:50 7.8 C 7.35 g/m*3 7.8 C 0 km/h
1225 01-09-2011 05:09:50 7.5 C 7.2 g/m*3 7.5 C 0 km/h
Sensor: Nr:Datum:Temp:Abs-Feuchte:Windchill:Wind:
Aussen-T/F 1226 01-09-2011 05:21:50 7.7 C 7.3 g/m*3 7.7 C 0 km/h
1227 01-09-2011 05:33:50 7.4 C 7.16 g/m*3 7.4 C 0 km/h
1228 01-09-2011 05:45:50 7.9 C 7.47 g/m*3 7.9 C 0 km/h
1229 01-09-2011 05:57:50 7.4 C 7.24 g/m*3 7.4 C 0 km/h
1230 01-09-2011 06:09:50 7.3 C 7.19 g/m*3 7.3 C 0 km/h
1231 01-09-2011 06:21:50 7.2 C 7.14 g/m*3 7.2 C 0 km/h
1232 01-09-2011 06:33:50 7.2 C 7.14 g/m*3 7.2 C 0 km/h
1233 01-09-2011 06:45:50 7.2 C 7.14 g/m*3 7.2 C 0 km/h
1234 01-09-2011 06:57:50 7.2 C 7.14 g/m*3 7.2 C 0 km/h
1235 01-09-2011 07:09:04 7.6 C 7.33 g/m*3 7.6 C 0 km/h
1236 01-09-2011 07:21:03 7.5 C 7.28 g/m*3 7.5 C 0 km/h
1237 01-09-2011 07:33:02 7.9 C 7.56 g/m*3 7.9 C 0 km/h
1238 01-09-2011 07:45:02 8.4 C 7.72 g/m*3 8.4 C 0 km/h
1239 01-09-2011 07:57:02 8.7 C 7.87 g/m*3 8.7 C 0 km/h
1240 01-09-2011 08:09:01 9 C 7.93 g/m*3 9 C 0 km/h
1241 01-09-2011 08:21:02 9.1 C 7.99 g/m*3 9.1 C 0 km/h
1242 01-09-2011 08:33:02 9.4 C 8.14 g/m*3 9.4 C 0 km/h
1243 01-09-2011 08:45:01 9.3 C 8.09 g/m*3 9.3 C 0 km/h
1244 01-09-2011 08:57:01 9.7 C 8.3 g/m*3 9.7 C 0 km/h
1245 01-09-2011 09:09:02 9.7 C 8.2 g/m*3 9.7 C 0 km/h
1246 01-09-2011 09:21:01 10.1 C 8.32 g/m*3 10.1 C 0 km/h
1247 01-09-2011 09:33:02 10.2 C 8.28 g/m*3 10.2 C 0 km/h
1248 01-09-2011 09:45:02 10.4 C 8.29 g/m*3 10.4 C 0 km/h
1249 01-09-2011 09:57:02 10.7 C 8.45 g/m*3 10.7 C 0 km/h
1250 01-09-2011 10:09:02 10.9 C 8.45 g/m*3 10.9 C 0 km/h
Sensor: Nr:Datum:Temp:Abs-Feuchte:Windchill:Wind:
Aussen-T/F 1251 01-09-2011 10:21:02 11.2 C 8.51 g/m*3 11.2 C 0 km/h
1252 01-09-2011 10:33:02 11.4 C 8.62 g/m*3 11.4 C 0 km/h
1253 01-09-2011 10:45:02 11.6 C 8.83 g/m*3 11.6 C 0 km/h
1254 01-09-2011 10:57:02 12 C 9.06 g/m*3 12 C 0 km/h
1255 01-09-2011 11:09:02 12.3 C 9.23 g/m*3 12.3 C 0 km/h
1256 01-09-2011 11:21:02 12.7 C 9.46 g/m*3 12.7 C 0 km/h
1257 01-09-2011 11:33:02 13.1 C 9.59 g/m*3 13.1 C 0 km/h
1258 01-09-2011 11:45:02 14.2 C 10.01 g/m*3 14.2 C 0 km/h
1259 01-09-2011 11:57:02 14.8 C 9.5 g/m*3 14.8 C 0 km/h
1260 01-09-2011 12:09:03 15.4 C 9.59 g/m*3 15.4 C 0 km/h
1261 01-09-2011 12:21:02 16 C 9.4 g/m*3 16 C 0 km/h
1262 01-09-2011 12:33:02 16.4 C 9.07 g/m*3 16.4 C 0 km/h
1263 01-09-2011 12:45:02 16.8 C 8.72 g/m*3 16.8 C 0 km/h
1264 01-09-2011 12:57:02 17.3 C 8.69 g/m*3 17.3 C 0 km/h
1265 01-09-2011 13:09:02 17.9 C 8.24 g/m*3 17.9 C 0 km/h
1266 01-09-2011 13:21:01 18.6 C 7.32 g/m*3 18.6 C 0 km/h
1267 01-09-2011 13:33:02 19.1 C 7.21 g/m*3 19.1 C 0 km/h
1268 01-09-2011 13:45:02 19.6 C 7.09 g/m*3 19.6 C 0 km/h
1269 01-09-2011 13:57:02 21.8 C 6.72 g/m*3 21.8 C 0 km/h
1270 01-09-2011 14:09:02 22.5 C 6.99 g/m*3 22.5 C 0 km/h
1271 01-09-2011 14:21:01 23.1 C 6.41 g/m*3 23.1 C 0 km/h
1272 01-09-2011 14:33:02 21.6 C 6.64 g/m*3 21.6 C 0 km/h
1273 01-09-2011 14:45:02 22.9 C 6.34 g/m*3 22.9 C 0 km/h
1274 01-09-2011 14:57:02 25.6 C 6.19 g/m*3 25.6 C 0 km/h
1275 01-09-2011 15:09:02 28.3 C 5.53 g/m*3 28.3 C 0 km/h
Sensor: Nr:Datum:Temp:Abs-Feuchte:Windchill:Wind:
Aussen-T/F 1276 01-09-2011 15:21:01 29.4 C 6.16 g/m*3 29.4 C 0 km/h
1277 01-09-2011 15:33:02 27.7 C 5.35 g/m*3 27.7 C 0 km/h
1278 01-09-2011 15:45:01 29 C 5.74 g/m*3 29 C 0 km/h
1279 01-09-2011 15:57:01 28.9 C 6.28 g/m*3 28.9 C 0 km/h
1280 01-09-2011 16:09:02 30.4 C 6.82 g/m*3 30.4 C 0 km/h
1281 01-09-2011 16:21:02 29.7 C 5.97 g/m*3 29.7 C 0 km/h
1282 01-09-2011 16:33:02 29.4 C 5.87 g/m*3 29.4 C 0 km/h
1283 01-09-2011 16:45:02 28.7 C 5.65 g/m*3 28.7 C 0 km/h
1284 01-09-2011 16:57:02 28.7 C 5.65 g/m*3 28.7 C 0 km/h
1285 01-09-2011 17:09:02 30.4 C 6.82 g/m*3 30.4 C 0 km/h
1286 01-09-2011 17:21:02 30.3 C 6.16 g/m*3 30.3 C 0 km/h
1287 01-09-2011 17:33:02 28.7 C 5.65 g/m*3 28.7 C 0 km/h
1288 01-09-2011 17:45:03 29.6 C 5.94 g/m*3 29.6 C 0 km/h
1289 01-09-2011 17:57:03 28.5 C 5.59 g/m*3 28.5 C 0 km/h
1290 01-09-2011 18:09:02 28.3 C 5.81 g/m*3 28.3 C 0 km/h
1291 01-09-2011 18:21:02 27.7 C 7.49 g/m*3 27.7 C 0 km/h
1292 01-09-2011 18:33:02 27.4 C 7.89 g/m*3 27.4 C 0 km/h
1293 01-09-2011 18:45:02 26.6 C 7.8 g/m*3 26.6 C 0 km/h
1294 01-09-2011 18:57:02 26.6 C 7.8 g/m*3 26.6 C 0 km/h
1295 01-09-2011 19:09:02 26.6 C 7.8 g/m*3 26.6 C 0 km/h
1296 01-09-2011 19:21:01 26.6 C 7.8 g/m*3 26.6 C 0 km/h
1297 01-09-2011 19:33:02 19.7 C 8.83 g/m*3 19.7 C 0 km/h
1298 01-09-2011 19:45:02 19 C 8.64 g/m*3 19 C 0 km/h
1299 01-09-2011 19:57:02 18.7 C 8.65 g/m*3 18.7 C 0 km/h
1300 01-09-2011 20:09:02 18.7 C 8.65 g/m*3 18.7 C 0 km/h
Sensor: Nr:Datum:Temp:Abs-Feuchte:Windchill:Wind:
Aussen-T/F 1301 01-09-2011 20:21:02 18.7 C 8.65 g/m*3 18.7 C 0 km/h
1302 01-09-2011 20:33:02 18.7 C 8.65 g/m*3 18.7 C 0 km/h
1303 01-09-2011 20:45:02 16.4 C 8.51 g/m*3 16.4 C 0 km/h
1304 01-09-2011 20:57:02 15.7 C 8.3 g/m*3 15.7 C 0 km/h
1305 01-09-2011 21:09:02 15.5 C 8.46 g/m*3 15.5 C 0 km/h
1306 01-09-2011 21:21:02 15.3 C 8.88 g/m*3 15.3 C 0 km/h
1307 01-09-2011 21:34:04 14.5 C 8.71 g/m*3 14.5 C 0 km/h
1308 01-09-2011 21:46:04 14.2 C 8.79 g/m*3 14.2 C 0 km/h
1309 01-09-2011 21:58:04 13.9 C 8.99 g/m*3 13.9 C 0 km/h
1310 01-09-2011 22:10:04 13.5 C 8.77 g/m*3 13.5 C 0 km/h
1311 01-09-2011 22:22:04 13.1 C 8.67 g/m*3 13.1 C 0 km/h
1312 01-09-2011 22:34:04 13.2 C 8.84 g/m*3 13.2 C 0 km/h
1313 01-09-2011 22:46:04 13 C 8.96 g/m*3 13 C 0 km/h
1314 01-09-2011 22:58:04 12.9 C 9.02 g/m*3 12.9 C 0 km/h
1315 01-09-2011 23:10:04 13 C 9.07 g/m*3 13 C 0 km/h
1316 01-09-2011 23:22:04 12.9 C 9.13 g/m*3 12.9 C 0 km/h
1317 01-09-2011 23:34:04 12.6 C 8.96 g/m*3 12.6 C 0 km/h
1318 01-09-2011 23:46:04 12.4 C 8.85 g/m*3 12.4 C 0 km/h
1319 01-09-2011 23:58:04 12.1 C 8.79 g/m*3 12.1 C 0 km/h
1320 02-09-2011 00:10:04 12.1 C 8.9 g/m*3 12.1 C 0 km/h
1321 02-09-2011 00:22:04 11.8 C 8.84 g/m*3 11.8 C 0 km/h
1322 02-09-2011 00:34:05 11.7 C 8.79 g/m*3 11.7 C 0 km/h
1323 02-09-2011 00:46:05 11.8 C 8.84 g/m*3 11.8 C 0 km/h
1324 02-09-2011 00:58:05 11.8 C 8.95 g/m*3 11.8 C 0 km/h
1325 02-09-2011 01:10:05 11.5 C 8.78 g/m*3 11.5 C 0 km/h
Sensor: Nr:Datum:Temp:Abs-Feuchte:Windchill:Wind:
Aussen-T/F 1326 02-09-2011 01:22:05 11.5 C 8.78 g/m*3 11.5 C 0 km/h
1327 02-09-2011 01:34:05 11.3 C 8.67 g/m*3 11.3 C 0 km/h
1328 02-09-2011 01:46:05 11.4 C 8.83 g/m*3 11.4 C 0 km/h
1329 02-09-2011 01:58:05 11.1 C 8.66 g/m*3 11.1 C 0 km/h
1330 02-09-2011 02:10:05 10.9 C 8.55 g/m*3 10.9 C 0 km/h
1331 02-09-2011 02:22:05 10.9 C 8.55 g/m*3 10.9 C 0 km/h
1332 02-09-2011 02:34:05 10.7 C 8.45 g/m*3 10.7 C 0 km/h
1333 02-09-2011 02:46:05 10.7 C 8.45 g/m*3 10.7 C 0 km/h
1334 02-09-2011 02:58:05 10.8 C 8.5 g/m*3 10.8 C 0 km/h
1335 02-09-2011 03:10:05 10.8 C 8.6 g/m*3 10.8 C 0 km/h
1336 02-09-2011 03:22:05 10.9 C 8.65 g/m*3 10.9 C 0 km/h
1337 02-09-2011 03:34:05 11.1 C 8.76 g/m*3 11.1 C 0 km/h
1338 02-09-2011 03:46:05 11.3 C 8.87 g/m*3 11.3 C 0 km/h
1339 02-09-2011 03:58:05 11.5 C 9.09 g/m*3 11.5 C 0 km/h
1340 02-09-2011 04:10:05 11.5 C 9.09 g/m*3 11.5 C 0 km/h
1341 02-09-2011 04:22:05 11.9 C 9.32 g/m*3 11.9 C 0 km/h
1342 02-09-2011 04:34:05 11.9 C 9.32 g/m*3 11.9 C 0 km/h
1343 02-09-2011 04:46:06 11.8 C 9.26 g/m*3 11.8 C 0 km/h
1344 02-09-2011 04:58:06 11.8 C 9.26 g/m*3 11.8 C 0 km/h
1345 02-09-2011 05:10:06 11.5 C 8.99 g/m*3 11.5 C 0 km/h
1346 02-09-2011 05:22:06 11.3 C 8.87 g/m*3 11.3 C 0 km/h
1347 02-09-2011 05:34:06 11.5 C 9.09 g/m*3 11.5 C 0 km/h
1348 02-09-2011 05:46:06 11.7 C 9.2 g/m*3 11.7 C 0 km/h
1349 02-09-2011 05:58:06 11.6 C 9.15 g/m*3 11.6 C 0 km/h
1350 02-09-2011 06:10:06 11.6 C 9.15 g/m*3 11.6 C 0 km/h
Sensor: Nr:Datum:Temp:Abs-Feuchte:Windchill:Wind:
Aussen-T/F 1351 02-09-2011 06:22:06 11.9 C 9.32 g/m*3 11.9 C 0 km/h
1352 02-09-2011 06:34:06 12.1 C 9.44 g/m*3 12.1 C 0 km/h
1353 02-09-2011 06:46:06 12.2 C 9.39 g/m*3 12.2 C 0 km/h
1354 02-09-2011 06:58:06 12.2 C 9.39 g/m*3 12.2 C 0 km/h
1355 02-09-2011 07:10:06 12.3 C 9.45 g/m*3 12.3 C 0 km/h
1356 02-09-2011 07:22:06 12.5 C 9.57 g/m*3 12.5 C 0 km/h
1357 02-09-2011 07:34:04 12.5 C 9.57 g/m*3 12.5 C 0 km/h
1358 02-09-2011 07:46:02 12.5 C 9.57 g/m*3 12.5 C 0 km/h
1359 02-09-2011 07:58:02 12.7 C 9.68 g/m*3 12.7 C 0 km/h
1360 02-09-2011 08:10:02 12.8 C 9.74 g/m*3 12.8 C 0 km/h
1361 02-09-2011 08:22:02 13.1 C 9.93 g/m*3 13.1 C 0 km/h
1362 02-09-2011 08:34:02 13.1 C 9.81 g/m*3 13.1 C 0 km/h
1363 02-09-2011 08:46:01 13.3 C 9.94 g/m*3 13.3 C 0 km/h
1364 02-09-2011 08:58:01 13.3 C 9.94 g/m*3 13.3 C 0 km/h
1365 02-09-2011 09:10:02 13.8 C 10.25 g/m*3 13.8 C 0 km/h
1366 02-09-2011 09:22:02 14.4 C 10.51 g/m*3 14.4 C 0 km/h
1367 02-09-2011 09:34:01 14.8 C 10.39 g/m*3 14.8 C 0 km/h
1368 02-09-2011 09:46:02 14.7 C 9.82 g/m*3 14.7 C 0 km/h
1369 02-09-2011 09:58:02 15 C 9.87 g/m*3 15 C 0 km/h
1370 02-09-2011 10:10:01 15.1 C 9.68 g/m*3 15.1 C 0 km/h
1371 02-09-2011 10:22:02 15.2 C 9.73 g/m*3 15.2 C 0 km/h
1372 02-09-2011 10:34:01 15.6 C 10.11 g/m*3 15.6 C 0 km/h
1373 02-09-2011 10:46:02 15.6 C 10.11 g/m*3 15.6 C 0 km/h
1374 02-09-2011 10:58:02 15.6 C 10.11 g/m*3 15.6 C 0 km/h
1375 02-09-2011 11:10:01 16.2 C 9.79 g/m*3 16.2 C 0 km/h
Sensor: Nr:Datum:Temp:Abs-Feuchte:Windchill:Wind:
Aussen-T/F 1376 02-09-2011 11:22:02 16.5 C 9.69 g/m*3 16.5 C 0 km/h
1377 02-09-2011 11:34:01 16.4 C 9.77 g/m*3 16.4 C 0 km/h
1378 02-09-2011 11:46:01 17 C 9.84 g/m*3 17 C 0 km/h
1379 02-09-2011 11:58:01 17.9 C 9.92 g/m*3 17.9 C 0 km/h
1380 02-09-2011 12:10:01 19 C 9.61 g/m*3 19 C 0 km/h
1381 02-09-2011 12:22:02 19.5 C 9.73 g/m*3 19.5 C 0 km/h
1382 02-09-2011 12:34:01 20.4 C 9.91 g/m*3 20.4 C 0 km/h
1383 02-09-2011 12:46:03 21 C 9.89 g/m*3 21 C 0 km/h
1384 02-09-2011 12:58:03 20.5 C 9.79 g/m*3 20.5 C 0 km/h
1385 02-09-2011 13:10:02 20 C 9.68 g/m*3 20 C 0 km/h
1386 02-09-2011 13:22:02 21.7 C 9.92 g/m*3 21.7 C 0 km/h
1387 02-09-2011 13:34:02 22.4 C 9.73 g/m*3 22.4 C 0 km/h
1388 02-09-2011 13:46:02 22.2 C 9.82 g/m*3 22.2 C 0 km/h
1389 02-09-2011 13:58:02 23.4 C 10.3 g/m*3 23.4 C 0 km/h
1390 02-09-2011 14:10:02 25.2 C 10.24 g/m*3 25.2 C 0 km/h
1391 02-09-2011 14:22:02 24.4 C 9.57 g/m*3 24.4 C 0 km/h
1392 02-09-2011 14:34:01 23.2 C 9.77 g/m*3 23.2 C 0 km/h
1393 02-09-2011 14:46:02 24.8 C 10.24 g/m*3 24.8 C 0 km/h
1394 02-09-2011 14:58:02 28.8 C 10.23 g/m*3 28.8 C 0 km/h
1395 02-09-2011 15:10:01 31 C 9.92 g/m*3 31 C 0 km/h
1396 02-09-2011 15:22:01 31.3 C 9.76 g/m*3 31.3 C 0 km/h
1397 02-09-2011 15:34:02 30.9 C 8.91 g/m*3 30.9 C 0 km/h
1398 02-09-2011 15:46:02 31.7 C 8.64 g/m*3 31.7 C 0 km/h
1399 02-09-2011 15:58:02 32 C 7.43 g/m*3 32 C 0 km/h
1400 02-09-2011 16:10:01 32 C 7.76 g/m*3 32 C 0 km/h
Sensor: Nr:Datum:Temp:Abs-Feuchte:Windchill:Wind:
Aussen-T/F 1401 02-09-2011 16:22:02 29.5 C 9.15 g/m*3 29.5 C 0 km/h
1402 02-09-2011 16:34:02 27.6 C 11.97 g/m*3 27.6 C 0 km/h
1403 02-09-2011 16:46:02 31 C 10.56 g/m*3 31 C 0 km/h
1404 02-09-2011 16:58:02 31.4 C 9.15 g/m*3 31.4 C 0 km/h
1405 02-09-2011 17:10:01 29.4 C 11.15 g/m*3 29.4 C 0 km/h
1406 02-09-2011 17:22:02 25.5 C 10.89 g/m*3 25.5 C 0 km/h
1407 02-09-2011 17:34:02 24.3 C 11.73 g/m*3 24.3 C 0 km/h
1408 02-09-2011 17:46:02 24.1 C 11.6 g/m*3 24.1 C 0 km/h
1409 02-09-2011 17:58:03 23.8 C 12.26 g/m*3 23.8 C 0 km/h
1410 02-09-2011 18:10:02 23.5 C 11.84 g/m*3 23.5 C 0 km/h
1411 02-09-2011 18:22:02 23 C 11.92 g/m*3 23 C 0 km/h
1412 02-09-2011 18:34:02 22.5 C 11.98 g/m*3 22.5 C 0 km/h
1413 02-09-2011 18:46:01 22 C 12.03 g/m*3 22 C 0 km/h
1414 02-09-2011 18:58:01 22 C 11.84 g/m*3 22 C 0 km/h
1415 02-09-2011 19:10:02 21.9 C 11.96 g/m*3 21.9 C 0 km/h
1416 02-09-2011 19:22:01 21 C 12.64 g/m*3 21 C 0 km/h
1417 02-09-2011 19:34:02 21 C 13.01 g/m*3 21 C 0 km/h
1418 02-09-2011 19:46:02 20.8 C 13.22 g/m*3 20.8 C 0 km/h
1419 02-09-2011 19:58:02 20.3 C 12.84 g/m*3 20.3 C 0 km/h
1420 02-09-2011 20:10:02 19.6 C 12.83 g/m*3 19.6 C 0 km/h
1421 02-09-2011 20:22:01 19.4 C 12.85 g/m*3 19.4 C 0 km/h
1422 02-09-2011 20:34:02 19.3 C 12.44 g/m*3 19.3 C 0 km/h
1423 02-09-2011 20:46:02 19.3 C 12.11 g/m*3 19.3 C 0 km/h
1424 02-09-2011 20:58:02 18.9 C 12.15 g/m*3 18.9 C 0 km/h
1425 02-09-2011 21:10:02 18.5 C 12.02 g/m*3 18.5 C 0 km/h
Sensor: Nr:Datum:Temp:Abs-Feuchte:Windchill:Wind:
Aussen-T/F 1426 02-09-2011 21:22:02 18.2 C 11.97 g/m*3 18.2 C 0 km/h
1427 02-09-2011 21:34:02 17.7 C 11.92 g/m*3 17.7 C 0 km/h
1428 02-09-2011 21:46:02 17.6 C 12 g/m*3 17.6 C 0 km/h
1429 02-09-2011 21:58:02 17.6 C 12.3 g/m*3 17.6 C 0 km/h
1430 02-09-2011 22:10:01 17.3 C 12.08 g/m*3 17.3 C 0 km/h
1431 02-09-2011 22:22:01 17 C 11.87 g/m*3 17 C 0 km/h
1432 02-09-2011 22:34:02 17.3 C 12.23 g/m*3 17.3 C 0 km/h
1433 02-09-2011 22:46:03 17.1 C 12.08 g/m*3 17.1 C 0 km/h
1434 02-09-2011 22:58:03 16.8 C 12.01 g/m*3 16.8 C 0 km/h
1435 02-09-2011 23:10:02 16.6 C 11.87 g/m*3 16.6 C 0 km/h
1436 02-09-2011 23:22:02 16.5 C 11.8 g/m*3 16.5 C 0 km/h
1437 02-09-2011 23:34:02 16.1 C 11.51 g/m*3 16.1 C 0 km/h
1438 02-09-2011 23:46:02 16 C 11.44 g/m*3 16 C 0 km/h
1439 02-09-2011 23:58:02 16 C 11.44 g/m*3 16 C 0 km/h
1440 03-09-2011 00:10:02 15.8 C 11.44 g/m*3 15.8 C 0 km/h
1441 03-09-2011 00:22:02 15.8 C 11.58 g/m*3 15.8 C 0 km/h
1442 03-09-2011 00:34:01 15.6 C 11.44 g/m*3 15.6 C 0 km/h
1443 03-09-2011 00:46:02 15.5 C 11.37 g/m*3 15.5 C 0 km/h
1444 03-09-2011 00:58:02 15.5 C 11.37 g/m*3 15.5 C 0 km/h
1445 03-09-2011 01:10:01 15.6 C 11.57 g/m*3 15.6 C 0 km/h
1446 03-09-2011 01:22:02 15.3 C 11.36 g/m*3 15.3 C 0 km/h
1447 03-09-2011 01:34:02 15.2 C 11.29 g/m*3 15.2 C 0 km/h
1448 03-09-2011 01:46:02 15.2 C 11.29 g/m*3 15.2 C 0 km/h
1449 03-09-2011 01:58:03 15.2 C 11.29 g/m*3 15.2 C 0 km/h
1450 03-09-2011 02:10:02 15.1 C 11.22 g/m*3 15.1 C 0 km/h
Sensor: Nr:Datum:Temp:Abs-Feuchte:Windchill:Wind:
Aussen-T/F 1451 03-09-2011 02:22:02 15 C 11.16 g/m*3 15 C 0 km/h
1452 03-09-2011 02:34:03 15.1 C 11.35 g/m*3 15.1 C 0 km/h
1453 03-09-2011 02:47:03 15 C 11.28 g/m*3 15 C 0 km/h
1454 03-09-2011 02:59:03 14.9 C 11.34 g/m*3 14.9 C 0 km/h
1455 03-09-2011 03:11:04 14.8 C 11.27 g/m*3 14.8 C 0 km/h
1456 03-09-2011 03:23:04 14.8 C 11.27 g/m*3 14.8 C 0 km/h
1457 03-09-2011 03:35:02 14.7 C 11.21 g/m*3 14.7 C 0 km/h
1458 03-09-2011 03:47:02 14.7 C 11.21 g/m*3 14.7 C 0 km/h
1459 03-09-2011 03:59:02 14.6 C 11.14 g/m*3 14.6 C 0 km/h
1460 03-09-2011 04:11:02 14.7 C 11.21 g/m*3 14.7 C 0 km/h
1461 03-09-2011 04:23:02 14.5 C 11.07 g/m*3 14.5 C 0 km/h
1462 03-09-2011 04:35:02 14.5 C 11.07 g/m*3 14.5 C 0 km/h
1463 03-09-2011 04:47:02 14.7 C 11.33 g/m*3 14.7 C 0 km/h
1464 03-09-2011 04:59:02 14.1 C 10.8 g/m*3 14.1 C 0 km/h
1465 03-09-2011 05:11:01 14.3 C 10.93 g/m*3 14.3 C 0 km/h
1466 03-09-2011 05:23:02 14.3 C 10.93 g/m*3 14.3 C 0 km/h
1467 03-09-2011 05:35:02 14.1 C 10.8 g/m*3 14.1 C 0 km/h
1468 03-09-2011 05:47:02 14.4 C 11.13 g/m*3 14.4 C 0 km/h
1469 03-09-2011 05:59:02 14 C 10.74 g/m*3 14 C 0 km/h
1470 03-09-2011 06:11:02 14.4 C 11.13 g/m*3 14.4 C 0 km/h
1471 03-09-2011 06:23:02 13.8 C 10.72 g/m*3 13.8 C 0 km/h
1472 03-09-2011 06:35:03 13.7 C 10.66 g/m*3 13.7 C 0 km/h
1473 03-09-2011 06:47:02 14 C 10.86 g/m*3 14 C 0 km/h
1474 03-09-2011 06:59:02 14.1 C 10.92 g/m*3 14.1 C 0 km/h
1475 03-09-2011 07:11:02 14.5 C 11.19 g/m*3 14.5 C 0 km/h
Sensor: Nr:Datum:Temp:Abs-Feuchte:Windchill:Wind:
Aussen-T/F 1476 03-09-2011 07:23:01 14.5 C 11.19 g/m*3 14.5 C 0 km/h
1477 03-09-2011 07:35:02 14.8 C 11.4 g/m*3 14.8 C 0 km/h
1478 03-09-2011 07:47:02 14.8 C 11.4 g/m*3 14.8 C 0 km/h
1479 03-09-2011 07:59:02 14.8 C 11.4 g/m*3 14.8 C 0 km/h
1480 03-09-2011 08:11:02 14.9 C 11.47 g/m*3 14.9 C 0 km/h
1481 03-09-2011 08:23:02 15.1 C 11.61 g/m*3 15.1 C 0 km/h
1482 03-09-2011 08:35:02 15.4 C 11.82 g/m*3 15.4 C 0 km/h
1483 03-09-2011 08:47:02 15.4 C 11.82 g/m*3 15.4 C 0 km/h
1484 03-09-2011 08:59:02 15.5 C 11.9 g/m*3 15.5 C 0 km/h
1485 03-09-2011 09:11:01 15.7 C 11.91 g/m*3 15.7 C 0 km/h
1486 03-09-2011 09:23:02 15.4 C 11.69 g/m*3 15.4 C 0 km/h
1487 03-09-2011 09:35:01 15.5 C 11.76 g/m*3 15.5 C 0 km/h
1488 03-09-2011 09:47:03 15.9 C 12.05 g/m*3 15.9 C 0 km/h
1489 03-09-2011 09:59:03 16 C 11.99 g/m*3 16 C 0 km/h
1490 03-09-2011 10:11:02 16.6 C 12.57 g/m*3 16.6 C 0 km/h
1491 03-09-2011 10:23:02 17 C 12.73 g/m*3 17 C 0 km/h
1492 03-09-2011 10:35:03 17.4 C 13.19 g/m*3 17.4 C 0 km/h
1493 03-09-2011 10:47:02 17.8 C 13.51 g/m*3 17.8 C 0 km/h
1494 03-09-2011 10:59:03 18.2 C 13.68 g/m*3 18.2 C 0 km/h
1495 03-09-2011 11:11:01 18.6 C 14.01 g/m*3 18.6 C 0 km/h
1496 03-09-2011 11:23:02 19 C 14.18 g/m*3 19 C 0 km/h
1497 03-09-2011 11:35:01 19.4 C 14.68 g/m*3 19.4 C 0 km/h
1498 03-09-2011 11:47:02 19.8 C 15.03 g/m*3 19.8 C 0 km/h
1499 03-09-2011 11:59:03 20.4 C 15.39 g/m*3 20.4 C 0 km/h
1500 03-09-2011 12:11:02 21.3 C 16.03 g/m*3 21.3 C 0 km/h
Sensor: Nr:Datum:Temp:Abs-Feuchte:Windchill:Wind:
Aussen-T/F 1501 03-09-2011 12:23:02 22.2 C 16.49 g/m*3 22.2 C 0 km/h
1502 03-09-2011 12:35:03 23.3 C 16.73 g/m*3 23.3 C 0 km/h
1503 03-09-2011 12:47:02 24.6 C 15.3 g/m*3 24.6 C 0 km/h
1504 03-09-2011 12:59:02 25.4 C 13.18 g/m*3 25.4 C 0 km/h
1505 03-09-2011 13:11:02 26.4 C 12.94 g/m*3 26.4 C 0 km/h
1506 03-09-2011 13:23:02 26.3 C 12.13 g/m*3 26.3 C 0 km/h
1507 03-09-2011 13:35:02 25.4 C 13.89 g/m*3 25.4 C 0 km/h
1508 03-09-2011 13:47:02 26.2 C 12.56 g/m*3 26.2 C 0 km/h
1509 03-09-2011 13:59:02 28.1 C 12.58 g/m*3 28.1 C 0 km/h
1510 03-09-2011 14:11:02 28 C 13.33 g/m*3 28 C 0 km/h
1511 03-09-2011 14:23:02 28.7 C 11.02 g/m*3 28.7 C 0 km/h
1512 03-09-2011 14:35:02 27.5 C 11.11 g/m*3 27.5 C 0 km/h
1513 03-09-2011 14:47:02 29.1 C 11.84 g/m*3 29.1 C 0 km/h
1514 03-09-2011 14:59:02 32.1 C 10.18 g/m*3 32.1 C 0 km/h
1515 03-09-2011 15:11:02 32.5 C 9.71 g/m*3 32.5 C 0 km/h
1516 03-09-2011 15:23:02 31.7 C 9.3 g/m*3 31.7 C 0 km/h
1517 03-09-2011 15:35:02 32.8 C 8.81 g/m*3 32.8 C 0 km/h
1518 03-09-2011 15:47:02 32.4 C 9.31 g/m*3 32.4 C 0 km/h
1519 03-09-2011 15:59:02 31.9 C 8.39 g/m*3 31.9 C 0 km/h
1520 03-09-2011 16:11:02 33 C 7.48 g/m*3 33 C 0 km/h
1521 03-09-2011 16:23:02 31.9 C 10.07 g/m*3 31.9 C 0 km/h
1522 03-09-2011 16:35:02 31.7 C 9.3 g/m*3 31.7 C 0 km/h
1523 03-09-2011 16:47:02 30.4 C 10.85 g/m*3 30.4 C 0 km/h
1524 03-09-2011 16:59:02 31.7 C 9.3 g/m*3 31.7 C 0 km/h
1525 03-09-2011 17:11:01 31.5 C 9.53 g/m*3 31.5 C 0 km/h
Sensor: Nr:Datum:Temp:Abs-Feuchte:Windchill:Wind:
Aussen-T/F 1526 03-09-2011 17:23:02 31.9 C 8.73 g/m*3 31.9 C 0 km/h
1527 03-09-2011 17:35:01 32.3 C 8.92 g/m*3 32.3 C 0 km/h
1528 03-09-2011 17:47:03 31.3 C 10.08 g/m*3 31.3 C 0 km/h
1529 03-09-2011 17:59:03 31.9 C 10.41 g/m*3 31.9 C 0 km/h
1530 03-09-2011 18:11:02 31.6 C 10.57 g/m*3 31.6 C 0 km/h
1531 03-09-2011 18:23:03 30.8 C 11.08 g/m*3 30.8 C 0 km/h
1532 03-09-2011 18:35:02 30 C 11.83 g/m*3 30 C 0 km/h
1533 03-09-2011 18:47:01 28 C 12.24 g/m*3 28 C 0 km/h
1534 03-09-2011 18:59:01 28.4 C 11.95 g/m*3 28.4 C 0 km/h
1535 03-09-2011 19:11:01 26.6 C 11.83 g/m*3 26.6 C 0 km/h
1536 03-09-2011 19:23:02 24.6 C 12.38 g/m*3 24.6 C 0 km/h
1537 03-09-2011 19:35:01 23.9 C 12.55 g/m*3 23.9 C 0 km/h
1538 03-09-2011 19:47:02 23.2 C 12.47 g/m*3 23.2 C 0 km/h
1539 03-09-2011 19:59:02 22.6 C 12.25 g/m*3 22.6 C 0 km/h
1540 03-09-2011 20:11:01 22.3 C 12.24 g/m*3 22.3 C 0 km/h
1541 03-09-2011 20:23:02 21.9 C 12.16 g/m*3 21.9 C 0 km/h
1542 03-09-2011 20:35:02 21.6 C 11.95 g/m*3 21.6 C 0 km/h
1543 03-09-2011 20:47:02 21.7 C 12.02 g/m*3 21.7 C 0 km/h
1544 03-09-2011 20:59:02 21.4 C 11.81 g/m*3 21.4 C 0 km/h
1545 03-09-2011 21:11:02 21.4 C 11.81 g/m*3 21.4 C 0 km/h
1546 03-09-2011 21:23:02 21 C 11.72 g/m*3 21 C 0 km/h
1547 03-09-2011 21:35:03 20.9 C 11.84 g/m*3 20.9 C 0 km/h
1548 03-09-2011 21:47:03 20.9 C 11.66 g/m*3 20.9 C 0 km/h
1549 03-09-2011 21:59:03 20.9 C 11.66 g/m*3 20.9 C 0 km/h
1550 03-09-2011 22:11:02 20.7 C 11.52 g/m*3 20.7 C 0 km/h
Sensor: Nr:Datum:Temp:Abs-Feuchte:Windchill:Wind:
Aussen-T/F 1551 03-09-2011 22:23:02 20.6 C 11.63 g/m*3 20.6 C 0 km/h
1552 03-09-2011 22:35:03 20.4 C 11.85 g/m*3 20.4 C 0 km/h
1553 03-09-2011 22:48:03 20.3 C 11.78 g/m*3 20.3 C 0 km/h
1554 03-09-2011 23:00:03 19.7 C 11.89 g/m*3 19.7 C 0 km/h
1555 03-09-2011 23:12:03 19.7 C 12.06 g/m*3 19.7 C 0 km/h
1556 03-09-2011 23:24:03 19.4 C 12.01 g/m*3 19.4 C 0 km/h
1557 03-09-2011 23:36:03 19 C 11.9 g/m*3 19 C 0 km/h
1558 03-09-2011 23:48:04 18.8 C 12.08 g/m*3 18.8 C 0 km/h
1559 04-09-2011 00:00:04 19.1 C 12.29 g/m*3 19.1 C 0 km/h
1560 04-09-2011 00:12:04 19.4 C 12.18 g/m*3 19.4 C 0 km/h
1561 04-09-2011 00:24:04 19.2 C 12.04 g/m*3 19.2 C 0 km/h
1562 04-09-2011 00:36:04 19.1 C 12.13 g/m*3 19.1 C 0 km/h
1563 04-09-2011 00:48:04 19 C 12.22 g/m*3 19 C 0 km/h
1564 04-09-2011 01:00:04 19.1 C 12.62 g/m*3 19.1 C 0 km/h
1565 04-09-2011 01:12:04 20.7 C 12.06 g/m*3 20.7 C 0 km/h
1566 04-09-2011 01:24:04 20.2 C 12.06 g/m*3 20.2 C 0 km/h
1567 04-09-2011 01:36:04 20 C 12.27 g/m*3 20 C 0 km/h
1568 04-09-2011 01:48:04 19.8 C 12.64 g/m*3 19.8 C 0 km/h
1569 04-09-2011 02:00:04 19.6 C 12.83 g/m*3 19.6 C 0 km/h
1570 04-09-2011 02:12:04 19.6 C 13 g/m*3 19.6 C 0 km/h
1571 04-09-2011 02:24:04 19.5 C 12.92 g/m*3 19.5 C 0 km/h
1572 04-09-2011 02:36:05 19.3 C 13.1 g/m*3 19.3 C 0 km/h
1573 04-09-2011 02:48:05 19.3 C 13.6 g/m*3 19.3 C 0 km/h
1574 04-09-2011 03:00:05 19.3 C 13.77 g/m*3 19.3 C 0 km/h
1575 04-09-2011 03:12:05 19.1 C 13.77 g/m*3 19.1 C 0 km/h
Sensor: Nr:Datum:Temp:Abs-Feuchte:Windchill:Wind:
Aussen-T/F 1576 04-09-2011 03:24:05 19.2 C 13.85 g/m*3 19.2 C 0 km/h
1577 04-09-2011 03:36:05 19.2 C 13.85 g/m*3 19.2 C 0 km/h
1578 04-09-2011 03:48:05 19.2 C 14.02 g/m*3 19.2 C 0 km/h
1579 04-09-2011 04:00:05 19.3 C 13.93 g/m*3 19.3 C 0 km/h
1580 04-09-2011 04:12:05 19.3 C 13.93 g/m*3 19.3 C 0 km/h
1581 04-09-2011 04:24:05 19.3 C 13.93 g/m*3 19.3 C 0 km/h
1582 04-09-2011 04:36:05 19.4 C 14.01 g/m*3 19.4 C 0 km/h
1583 04-09-2011 04:48:05 19.4 C 13.85 g/m*3 19.4 C 0 km/h
1584 04-09-2011 05:00:05 19.3 C 13.77 g/m*3 19.3 C 0 km/h
1585 04-09-2011 05:12:05 19.2 C 13.69 g/m*3 19.2 C 0 km/h
1586 04-09-2011 05:24:05 19.3 C 13.77 g/m*3 19.3 C 0 km/h
1587 04-09-2011 05:36:05 19.3 C 13.6 g/m*3 19.3 C 0 km/h
1588 04-09-2011 05:48:05 19.3 C 13.6 g/m*3 19.3 C 0 km/h
1589 04-09-2011 06:00:05 19.3 C 13.6 g/m*3 19.3 C 0 km/h
1590 04-09-2011 06:12:05 19.3 C 13.44 g/m*3 19.3 C 0 km/h
1591 04-09-2011 06:24:05 19.2 C 13.36 g/m*3 19.2 C 0 km/h
1592 04-09-2011 06:36:05 19.2 C 13.36 g/m*3 19.2 C 0 km/h
1593 04-09-2011 06:48:05 19.3 C 13.44 g/m*3 19.3 C 0 km/h
1594 04-09-2011 07:00:05 19.4 C 13.51 g/m*3 19.4 C 0 km/h
1595 04-09-2011 07:12:06 19.7 C 13.41 g/m*3 19.7 C 0 km/h
1596 04-09-2011 07:24:06 19.8 C 12.98 g/m*3 19.8 C 0 km/h
1597 04-09-2011 07:36:06 20.3 C 13.01 g/m*3 20.3 C 0 km/h
1598 04-09-2011 07:48:06 20.4 C 12.91 g/m*3 20.4 C 0 km/h
1599 04-09-2011 08:00:06 20.5 C 12.99 g/m*3 20.5 C 0 km/h
1600 04-09-2011 08:12:03 20.6 C 12.89 g/m*3 20.6 C 0 km/h
Sensor: Nr:Datum:Temp:Abs-Feuchte:Windchill:Wind:
Aussen-T/F 1601 04-09-2011 08:24:03 20.6 C 13.07 g/m*3 20.6 C 0 km/h
1602 04-09-2011 08:36:03 20.5 C 13.17 g/m*3 20.5 C 0 km/h
1603 04-09-2011 08:48:02 20.8 C 13.22 g/m*3 20.8 C 0 km/h
1604 04-09-2011 09:00:02 21.2 C 12.97 g/m*3 21.2 C 0 km/h
1605 04-09-2011 09:12:03 21.6 C 13.09 g/m*3 21.6 C 0 km/h
1606 04-09-2011 09:24:02 21.8 C 13.05 g/m*3 21.8 C 0 km/h
1607 04-09-2011 09:36:02 22.1 C 13.27 g/m*3 22.1 C 0 km/h
1608 04-09-2011 09:48:01 22.1 C 13.27 g/m*3 22.1 C 0 km/h
1609 04-09-2011 10:00:01 22.1 C 13.08 g/m*3 22.1 C 0 km/h
1610 04-09-2011 10:12:02 22.5 C 13.38 g/m*3 22.5 C 0 km/h
1611 04-09-2011 10:24:01 23.2 C 13.31 g/m*3 23.2 C 0 km/h
1612 04-09-2011 10:36:02 23.3 C 12.96 g/m*3 23.3 C 0 km/h
1613 04-09-2011 10:48:02 23.5 C 13.11 g/m*3 23.5 C 0 km/h
1614 04-09-2011 11:00:02 23.5 C 13.32 g/m*3 23.5 C 0 km/h
1615 04-09-2011 11:12:02 23.9 C 12.76 g/m*3 23.9 C 0 km/h
1616 04-09-2011 11:24:02 24.4 C 12.24 g/m*3 24.4 C 0 km/h
1617 04-09-2011 11:36:02 24.4 C 12.02 g/m*3 24.4 C 0 km/h
1618 04-09-2011 11:48:02 24.5 C 11.86 g/m*3 24.5 C 0 km/h
1619 04-09-2011 12:00:02 24.9 C 12.36 g/m*3 24.9 C 0 km/h
1620 04-09-2011 12:12:02 25.3 C 11.47 g/m*3 25.3 C 0 km/h
1621 04-09-2011 12:24:02 25.6 C 11.9 g/m*3 25.6 C 0 km/h
1622 04-09-2011 12:36:02 25.8 C 11.8 g/m*3 25.8 C 0 km/h
1623 04-09-2011 12:48:01 25.8 C 11.56 g/m*3 25.8 C 0 km/h
1624 04-09-2011 13:00:01 26 C 11.44 g/m*3 26 C 0 km/h
1625 04-09-2011 13:12:01 26.7 C 11.39 g/m*3 26.7 C 0 km/h
Sensor: Nr:Datum:Temp:Abs-Feuchte:Windchill:Wind:
Aussen-T/F 1626 04-09-2011 13:24:01 26.9 C 11.26 g/m*3 26.9 C 0 km/h
1627 04-09-2011 13:36:01 26.4 C 11.2 g/m*3 26.4 C 0 km/h
1628 04-09-2011 13:48:01 26.6 C 11.33 g/m*3 26.6 C 0 km/h
1629 04-09-2011 14:00:01 26.2 C 10.83 g/m*3 26.2 C 0 km/h
1630 04-09-2011 14:12:02 26.9 C 11.01 g/m*3 26.9 C 0 km/h
1631 04-09-2011 14:24:01 27.4 C 10.52 g/m*3 27.4 C 0 km/h
1632 04-09-2011 14:36:01 27.5 C 10.85 g/m*3 27.5 C 0 km/h
1633 04-09-2011 14:48:01 27.3 C 10.73 g/m*3 27.3 C 0 km/h
1634 04-09-2011 15:00:01 27.2 C 10.41 g/m*3 27.2 C 0 km/h
1635 04-09-2011 15:12:02 27 C 10.55 g/m*3 27 C 0 km/h
1636 04-09-2011 15:24:02 26.6 C 10.32 g/m*3 26.6 C 0 km/h
1637 04-09-2011 15:36:01 26.5 C 11.26 g/m*3 26.5 C 0 km/h
1638 04-09-2011 15:48:02 26 C 9.98 g/m*3 26 C 0 km/h
1639 04-09-2011 16:00:02 25.9 C 10.41 g/m*3 25.9 C 0 km/h
1640 04-09-2011 16:12:01 25.7 C 10.77 g/m*3 25.7 C 0 km/h
1641 04-09-2011 16:24:02 24.6 C 10.58 g/m*3 24.6 C 0 km/h
1642 04-09-2011 16:36:01 24.7 C 10.64 g/m*3 24.7 C 0 km/h
1643 04-09-2011 16:48:02 22.9 C 11.65 g/m*3 22.9 C 0 km/h
1644 04-09-2011 17:00:02 22 C 12.03 g/m*3 22 C 0 km/h
1645 04-09-2011 17:12:02 22.3 C 12.24 g/m*3 22.3 C 0 km/h
1646 04-09-2011 17:24:02 22.3 C 12.64 g/m*3 22.3 C 0 km/h
1647 04-09-2011 17:36:02 22.3 C 12.83 g/m*3 22.3 C 0 km/h
1648 04-09-2011 17:48:02 22.2 C 12.96 g/m*3 22.2 C 0 km/h
1649 04-09-2011 18:00:02 21.9 C 13.31 g/m*3 21.9 C 0 km/h
1650 04-09-2011 18:12:02 22 C 13 g/m*3 22 C 0 km/h
Sensor: Nr:Datum:Temp:Abs-Feuchte:Windchill:Wind:
Aussen-T/F 1651 04-09-2011 18:24:01 22.2 C 12.76 g/m*3 22.2 C 0 km/h
1652 04-09-2011 18:36:02 21.9 C 12.74 g/m*3 21.9 C 0 km/h
1653 04-09-2011 18:48:02 21.8 C 12.47 g/m*3 21.8 C 0 km/h
1654 04-09-2011 19:00:02 21.6 C 12.33 g/m*3 21.6 C 0 km/h
1655 04-09-2011 19:12:02 21.3 C 12.49 g/m*3 21.3 C 0 km/h
1656 04-09-2011 19:24:02 21.4 C 12.37 g/m*3 21.4 C 0 km/h
1657 04-09-2011 19:36:02 21.1 C 12.53 g/m*3 21.1 C 0 km/h
1658 04-09-2011 19:48:02 20.9 C 12.57 g/m*3 20.9 C 0 km/h
1659 04-09-2011 20:00:02 20.8 C 12.49 g/m*3 20.8 C 0 km/h
1660 04-09-2011 20:12:02 20.4 C 12.38 g/m*3 20.4 C 0 km/h
1661 04-09-2011 20:24:02 20.5 C 12.46 g/m*3 20.5 C 0 km/h
1662 04-09-2011 20:36:02 20.4 C 12.56 g/m*3 20.4 C 0 km/h
1663 04-09-2011 20:48:02 20.5 C 12.46 g/m*3 20.5 C 0 km/h
1664 04-09-2011 21:00:02 20.6 C 11.99 g/m*3 20.6 C 0 km/h
1665 04-09-2011 21:12:02 20.6 C 11.99 g/m*3 20.6 C 0 km/h
1666 04-09-2011 21:24:02 20.4 C 12.03 g/m*3 20.4 C 0 km/h
1667 04-09-2011 21:36:02 20.3 C 11.78 g/m*3 20.3 C 0 km/h
1668 04-09-2011 21:48:02 20 C 11.75 g/m*3 20 C 0 km/h
1669 04-09-2011 22:00:02 19.5 C 11.92 g/m*3 19.5 C 0 km/h
1670 04-09-2011 22:12:02 19.6 C 12.15 g/m*3 19.6 C 0 km/h
1671 04-09-2011 22:25:03 19.4 C 12.01 g/m*3 19.4 C 0 km/h
1672 04-09-2011 22:37:03 19.3 C 12.11 g/m*3 19.3 C 0 km/h
1673 04-09-2011 22:49:03 19.1 C 12.13 g/m*3 19.1 C 0 km/h
1674 04-09-2011 23:01:03 18.9 C 12.15 g/m*3 18.9 C 0 km/h
1675 04-09-2011 23:13:03 18.8 C 12.08 g/m*3 18.8 C 0 km/h
Sensor: Nr:Datum:Temp:Abs-Feuchte:Windchill:Wind:
Aussen-T/F 1676 04-09-2011 23:25:03 18.6 C 12.1 g/m*3 18.6 C 0 km/h
1677 04-09-2011 23:37:03 18.5 C 12.02 g/m*3 18.5 C 0 km/h
1678 04-09-2011 23:49:03 18.2 C 11.97 g/m*3 18.2 C 0 km/h
1679 05-09-2011 00:01:03 17.9 C 12.06 g/m*3 17.9 C 0 km/h
1680 05-09-2011 00:13:03 17.8 C 11.99 g/m*3 17.8 C 0 km/h
1681 05-09-2011 00:25:03 17.4 C 11.86 g/m*3 17.4 C 0 km/h
1682 05-09-2011 00:37:03 17.3 C 11.93 g/m*3 17.3 C 0 km/h
1683 05-09-2011 00:49:03 17.2 C 12.01 g/m*3 17.2 C 0 km/h
1684 05-09-2011 01:01:03 17.4 C 12.15 g/m*3 17.4 C 0 km/h
1685 05-09-2011 01:13:03 18 C 11.98 g/m*3 18 C 0 km/h
1686 05-09-2011 01:25:03 17.3 C 11.49 g/m*3 17.3 C 0 km/h
1687 05-09-2011 01:37:03 16.9 C 11.65 g/m*3 16.9 C 0 km/h
1688 05-09-2011 01:49:03 16.9 C 11.79 g/m*3 16.9 C 0 km/h
1689 05-09-2011 02:01:03 17 C 11.87 g/m*3 17 C 0 km/h
1690 05-09-2011 02:13:03 17.3 C 12.08 g/m*3 17.3 C 0 km/h
1691 05-09-2011 02:25:03 17.4 C 12 g/m*3 17.4 C 0 km/h
1692 05-09-2011 02:37:03 17.5 C 11.93 g/m*3 17.5 C 0 km/h
1693 05-09-2011 02:49:03 17.4 C 11.71 g/m*3 17.4 C 0 km/h
1694 05-09-2011 03:01:04 17.1 C 11.65 g/m*3 17.1 C 0 km/h
1695 05-09-2011 03:13:04 17 C 11.72 g/m*3 17 C 0 km/h
1696 05-09-2011 03:25:04 16.7 C 11.65 g/m*3 16.7 C 0 km/h
1697 05-09-2011 03:37:04 16.2 C 11.31 g/m*3 16.2 C 0 km/h
1698 05-09-2011 03:49:04 16 C 11.31 g/m*3 16 C 0 km/h
1699 05-09-2011 04:01:04 16 C 11.44 g/m*3 16 C 0 km/h
1700 05-09-2011 04:13:04 16.5 C 11.94 g/m*3 16.5 C 0 km/h
Sensor: Nr:Datum:Temp:Abs-Feuchte:Windchill:Wind:
Aussen-T/F 1701 05-09-2011 04:25:04 16.6 C 12.01 g/m*3 16.6 C 0 km/h
1702 05-09-2011 04:37:04 16.9 C 12.23 g/m*3 16.9 C 0 km/h
1703 05-09-2011 04:49:04 17.4 C 12.15 g/m*3 17.4 C 0 km/h
1704 05-09-2011 05:01:04 17.7 C 11.92 g/m*3 17.7 C 0 km/h
1705 05-09-2011 05:13:04 17.9 C 10.99 g/m*3 17.9 C 0 km/h
1706 05-09-2011 05:25:04 17.8 C 10.32 g/m*3 17.8 C 0 km/h
1707 05-09-2011 05:37:04 17.7 C 9.66 g/m*3 17.7 C 0 km/h
1708 05-09-2011 05:49:04 17.5 C 9.24 g/m*3 17.5 C 0 km/h
1709 05-09-2011 06:01:04 17.5 C 8.05 g/m*3 17.5 C 0 km/h
1710 05-09-2011 06:13:04 17.2 C 7.03 g/m*3 17.2 C 0 km/h
1711 05-09-2011 06:25:04 16.6 C 6.5 g/m*3 16.6 C 0 km/h
1712 05-09-2011 06:37:04 16.4 C 6 g/m*3 16.4 C 0 km/h
1713 05-09-2011 06:49:04 16 C 5.99 g/m*3 16 C 0 km/h
1714 05-09-2011 07:01:04 15.4 C 6.18 g/m*3 15.4 C 0 km/h
1715 05-09-2011 07:13:04 14.8 C 6.46 g/m*3 14.8 C 0 km/h
1716 05-09-2011 07:25:03 14.4 C 6.8 g/m*3 14.4 C 0 km/h
1717 05-09-2011 07:37:03 14.3 C 6.88 g/m*3 14.3 C 0 km/h
1718 05-09-2011 07:49:02 14.2 C 6.84 g/m*3 14.2 C 0 km/h
1719 05-09-2011 08:01:03 13.8 C 7.15 g/m*3 13.8 C 0 km/h
1720 05-09-2011 08:13:03 13.7 C 7.22 g/m*3 13.7 C 0 km/h
1721 05-09-2011 08:25:02 14 C 7.24 g/m*3 14 C 0 km/h
1722 05-09-2011 08:37:02 14 C 7.48 g/m*3 14 C 0 km/h
1723 05-09-2011 08:49:01 14.3 C 7.37 g/m*3 14.3 C 0 km/h
1724 05-09-2011 09:01:02 14.1 C 7.52 g/m*3 14.1 C 0 km/h
1725 05-09-2011 09:13:02 14.2 C 7.69 g/m*3 14.2 C 0 km/h
Sensor: Nr:Datum:Temp:Abs-Feuchte:Windchill:Wind:
Aussen-T/F 1726 05-09-2011 09:25:01 14.8 C 7.6 g/m*3 14.8 C 0 km/h
1727 05-09-2011 09:37:01 14.8 C 7.98 g/m*3 14.8 C 0 km/h
1728 05-09-2011 09:49:01 15.4 C 7.75 g/m*3 15.4 C 0 km/h
1729 05-09-2011 10:01:01 16 C 7.49 g/m*3 16 C 0 km/h
1730 05-09-2011 10:13:01 16.2 C 7.58 g/m*3 16.2 C 0 km/h
1731 05-09-2011 10:25:02 16.6 C 7.49 g/m*3 16.6 C 0 km/h
1732 05-09-2011 10:37:01 17.1 C 7.42 g/m*3 17.1 C 0 km/h
1733 05-09-2011 10:49:03 17.6 C 7.05 g/m*3 17.6 C 0 km/h
1734 05-09-2011 11:01:02 17.5 C 7.16 g/m*3 17.5 C 0 km/h
1735 05-09-2011 11:13:02 17.7 C 6.94 g/m*3 17.7 C 0 km/h
1736 05-09-2011 11:25:02 18.2 C 6.99 g/m*3 18.2 C 0 km/h
1737 05-09-2011 11:37:02 18.5 C 7.12 g/m*3 18.5 C 0 km/h
1738 05-09-2011 11:49:02 18.5 C 7.12 g/m*3 18.5 C 0 km/h
1739 05-09-2011 12:01:01 19.3 C 7.13 g/m*3 19.3 C 0 km/h
1740 05-09-2011 12:13:01 19.3 C 7.3 g/m*3 19.3 C 0 km/h
1741 05-09-2011 12:25:02 19.1 C 7.05 g/m*3 19.1 C 0 km/h
1742 05-09-2011 12:37:02 19.1 C 7.05 g/m*3 19.1 C 0 km/h
1743 05-09-2011 12:49:02 19.7 C 7.3 g/m*3 19.7 C 0 km/h
1744 05-09-2011 13:01:02 20 C 7.09 g/m*3 20 C 0 km/h
1745 05-09-2011 13:13:02 19.3 C 6.97 g/m*3 19.3 C 0 km/h
1746 05-09-2011 13:25:02 20.3 C 7.03 g/m*3 20.3 C 0 km/h
1747 05-09-2011 13:37:02 19.6 C 6.75 g/m*3 19.6 C 0 km/h
1748 05-09-2011 13:49:01 21.2 C 6.67 g/m*3 21.2 C 0 km/h
1749 05-09-2011 14:01:02 20.4 C 7.08 g/m*3 20.4 C 0 km/h
1750 05-09-2011 14:13:03 20.2 C 6.29 g/m*3 20.2 C 0 km/h
Sensor: Nr:Datum:Temp:Abs-Feuchte:Windchill:Wind:
Aussen-T/F 1751 05-09-2011 14:25:01 21.2 C 6.12 g/m*3 21.2 C 0 km/h
1752 05-09-2011 14:37:01 22 C 5.82 g/m*3 22 C 0 km/h
1753 05-09-2011 14:49:01 21.9 C 6.18 g/m*3 21.9 C 0 km/h
1754 05-09-2011 15:01:01 20.4 C 6.37 g/m*3 20.4 C 0 km/h
1755 05-09-2011 15:13:01 20.3 C 7.21 g/m*3 20.3 C 0 km/h
1756 05-09-2011 15:25:02 19.3 C 6.97 g/m*3 19.3 C 0 km/h
1757 05-09-2011 15:37:01 19.2 C 5.94 g/m*3 19.2 C 0 km/h
1758 05-09-2011 15:49:03 19.8 C 6.32 g/m*3 19.8 C 0 km/h
1759 05-09-2011 16:01:02 22.4 C 5.96 g/m*3 22.4 C 0 km/h
1760 05-09-2011 16:13:02 20.9 C 6.01 g/m*3 20.9 C 0 km/h
1761 05-09-2011 16:25:02 22.7 C 5.66 g/m*3 22.7 C 0 km/h
1762 05-09-2011 16:37:02 22.8 C 5.28 g/m*3 22.8 C 0 km/h
1763 05-09-2011 16:49:02 22.9 C 5.11 g/m*3 22.9 C 0 km/h
1764 05-09-2011 17:01:02 23.2 C 5.2 g/m*3 23.2 C 0 km/h
1765 05-09-2011 17:13:02 22.7 C 5.05 g/m*3 22.7 C 0 km/h
1766 05-09-2011 17:25:02 22.4 C 4.96 g/m*3 22.4 C 0 km/h
1767 05-09-2011 17:37:02 23.9 C 5.41 g/m*3 23.9 C 0 km/h
1768 05-09-2011 17:49:02 23.3 C 4.81 g/m*3 23.3 C 0 km/h
1769 05-09-2011 18:01:02 22.7 C 5.05 g/m*3 22.7 C 0 km/h
1770 05-09-2011 18:13:02 22.6 C 5.22 g/m*3 22.6 C 0 km/h
1771 05-09-2011 18:25:01 22.4 C 4.96 g/m*3 22.4 C 0 km/h
1772 05-09-2011 18:37:02 21.9 C 5.02 g/m*3 21.9 C 0 km/h
1773 05-09-2011 18:49:02 19.7 C 5.26 g/m*3 19.7 C 0 km/h
1774 05-09-2011 19:01:02 20.9 C 5.1 g/m*3 20.9 C 0 km/h
1775 05-09-2011 19:13:02 19.8 C 5.12 g/m*3 19.8 C 0 km/h
Sensor: Nr:Datum:Temp:Abs-Feuchte:Windchill:Wind:
Aussen-T/F 1776 05-09-2011 19:25:01 19.3 C 5.31 g/m*3 19.3 C 0 km/h
1777 05-09-2011 19:37:02 18.9 C 5.67 g/m*3 18.9 C 0 km/h
1778 05-09-2011 19:49:02 17.9 C 5.95 g/m*3 17.9 C 0 km/h
1779 05-09-2011 20:01:02 17.7 C 5.88 g/m*3 17.7 C 0 km/h
1780 05-09-2011 20:13:02 16.8 C 6.15 g/m*3 16.8 C 0 km/h
1781 05-09-2011 20:25:01 17.1 C 5.97 g/m*3 17.1 C 0 km/h
1782 05-09-2011 20:37:02 17.5 C 6.11 g/m*3 17.5 C 0 km/h
1783 05-09-2011 20:49:02 17 C 6.08 g/m*3 17 C 0 km/h
1784 05-09-2011 21:01:02 16.6 C 6.22 g/m*3 16.6 C 0 km/h
1785 05-09-2011 21:13:02 16.8 C 6 g/m*3 16.8 C 0 km/h
1786 05-09-2011 21:25:02 16.7 C 5.83 g/m*3 16.7 C 0 km/h
1787 05-09-2011 21:37:03 16.4 C 5.86 g/m*3 16.4 C 0 km/h
1788 05-09-2011 21:49:02 15.9 C 6.09 g/m*3 15.9 C 0 km/h
1789 05-09-2011 22:01:02 15.1 C 6.19 g/m*3 15.1 C 0 km/h
1790 05-09-2011 22:13:02 14.4 C 6.43 g/m*3 14.4 C 0 km/h
1791 05-09-2011 22:26:01 14.1 C 6.67 g/m*3 14.1 C 0 km/h
1792 05-09-2011 22:38:01 15 C 6.54 g/m*3 15 C 0 km/h
1793 05-09-2011 22:50:01 14.6 C 6.63 g/m*3 14.6 C 0 km/h
1794 05-09-2011 23:02:01 14.5 C 6.72 g/m*3 14.5 C 0 km/h
1795 05-09-2011 23:14:01 14 C 6.75 g/m*3 14 C 0 km/h
1796 05-09-2011 23:26:02 13.5 C 7.13 g/m*3 13.5 C 0 km/h
1797 05-09-2011 23:38:02 13.7 C 7.34 g/m*3 13.7 C 0 km/h
1798 05-09-2011 23:50:02 13.8 C 7.51 g/m*3 13.8 C 0 km/h
1799 06-09-2011 00:02:02 12.9 C 7.44 g/m*3 12.9 C 0 km/h
1800 06-09-2011 00:14:02 12.5 C 7.7 g/m*3 12.5 C 0 km/h
Sensor: Nr:Datum:Temp:Abs-Feuchte:Windchill:Wind:
Aussen-T/F 1801 06-09-2011 00:26:02 12.5 C 7.81 g/m*3 12.5 C 0 km/h
1802 06-09-2011 00:38:02 13 C 7.83 g/m*3 13 C 0 km/h
1803 06-09-2011 00:50:02 12.7 C 7.79 g/m*3 12.7 C 0 km/h
1804 06-09-2011 01:02:02 12.6 C 7.97 g/m*3 12.6 C 0 km/h
1805 06-09-2011 01:14:02 12.1 C 7.72 g/m*3 12.1 C 0 km/h
1806 06-09-2011 01:26:02 11.6 C 7.69 g/m*3 11.6 C 0 km/h
1807 06-09-2011 01:38:02 11.3 C 7.75 g/m*3 11.3 C 0 km/h
1808 06-09-2011 01:50:02 11.3 C 7.85 g/m*3 11.3 C 0 km/h
1809 06-09-2011 02:02:02 11.1 C 7.86 g/m*3 11.1 C 0 km/h
1810 06-09-2011 02:14:02 11.4 C 8.11 g/m*3 11.4 C 0 km/h
1811 06-09-2011 02:26:02 11.7 C 8.05 g/m*3 11.7 C 0 km/h
1812 06-09-2011 02:38:02 11.9 C 7.94 g/m*3 11.9 C 0 km/h
1813 06-09-2011 02:50:02 12 C 7.89 g/m*3 12 C 0 km/h
1814 06-09-2011 03:02:02 12 C 7.89 g/m*3 12 C 0 km/h
1815 06-09-2011 03:14:02 11.5 C 7.85 g/m*3 11.5 C 0 km/h
1816 06-09-2011 03:26:02 11.2 C 8.01 g/m*3 11.2 C 0 km/h
1817 06-09-2011 03:38:02 11.2 C 8.11 g/m*3 11.2 C 0 km/h
1818 06-09-2011 03:50:02 12 C 8.53 g/m*3 12 C 0 km/h
1819 06-09-2011 04:02:03 12.2 C 8.31 g/m*3 12.2 C 0 km/h
1820 06-09-2011 04:14:03 11.9 C 8.37 g/m*3 11.9 C 0 km/h
1821 06-09-2011 04:26:03 11.6 C 8.21 g/m*3 11.6 C 0 km/h
1822 06-09-2011 04:38:03 11.5 C 8.26 g/m*3 11.5 C 0 km/h
1823 06-09-2011 04:50:03 11.3 C 8.16 g/m*3 11.3 C 0 km/h
1824 06-09-2011 05:02:03 11.5 C 8.37 g/m*3 11.5 C 0 km/h
1825 06-09-2011 05:14:03 11.6 C 8.32 g/m*3 11.6 C 0 km/h
Sensor: Nr:Datum:Temp:Abs-Feuchte:Windchill:Wind:
Aussen-T/F 1826 06-09-2011 05:26:03 11.8 C 8.42 g/m*3 11.8 C 0 km/h
1827 06-09-2011 05:38:03 11.7 C 8.26 g/m*3 11.7 C 0 km/h
1828 06-09-2011 05:50:03 11.4 C 8.21 g/m*3 11.4 C 0 km/h
1829 06-09-2011 06:02:03 11.4 C 8.31 g/m*3 11.4 C 0 km/h
1830 06-09-2011 06:14:03 11.4 C 8.31 g/m*3 11.4 C 0 km/h
1831 06-09-2011 06:26:03 11.4 C 8.31 g/m*3 11.4 C 0 km/h
1832 06-09-2011 06:38:03 11.1 C 8.16 g/m*3 11.1 C 0 km/h
1833 06-09-2011 06:50:03 11.1 C 8.26 g/m*3 11.1 C 0 km/h
1834 06-09-2011 07:02:02 11 C 8.21 g/m*3 11 C 0 km/h
1835 06-09-2011 07:14:02 10.9 C 8.16 g/m*3 10.9 C 0 km/h
1836 06-09-2011 07:26:01 10.8 C 8.2 g/m*3 10.8 C 0 km/h
1837 06-09-2011 07:38:02 10.8 C 8.2 g/m*3 10.8 C 0 km/h
1838 06-09-2011 07:50:02 10.8 C 8.3 g/m*3 10.8 C 0 km/h
1839 06-09-2011 08:02:02 10.8 C 8.3 g/m*3 10.8 C 0 km/h
1840 06-09-2011 08:14:02 11.2 C 8.51 g/m*3 11.2 C 0 km/h
1841 06-09-2011 08:26:02 11.3 C 8.57 g/m*3 11.3 C 0 km/h
1842 06-09-2011 08:38:03 11.6 C 8.73 g/m*3 11.6 C 0 km/h
1843 06-09-2011 08:50:02 11.9 C 8.9 g/m*3 11.9 C 0 km/h
1844 06-09-2011 09:02:02 12.1 C 8.9 g/m*3 12.1 C 0 km/h
1845 06-09-2011 09:14:02 12.7 C 8.79 g/m*3 12.7 C 0 km/h
1846 06-09-2011 09:26:02 13.3 C 8.43 g/m*3 13.3 C 0 km/h
1847 06-09-2011 09:38:02 14.7 C 8.44 g/m*3 14.7 C 0 km/h
1848 06-09-2011 09:50:01 15.6 C 7.58 g/m*3 15.6 C 0 km/h
1849 06-09-2011 10:02:02 16 C 7.36 g/m*3 16 C 0 km/h
1850 06-09-2011 10:14:02 16.6 C 7.06 g/m*3 16.6 C 0 km/h
Sensor: Nr:Datum:Temp:Abs-Feuchte:Windchill:Wind:
Aussen-T/F 1851 06-09-2011 10:26:01 16.6 C 7.06 g/m*3 16.6 C 0 km/h
1852 06-09-2011 10:38:02 16.8 C 7.01 g/m*3 16.8 C 0 km/h
1853 06-09-2011 10:50:02 16.8 C 7.01 g/m*3 16.8 C 0 km/h
1854 06-09-2011 11:02:02 17.4 C 6.97 g/m*3 17.4 C 0 km/h
1855 06-09-2011 11:14:02 18.1 C 6.95 g/m*3 18.1 C 0 km/h
1856 06-09-2011 11:26:02 17.8 C 6.68 g/m*3 17.8 C 0 km/h
1857 06-09-2011 11:38:02 17.9 C 6.72 g/m*3 17.9 C 0 km/h
1858 06-09-2011 11:50:02 18.2 C 6.53 g/m*3 18.2 C 0 km/h
1859 06-09-2011 12:02:02 18.8 C 6.6 g/m*3 18.8 C 0 km/h
1860 06-09-2011 12:14:02 18.8 C 6.6 g/m*3 18.8 C 0 km/h
1861 06-09-2011 12:26:03 19.6 C 6.92 g/m*3 19.6 C 0 km/h
1862 06-09-2011 12:38:02 19 C 6.36 g/m*3 19 C 0 km/h
1863 06-09-2011 12:50:03 20.1 C 6.61 g/m*3 20.1 C 0 km/h
1864 06-09-2011 13:02:02 19.5 C 6.55 g/m*3 19.5 C 0 km/h
1865 06-09-2011 13:14:02 19.7 C 6.62 g/m*3 19.7 C 0 km/h
1866 06-09-2011 13:26:02 20.1 C 6.61 g/m*3 20.1 C 0 km/h
1867 06-09-2011 13:38:02 19.8 C 6.66 g/m*3 19.8 C 0 km/h
1868 06-09-2011 13:50:02 20.7 C 7.02 g/m*3 20.7 C 0 km/h
1869 06-09-2011 14:02:02 21.4 C 6.94 g/m*3 21.4 C 0 km/h
1870 06-09-2011 14:14:02 21.1 C 6.63 g/m*3 21.1 C 0 km/h
1871 06-09-2011 14:26:02 20.8 C 6.52 g/m*3 20.8 C 0 km/h
1872 06-09-2011 14:38:03 20.7 C 6.48 g/m*3 20.7 C 0 km/h
1873 06-09-2011 14:50:02 20.3 C 6.33 g/m*3 20.3 C 0 km/h
1874 06-09-2011 15:02:02 21 C 6.59 g/m*3 21 C 0 km/h
1875 06-09-2011 15:14:02 21.2 C 6.49 g/m*3 21.2 C 0 km/h
Sensor: Nr:Datum:Temp:Abs-Feuchte:Windchill:Wind:
Aussen-T/F 1876 06-09-2011 15:26:02 20.8 C 6.7 g/m*3 20.8 C 0 km/h
1877 06-09-2011 15:38:02 20.1 C 6.43 g/m*3 20.1 C 0 km/h
1878 06-09-2011 15:50:01 19.8 C 6.49 g/m*3 19.8 C 0 km/h
1879 06-09-2011 16:02:02 19.7 C 6.79 g/m*3 19.7 C 0 km/h
1880 06-09-2011 16:14:02 19.4 C 6.67 g/m*3 19.4 C 0 km/h
1881 06-09-2011 16:26:01 19.4 C 6.67 g/m*3 19.4 C 0 km/h
1882 06-09-2011 16:38:02 19.4 C 6.67 g/m*3 19.4 C 0 km/h
1883 06-09-2011 16:50:01 19.5 C 7.05 g/m*3 19.5 C 0 km/h
1884 06-09-2011 17:02:02 19.2 C 6.76 g/m*3 19.2 C 0 km/h
1885 06-09-2011 17:14:02 19.5 C 7.22 g/m*3 19.5 C 0 km/h
1886 06-09-2011 17:26:02 19.3 C 6.8 g/m*3 19.3 C 0 km/h
1887 06-09-2011 17:38:02 19.2 C 6.93 g/m*3 19.2 C 0 km/h
1888 06-09-2011 17:50:02 19.1 C 6.72 g/m*3 19.1 C 0 km/h
1889 06-09-2011 18:02:02 18.7 C 7.04 g/m*3 18.7 C 0 km/h
1890 06-09-2011 18:14:02 18.5 C 7.12 g/m*3 18.5 C 0 km/h
1891 06-09-2011 18:26:02 18.2 C 7.31 g/m*3 18.2 C 0 km/h
1892 06-09-2011 18:38:03 18.3 C 7.19 g/m*3 18.3 C 0 km/h
1893 06-09-2011 18:50:02 18.5 C 7.28 g/m*3 18.5 C 0 km/h
1894 06-09-2011 19:02:02 18.3 C 7.19 g/m*3 18.3 C 0 km/h
1895 06-09-2011 19:14:02 18.3 C 7.19 g/m*3 18.3 C 0 km/h
1896 06-09-2011 19:26:02 18.2 C 7.31 g/m*3 18.2 C 0 km/h
1897 06-09-2011 19:38:02 18.2 C 7.31 g/m*3 18.2 C 0 km/h
1898 06-09-2011 19:50:02 18.2 C 7.15 g/m*3 18.2 C 0 km/h
1899 06-09-2011 20:02:02 17.8 C 7.59 g/m*3 17.8 C 0 km/h
1900 06-09-2011 20:14:02 18 C 7.22 g/m*3 18 C 0 km/h
Sensor: Nr:Datum:Temp:Abs-Feuchte:Windchill:Wind:
Aussen-T/F 1901 06-09-2011 20:26:02 17.9 C 7.63 g/m*3 17.9 C 0 km/h
1902 06-09-2011 20:38:03 17.8 C 7.59 g/m*3 17.8 C 0 km/h
1903 06-09-2011 20:50:02 18 C 7.37 g/m*3 18 C 0 km/h
1904 06-09-2011 21:02:02 17.9 C 7.63 g/m*3 17.9 C 0 km/h
1905 06-09-2011 21:14:02 17.7 C 7.69 g/m*3 17.7 C 0 km/h
1906 06-09-2011 21:26:02 17.6 C 7.65 g/m*3 17.6 C 0 km/h
1907 06-09-2011 21:38:02 18.1 C 7.42 g/m*3 18.1 C 0 km/h
1908 06-09-2011 21:50:02 18.5 C 7.44 g/m*3 18.5 C 0 km/h
1909 06-09-2011 22:02:02 18.5 C 7.44 g/m*3 18.5 C 0 km/h
1910 06-09-2011 22:14:02 18.6 C 7.48 g/m*3 18.6 C 0 km/h
1911 06-09-2011 22:27:02 18.8 C 7.57 g/m*3 18.8 C 0 km/h
1912 06-09-2011 22:39:02 18.9 C 7.45 g/m*3 18.9 C 0 km/h
1913 06-09-2011 22:51:02 19.1 C 7.54 g/m*3 19.1 C 0 km/h
1914 06-09-2011 23:03:02 19.1 C 7.54 g/m*3 19.1 C 0 km/h
1915 06-09-2011 23:15:02 19 C 7.5 g/m*3 19 C 0 km/h
1916 06-09-2011 23:27:02 19.1 C 7.54 g/m*3 19.1 C 0 km/h
1917 06-09-2011 23:39:02 19 C 7.5 g/m*3 19 C 0 km/h
1918 06-09-2011 23:51:02 19.1 C 7.54 g/m*3 19.1 C 0 km/h
1919 07-09-2011 00:03:02 19.1 C 7.7 g/m*3 19.1 C 0 km/h
1920 07-09-2011 00:15:02 19.1 C 7.7 g/m*3 19.1 C 0 km/h
1921 07-09-2011 00:27:03 19.1 C 7.7 g/m*3 19.1 C 0 km/h
1922 07-09-2011 00:39:03 19.1 C 7.87 g/m*3 19.1 C 0 km/h
1923 07-09-2011 00:51:03 19.1 C 7.87 g/m*3 19.1 C 0 km/h
1924 07-09-2011 01:03:03 19 C 7.82 g/m*3 19 C 0 km/h
1925 07-09-2011 01:15:03 18.3 C 8.29 g/m*3 18.3 C 0 km/h
Sensor: Nr:Datum:Temp:Abs-Feuchte:Windchill:Wind:
Aussen-T/F 1926 07-09-2011 01:27:03 18.3 C 8.44 g/m*3 18.3 C 0 km/h
1927 07-09-2011 01:39:03 18 C 8.45 g/m*3 18 C 0 km/h
1928 07-09-2011 01:51:03 17.9 C 8.7 g/m*3 17.9 C 0 km/h
1929 07-09-2011 02:03:03 17.4 C 8.89 g/m*3 17.4 C 0 km/h
1930 07-09-2011 02:15:03 16.4 C 9.21 g/m*3 16.4 C 0 km/h
1931 07-09-2011 02:27:03 15.7 C 9.9 g/m*3 15.7 C 0 km/h
1932 07-09-2011 02:39:03 15.6 C 10.24 g/m*3 15.6 C 0 km/h
1933 07-09-2011 02:51:03 15.4 C 10.25 g/m*3 15.4 C 0 km/h
1934 07-09-2011 03:03:03 15.4 C 10.38 g/m*3 15.4 C 0 km/h
1935 07-09-2011 03:15:03 15.4 C 10.38 g/m*3 15.4 C 0 km/h
1936 07-09-2011 03:27:03 15.8 C 10.5 g/m*3 15.8 C 0 km/h
1937 07-09-2011 03:39:03 15.8 C 10.23 g/m*3 15.8 C 0 km/h
1938 07-09-2011 03:51:03 15.4 C 10.38 g/m*3 15.4 C 0 km/h
1939 07-09-2011 04:03:03 15.9 C 10.56 g/m*3 15.9 C 0 km/h
1940 07-09-2011 04:15:03 15.8 C 10.5 g/m*3 15.8 C 0 km/h
1941 07-09-2011 04:27:03 15.9 C 10.43 g/m*3 15.9 C 0 km/h
1942 07-09-2011 04:39:03 15.7 C 10.3 g/m*3 15.7 C 0 km/h
1943 07-09-2011 04:51:04 15.7 C 10.44 g/m*3 15.7 C 0 km/h
1944 07-09-2011 05:03:04 15.7 C 10.44 g/m*3 15.7 C 0 km/h
1945 07-09-2011 05:15:04 16 C 10.35 g/m*3 16 C 0 km/h
1946 07-09-2011 05:27:04 15.6 C 10.37 g/m*3 15.6 C 0 km/h
1947 07-09-2011 05:39:04 15.3 C 10.58 g/m*3 15.3 C 0 km/h
1948 07-09-2011 05:51:04 15 C 10.77 g/m*3 15 C 0 km/h
1949 07-09-2011 06:03:04 14.4 C 9.89 g/m*3 14.4 C 0 km/h
1950 07-09-2011 06:15:04 14 C 8.68 g/m*3 14 C 0 km/h
Sensor: Nr:Datum:Temp:Abs-Feuchte:Windchill:Wind:
Aussen-T/F 1951 07-09-2011 06:27:04 14.1 C 8.37 g/m*3 14.1 C 0 km/h
1952 07-09-2011 06:39:04 13.9 C 8.63 g/m*3 13.9 C 0 km/h
1953 07-09-2011 06:51:04 13.4 C 8.95 g/m*3 13.4 C 0 km/h
1954 07-09-2011 07:03:03 13.3 C 9.01 g/m*3 13.3 C 0 km/h
1955 07-09-2011 07:15:03 13.6 C 8.83 g/m*3 13.6 C 0 km/h
1956 07-09-2011 07:27:03 13.5 C 8.66 g/m*3 13.5 C 0 km/h
1957 07-09-2011 07:39:02 13.3 C 8.78 g/m*3 13.3 C 0 km/h
1958 07-09-2011 07:51:01 13.2 C 9.07 g/m*3 13.2 C 0 km/h
1959 07-09-2011 08:03:02 13.5 C 9.12 g/m*3 13.5 C 0 km/h
1960 07-09-2011 08:15:01 13.8 C 8.7 g/m*3 13.8 C 0 km/h
1961 07-09-2011 08:27:01 14.1 C 8.5 g/m*3 14.1 C 0 km/h
1962 07-09-2011 08:39:02 14.3 C 8.23 g/m*3 14.3 C 0 km/h
1963 07-09-2011 08:51:02 14.2 C 8.18 g/m*3 14.2 C 0 km/h
1964 07-09-2011 09:03:02 14.4 C 8.03 g/m*3 14.4 C 0 km/h
1965 07-09-2011 09:15:02 14.6 C 7.88 g/m*3 14.6 C 0 km/h
1966 07-09-2011 09:27:02 14.8 C 7.6 g/m*3 14.8 C 0 km/h
1967 07-09-2011 09:39:02 14.9 C 7.9 g/m*3 14.9 C 0 km/h
1968 07-09-2011 09:51:01 14.9 C 8.03 g/m*3 14.9 C 0 km/h
1969 07-09-2011 10:03:02 14.9 C 8.16 g/m*3 14.9 C 0 km/h
1970 07-09-2011 10:15:02 14.9 C 8.28 g/m*3 14.9 C 0 km/h
1971 07-09-2011 10:27:02 14.8 C 8.11 g/m*3 14.8 C 0 km/h
1972 07-09-2011 10:39:02 15.5 C 8.06 g/m*3 15.5 C 0 km/h
1973 07-09-2011 10:51:02 15.7 C 8.16 g/m*3 15.7 C 0 km/h
1974 07-09-2011 11:03:01 15.6 C 8.11 g/m*3 15.6 C 0 km/h
1975 07-09-2011 11:15:02 15.4 C 7.49 g/m*3 15.4 C 0 km/h
Sensor: Nr:Datum:Temp:Abs-Feuchte:Windchill:Wind:
Aussen-T/F 1976 07-09-2011 11:27:03 16.1 C 6.31 g/m*3 16.1 C 0 km/h
1977 07-09-2011 11:39:01 16.6 C 6.64 g/m*3 16.6 C 0 km/h
1978 07-09-2011 11:51:02 16.2 C 6.9 g/m*3 16.2 C 0 km/h
1979 07-09-2011 12:03:01 16.6 C 6.36 g/m*3 16.6 C 0 km/h
1980 07-09-2011 12:15:01 16.8 C 6.15 g/m*3 16.8 C 0 km/h
1981 07-09-2011 12:27:01 17.4 C 6.22 g/m*3 17.4 C 0 km/h
1982 07-09-2011 12:39:02 17.5 C 5.96 g/m*3 17.5 C 0 km/h
1983 07-09-2011 12:51:02 17.5 C 6.11 g/m*3 17.5 C 0 km/h
1984 07-09-2011 13:03:02 17.8 C 6.07 g/m*3 17.8 C 0 km/h
1985 07-09-2011 13:15:02 17.5 C 6.11 g/m*3 17.5 C 0 km/h
1986 07-09-2011 13:27:02 17.7 C 6.79 g/m*3 17.7 C 0 km/h
1987 07-09-2011 13:39:02 17.9 C 6.41 g/m*3 17.9 C 0 km/h
1988 07-09-2011 13:51:02 19.3 C 6.47 g/m*3 19.3 C 0 km/h
1989 07-09-2011 14:03:03 18.1 C 6.03 g/m*3 18.1 C 0 km/h
1990 07-09-2011 14:15:02 18.5 C 6.33 g/m*3 18.5 C 0 km/h
1991 07-09-2011 14:27:02 18.5 C 6.01 g/m*3 18.5 C 0 km/h
1992 07-09-2011 14:39:02 17.9 C 6.11 g/m*3 17.9 C 0 km/h
1993 07-09-2011 14:51:01 18.1 C 6.18 g/m*3 18.1 C 0 km/h
1994 07-09-2011 15:03:02 18 C 6.14 g/m*3 18 C 0 km/h
1995 07-09-2011 15:15:01 20.5 C 6.05 g/m*3 20.5 C 0 km/h
1996 07-09-2011 15:27:01 18.7 C 6.08 g/m*3 18.7 C 0 km/h
1997 07-09-2011 15:39:01 18.5 C 6.33 g/m*3 18.5 C 0 km/h
1998 07-09-2011 15:51:01 18.3 C 5.79 g/m*3 18.3 C 0 km/h
1999 07-09-2011 16:03:01 18.4 C 6.13 g/m*3 18.4 C 0 km/h
2000 07-09-2011 16:15:02 19.2 C 6.1 g/m*3 19.2 C 0 km/h
Sensor: Nr:Datum:Temp:Abs-Feuchte:Windchill:Wind:
Aussen-T/F 2001 07-09-2011 16:27:02 19.1 C 6.39 g/m*3 19.1 C 0 km/h
2002 07-09-2011 16:39:01 19.2 C 6.27 g/m*3 19.2 C 0 km/h
2003 07-09-2011 16:51:02 19 C 6.03 g/m*3 19 C 0 km/h
2004 07-09-2011 17:03:01 18.4 C 5.98 g/m*3 18.4 C 0 km/h
2005 07-09-2011 17:15:01 18 C 5.99 g/m*3 18 C 0 km/h
2006 07-09-2011 17:27:01 17.8 C 6.53 g/m*3 17.8 C 0 km/h
2007 07-09-2011 17:39:01 18.1 C 6.18 g/m*3 18.1 C 0 km/h
2008 07-09-2011 17:51:02 18.2 C 5.91 g/m*3 18.2 C 0 km/h
2009 07-09-2011 18:03:02 18.1 C 6.03 g/m*3 18.1 C 0 km/h
2010 07-09-2011 18:15:02 18 C 5.99 g/m*3 18 C 0 km/h
2011 07-09-2011 18:27:02 17.8 C 6.22 g/m*3 17.8 C 0 km/h
2012 07-09-2011 18:39:02 17.4 C 6.82 g/m*3 17.4 C 0 km/h
2013 07-09-2011 18:51:02 17.3 C 6.48 g/m*3 17.3 C 0 km/h
2014 07-09-2011 19:03:02 17.5 C 6.11 g/m*3 17.5 C 0 km/h
2015 07-09-2011 19:15:02 17.2 C 6.3 g/m*3 17.2 C 0 km/h
2016 07-09-2011 19:27:02 16.9 C 6.62 g/m*3 16.9 C 0 km/h
2017 07-09-2011 19:39:02 16.5 C 6.74 g/m*3 16.5 C 0 km/h
2018 07-09-2011 19:51:02 16.6 C 6.78 g/m*3 16.6 C 0 km/h
2019 07-09-2011 20:03:02 16.9 C 6.62 g/m*3 16.9 C 0 km/h
2020 07-09-2011 20:15:02 17 C 6.66 g/m*3 17 C 0 km/h
2021 07-09-2011 20:27:02 16.5 C 6.88 g/m*3 16.5 C 0 km/h
2022 07-09-2011 20:39:02 16 C 7.22 g/m*3 16 C 0 km/h
2023 07-09-2011 20:51:03 15.8 C 7.4 g/m*3 15.8 C 0 km/h
2024 07-09-2011 21:03:02 15.7 C 7.49 g/m*3 15.7 C 0 km/h
2025 07-09-2011 21:15:03 15.7 C 7.49 g/m*3 15.7 C 0 km/h
Sensor: Nr:Datum:Temp:Abs-Feuchte:Windchill:Wind:
Aussen-T/F 2026 07-09-2011 21:27:03 15.4 C 7.62 g/m*3 15.4 C 0 km/h
2027 07-09-2011 21:39:03 15.2 C 7.79 g/m*3 15.2 C 0 km/h
2028 07-09-2011 21:51:01 15 C 7.82 g/m*3 15 C 0 km/h
2029 07-09-2011 22:03:01 15.4 C 7.75 g/m*3 15.4 C 0 km/h
2030 07-09-2011 22:16:00 15.4 C 7.62 g/m*3 15.4 C 0 km/h
2031 07-09-2011 22:28:00 15.8 C 7.27 g/m*3 15.8 C 0 km/h
2032 07-09-2011 22:40:00 15.7 C 7.36 g/m*3 15.7 C 0 km/h
2033 07-09-2011 22:52:00 15.6 C 7.05 g/m*3 15.6 C 0 km/h
2034 07-09-2011 23:04:00 15.4 C 7.09 g/m*3 15.4 C 0 km/h
2035 07-09-2011 23:16:00 15.4 C 7.09 g/m*3 15.4 C 0 km/h
2036 07-09-2011 23:28:00 15.4 C 7.23 g/m*3 15.4 C 0 km/h
2037 07-09-2011 23:40:00 15.2 C 7.14 g/m*3 15.2 C 0 km/h
2038 07-09-2011 23:52:00 15.5 C 7.14 g/m*3 15.5 C 0 km/h
2039 08-09-2011 00:04:00 15.5 C 7.01 g/m*3 15.5 C 0 km/h
2040 08-09-2011 00:16:00 15.5 C 7.01 g/m*3 15.5 C 0 km/h
2041 08-09-2011 00:28:00 15.5 C 7.01 g/m*3 15.5 C 0 km/h
2042 08-09-2011 00:40:00 15.5 C 7.01 g/m*3 15.5 C 0 km/h
2043 08-09-2011 00:52:01 15.4 C 6.96 g/m*3 15.4 C 0 km/h
2044 08-09-2011 01:04:01 15.4 C 7.09 g/m*3 15.4 C 0 km/h
2045 08-09-2011 01:16:01 15.3 C 7.05 g/m*3 15.3 C 0 km/h
2046 08-09-2011 01:28:01 15.1 C 7.1 g/m*3 15.1 C 0 km/h
2047 08-09-2011 01:40:01 15.1 C 6.97 g/m*3 15.1 C 0 km/h
2048 08-09-2011 01:52:01 14.9 C 7.14 g/m*3 14.9 C 0 km/h
2049 08-09-2011 02:04:01 14.8 C 7.22 g/m*3 14.8 C 0 km/h
2050 08-09-2011 02:16:01 14.7 C 7.18 g/m*3 14.7 C 0 km/h
Sensor: Nr:Datum:Temp:Abs-Feuchte:Windchill:Wind:
Aussen-T/F 2051 08-09-2011 02:28:01 14.7 C 7.3 g/m*3 14.7 C 0 km/h
2052 08-09-2011 02:40:01 14.6 C 7.38 g/m*3 14.6 C 0 km/h
2053 08-09-2011 02:52:01 14.6 C 7.51 g/m*3 14.6 C 0 km/h
2054 08-09-2011 03:04:01 14.6 C 7.51 g/m*3 14.6 C 0 km/h
2055 08-09-2011 03:16:01 14.5 C 7.71 g/m*3 14.5 C 0 km/h
2056 08-09-2011 03:28:01 14.6 C 7.76 g/m*3 14.6 C 0 km/h
2057 08-09-2011 03:40:01 14.5 C 7.59 g/m*3 14.5 C 0 km/h
2058 08-09-2011 03:52:01 14.5 C 7.46 g/m*3 14.5 C 0 km/h
2059 08-09-2011 04:04:01 14.3 C 7.62 g/m*3 14.3 C 0 km/h
2060 08-09-2011 04:16:01 14.2 C 7.57 g/m*3 14.2 C 0 km/h
2061 08-09-2011 04:28:01 14.4 C 7.66 g/m*3 14.4 C 0 km/h
2062 08-09-2011 04:40:01 14 C 7.6 g/m*3 14 C 0 km/h
2063 08-09-2011 04:52:01 14.4 C 7.91 g/m*3 14.4 C 0 km/h
2064 08-09-2011 05:04:02 14.2 C 7.82 g/m*3 14.2 C 0 km/h
2065 08-09-2011 05:16:02 14.1 C 7.77 g/m*3 14.1 C 0 km/h
2066 08-09-2011 05:28:02 14.2 C 7.82 g/m*3 14.2 C 0 km/h
2067 08-09-2011 05:40:02 14.4 C 7.66 g/m*3 14.4 C 0 km/h
2068 08-09-2011 05:52:02 14.4 C 7.66 g/m*3 14.4 C 0 km/h
2069 08-09-2011 06:04:02 14.4 C 7.66 g/m*3 14.4 C 0 km/h
2070 08-09-2011 06:16:02 14.4 C 7.54 g/m*3 14.4 C 0 km/h
2071 08-09-2011 06:28:02 14.4 C 7.54 g/m*3 14.4 C 0 km/h
2072 08-09-2011 06:40:02 14.1 C 7.65 g/m*3 14.1 C 0 km/h
2073 08-09-2011 06:52:02 14.1 C 7.65 g/m*3 14.1 C 0 km/h
2074 08-09-2011 07:04:02 13.6 C 7.77 g/m*3 13.6 C 0 km/h
2075 08-09-2011 07:16:02 13.8 C 7.74 g/m*3 13.8 C 0 km/h
Sensor: Nr:Datum:Temp:Abs-Feuchte:Windchill:Wind:
Aussen-T/F 2076 08-09-2011 07:28:02 13.9 C 7.67 g/m*3 13.9 C 0 km/h
2077 08-09-2011 07:40:02 13.9 C 7.79 g/m*3 13.9 C 0 km/h
2078 08-09-2011 07:52:02 14 C 7.6 g/m*3 14 C 0 km/h
2079 08-09-2011 08:04:01 13.9 C 7.67 g/m*3 13.9 C 0 km/h
2080 08-09-2011 08:16:00 14.1 C 7.65 g/m*3 14.1 C 0 km/h
2081 08-09-2011 08:28:00 14.2 C 7.69 g/m*3 14.2 C 0 km/h
2082 08-09-2011 08:40:00 14.3 C 7.74 g/m*3 14.3 C 0 km/h
2083 08-09-2011 08:52:01 14.3 C 7.74 g/m*3 14.3 C 0 km/h
2084 08-09-2011 09:04:01 14.4 C 7.66 g/m*3 14.4 C 0 km/h
2085 08-09-2011 09:16:01 14.4 C 7.66 g/m*3 14.4 C 0 km/h
2086 08-09-2011 09:28:01 14.5 C 7.71 g/m*3 14.5 C 0 km/h
2087 08-09-2011 09:40:00 14.5 C 7.71 g/m*3 14.5 C 0 km/h
2088 08-09-2011 09:52:02 14.6 C 7.63 g/m*3 14.6 C 0 km/h
2089 08-09-2011 10:04:01 14.6 C 7.63 g/m*3 14.6 C 0 km/h
2090 08-09-2011 10:16:01 14.9 C 7.77 g/m*3 14.9 C 0 km/h
2091 08-09-2011 10:28:01 15.1 C 7.61 g/m*3 15.1 C 0 km/h
2092 08-09-2011 10:40:01 15.2 C 7.66 g/m*3 15.2 C 0 km/h
2093 08-09-2011 10:52:02 15.4 C 7.62 g/m*3 15.4 C 0 km/h
2094 08-09-2011 11:04:01 15.8 C 7.67 g/m*3 15.8 C 0 km/h
2095 08-09-2011 11:16:01 15.8 C 7.67 g/m*3 15.8 C 0 km/h
2096 08-09-2011 11:28:01 15.9 C 7.58 g/m*3 15.9 C 0 km/h
2097 08-09-2011 11:40:01 15.8 C 7.67 g/m*3 15.8 C 0 km/h
2098 08-09-2011 11:52:02 16 C 7.49 g/m*3 16 C 0 km/h
2099 08-09-2011 12:04:02 15.9 C 7.58 g/m*3 15.9 C 0 km/h
2100 08-09-2011 12:16:01 15.8 C 7.54 g/m*3 15.8 C 0 km/h
Sensor: Nr:Datum:Temp:Abs-Feuchte:Windchill:Wind:
Aussen-T/F 2101 08-09-2011 12:28:01 16 C 7.49 g/m*3 16 C 0 km/h
2102 08-09-2011 12:40:01 16 C 7.49 g/m*3 16 C 0 km/h
2103 08-09-2011 12:52:02 15.9 C 7.45 g/m*3 15.9 C 0 km/h
2104 08-09-2011 13:04:02 15.5 C 7.8 g/m*3 15.5 C 0 km/h
2105 08-09-2011 13:16:02 15.2 C 7.92 g/m*3 15.2 C 0 km/h
2106 08-09-2011 13:28:02 16 C 7.9 g/m*3 16 C 0 km/h
2107 08-09-2011 13:40:01 16.3 C 7.63 g/m*3 16.3 C 0 km/h
2108 08-09-2011 13:52:01 16.1 C 7.4 g/m*3 16.1 C 0 km/h
2109 08-09-2011 14:04:02 16.5 C 7.58 g/m*3 16.5 C 0 km/h
2110 08-09-2011 14:16:02 16.4 C 7.54 g/m*3 16.4 C 0 km/h
2111 08-09-2011 14:28:02 16.8 C 7.58 g/m*3 16.8 C 0 km/h
2112 08-09-2011 14:40:02 16.6 C 7.63 g/m*3 16.6 C 0 km/h
2113 08-09-2011 14:52:02 16.3 C 7.63 g/m*3 16.3 C 0 km/h
2114 08-09-2011 15:04:01 16.9 C 7.77 g/m*3 16.9 C 0 km/h
2115 08-09-2011 15:16:02 17.2 C 7.61 g/m*3 17.2 C 0 km/h
2116 08-09-2011 15:28:02 17.2 C 7.61 g/m*3 17.2 C 0 km/h
2117 08-09-2011 15:40:02 16.8 C 7.72 g/m*3 16.8 C 0 km/h
2118 08-09-2011 15:52:01 16.9 C 7.77 g/m*3 16.9 C 0 km/h
2119 08-09-2011 16:04:02 16.8 C 7.86 g/m*3 16.8 C 0 km/h
2120 08-09-2011 16:16:01 16.8 C 7.86 g/m*3 16.8 C 0 km/h
2121 08-09-2011 16:28:01 16.8 C 7.86 g/m*3 16.8 C 0 km/h
2122 08-09-2011 16:40:02 16.8 C 7.72 g/m*3 16.8 C 0 km/h
2123 08-09-2011 16:52:02 16.9 C 7.77 g/m*3 16.9 C 0 km/h
2124 08-09-2011 17:04:02 16.8 C 7.86 g/m*3 16.8 C 0 km/h
2125 08-09-2011 17:16:02 16.7 C 7.82 g/m*3 16.7 C 0 km/h
Sensor: Nr:Datum:Temp:Abs-Feuchte:Windchill:Wind:
Aussen-T/F 2126 08-09-2011 17:28:02 16.6 C 7.91 g/m*3 16.6 C 0 km/h
2127 08-09-2011 17:40:02 16.7 C 7.82 g/m*3 16.7 C 0 km/h
2128 08-09-2011 17:52:02 16.5 C 7.86 g/m*3 16.5 C 0 km/h
2129 08-09-2011 18:04:01 16.5 C 7.86 g/m*3 16.5 C 0 km/h
2130 08-09-2011 18:16:01 16.4 C 7.82 g/m*3 16.4 C 0 km/h
2131 08-09-2011 18:28:01 16.4 C 7.82 g/m*3 16.4 C 0 km/h
2132 08-09-2011 18:40:02 16.4 C 7.96 g/m*3 16.4 C 0 km/h
2133 08-09-2011 18:52:02 16.2 C 8 g/m*3 16.2 C 0 km/h
2134 08-09-2011 19:04:02 16.2 C 8 g/m*3 16.2 C 0 km/h
2135 08-09-2011 19:16:02 16 C 8.04 g/m*3 16 C 0 km/h
2136 08-09-2011 19:28:02 14.7 C 8.44 g/m*3 14.7 C 0 km/h
2137 08-09-2011 19:40:17 14.4 C 8.78 g/m*3 14.4 C 0 km/h
2138 08-09-2011 19:52:02 14.5 C 8.95 g/m*3 14.5 C 0 km/h
2139 08-09-2011 20:04:02 14.7 C 8.81 g/m*3 14.7 C 0 km/h
2140 08-09-2011 20:16:02 15 C 8.72 g/m*3 15 C 0 km/h
2141 08-09-2011 20:28:02 15.3 C 8.75 g/m*3 15.3 C 0 km/h
2142 08-09-2011 20:40:02 15.5 C 8.59 g/m*3 15.5 C 0 km/h
2143 08-09-2011 20:52:02 15.5 C 8.59 g/m*3 15.5 C 0 km/h
2144 08-09-2011 21:04:02 15.8 C 8.62 g/m*3 15.8 C 0 km/h
2145 08-09-2011 21:16:02 15.8 C 8.48 g/m*3 15.8 C 0 km/h
2146 08-09-2011 21:28:02 15.8 C 8.48 g/m*3 15.8 C 0 km/h
2147 08-09-2011 21:40:03 15.9 C 8.53 g/m*3 15.9 C 0 km/h
2148 08-09-2011 21:52:02 16 C 8.31 g/m*3 16 C 0 km/h
2149 08-09-2011 22:04:02 15.9 C 8.4 g/m*3 15.9 C 0 km/h
2150 08-09-2011 22:16:03 16.1 C 8.36 g/m*3 16.1 C 0 km/h
Sensor: Nr:Datum:Temp:Abs-Feuchte:Windchill:Wind:
Aussen-T/F 2151 08-09-2011 22:28:03 16 C 8.31 g/m*3 16 C 0 km/h
2152 08-09-2011 22:41:03 16 C 8.45 g/m*3 16 C 0 km/h
2153 08-09-2011 22:53:03 16 C 8.45 g/m*3 16 C 0 km/h
2154 08-09-2011 23:05:03 15.9 C 8.53 g/m*3 15.9 C 0 km/h
2155 08-09-2011 23:17:03 15.8 C 8.62 g/m*3 15.8 C 0 km/h
2156 08-09-2011 23:29:03 15.8 C 8.75 g/m*3 15.8 C 0 km/h
2157 08-09-2011 23:41:04 15.5 C 8.72 g/m*3 15.5 C 0 km/h
2158 08-09-2011 23:53:04 15.4 C 8.93 g/m*3 15.4 C 0 km/h
2159 09-09-2011 00:05:04 15.6 C 9.04 g/m*3 15.6 C 0 km/h
2160 09-09-2011 00:17:04 15.7 C 9.1 g/m*3 15.7 C 0 km/h
2161 09-09-2011 00:29:04 15.8 C 9.15 g/m*3 15.8 C 0 km/h
2162 09-09-2011 00:41:04 15.6 C 9.18 g/m*3 15.6 C 0 km/h
2163 09-09-2011 00:53:04 15.5 C 9.12 g/m*3 15.5 C 0 km/h
2164 09-09-2011 01:05:04 15.4 C 9.2 g/m*3 15.4 C 0 km/h
2165 09-09-2011 01:17:04 15.7 C 9.37 g/m*3 15.7 C 0 km/h
2166 09-09-2011 01:29:04 15.7 C 9.37 g/m*3 15.7 C 0 km/h
2167 09-09-2011 01:41:04 15.9 C 9.34 g/m*3 15.9 C 0 km/h
2168 09-09-2011 01:53:04 15.8 C 9.42 g/m*3 15.8 C 0 km/h
2169 09-09-2011 02:05:04 15.9 C 9.48 g/m*3 15.9 C 0 km/h
2170 09-09-2011 02:17:04 15.9 C 9.48 g/m*3 15.9 C 0 km/h
2171 09-09-2011 02:29:04 15.9 C 9.48 g/m*3 15.9 C 0 km/h
2172 09-09-2011 02:41:04 15.8 C 9.56 g/m*3 15.8 C 0 km/h
2173 09-09-2011 02:53:04 16 C 9.54 g/m*3 16 C 0 km/h
2174 09-09-2011 03:05:04 16.2 C 9.52 g/m*3 16.2 C 0 km/h
2175 09-09-2011 03:17:04 16.3 C 9.57 g/m*3 16.3 C 0 km/h
Sensor: Nr:Datum:Temp:Abs-Feuchte:Windchill:Wind:
Aussen-T/F 2176 09-09-2011 03:29:04 16.2 C 9.52 g/m*3 16.2 C 0 km/h
2177 09-09-2011 03:41:04 15.9 C 9.75 g/m*3 15.9 C 0 km/h
2178 09-09-2011 03:53:05 15.9 C 9.89 g/m*3 15.9 C 0 km/h
2179 09-09-2011 04:05:05 15.8 C 9.83 g/m*3 15.8 C 0 km/h
2180 09-09-2011 04:17:05 15.4 C 9.99 g/m*3 15.4 C 0 km/h
2181 09-09-2011 04:29:05 15.1 C 10.19 g/m*3 15.1 C 0 km/h
2182 09-09-2011 04:41:05 15 C 10.39 g/m*3 15 C 0 km/h
2183 09-09-2011 04:53:05 14.9 C 10.58 g/m*3 14.9 C 0 km/h
2184 09-09-2011 05:05:05 14.8 C 10.64 g/m*3 14.8 C 0 km/h
2185 09-09-2011 05:17:05 14.8 C 10.77 g/m*3 14.8 C 0 km/h
2186 09-09-2011 05:29:05 14.6 C 10.64 g/m*3 14.6 C 0 km/h
2187 09-09-2011 05:41:05 14.7 C 10.83 g/m*3 14.7 C 0 km/h
2188 09-09-2011 05:53:05 14.8 C 10.89 g/m*3 14.8 C 0 km/h
2189 09-09-2011 06:05:05 14.6 C 10.89 g/m*3 14.6 C 0 km/h
2190 09-09-2011 06:17:05 14.5 C 10.82 g/m*3 14.5 C 0 km/h
2191 09-09-2011 06:29:05 14.7 C 10.95 g/m*3 14.7 C 0 km/h
2192 09-09-2011 06:41:05 14.8 C 11.02 g/m*3 14.8 C 0 km/h
2193 09-09-2011 06:53:05 14.8 C 11.15 g/m*3 14.8 C 0 km/h
2194 09-09-2011 07:05:05 14.8 C 11.15 g/m*3 14.8 C 0 km/h
2195 09-09-2011 07:17:05 15.1 C 11.22 g/m*3 15.1 C 0 km/h
2196 09-09-2011 07:29:05 15.1 C 11.22 g/m*3 15.1 C 0 km/h
2197 09-09-2011 07:41:04 15.3 C 11.36 g/m*3 15.3 C 0 km/h
2198 09-09-2011 07:53:02 15.4 C 11.43 g/m*3 15.4 C 0 km/h
2199 09-09-2011 08:05:03 15.6 C 11.57 g/m*3 15.6 C 0 km/h
2200 09-09-2011 08:17:02 16 C 11.72 g/m*3 16 C 0 km/h
Sensor: Nr:Datum:Temp:Abs-Feuchte:Windchill:Wind:
Aussen-T/F 2201 09-09-2011 08:29:02 16.3 C 11.65 g/m*3 16.3 C 0 km/h
2202 09-09-2011 08:41:03 16.5 C 11.51 g/m*3 16.5 C 0 km/h
2203 09-09-2011 08:53:02 16.8 C 11.44 g/m*3 16.8 C 0 km/h
2204 09-09-2011 09:05:02 17.2 C 11.42 g/m*3 17.2 C 0 km/h
2205 09-09-2011 09:17:02 18.1 C 11.28 g/m*3 18.1 C 0 km/h
2206 09-09-2011 09:29:02 18.1 C 11.12 g/m*3 18.1 C 0 km/h
2207 09-09-2011 09:41:02 18.3 C 11.26 g/m*3 18.3 C 0 km/h
2208 09-09-2011 09:53:01 18.5 C 11.23 g/m*3 18.5 C 0 km/h
2209 09-09-2011 10:05:01 18.7 C 11.21 g/m*3 18.7 C 0 km/h
2210 09-09-2011 10:17:02 19.2 C 11.05 g/m*3 19.2 C 0 km/h
2211 09-09-2011 10:29:02 19.3 C 10.95 g/m*3 19.3 C 0 km/h
2212 09-09-2011 10:41:01 20.6 C 10.92 g/m*3 20.6 C 0 km/h
2213 09-09-2011 10:53:02 20.7 C 10.8 g/m*3 20.7 C 0 km/h
2214 09-09-2011 11:05:01 20 C 10.37 g/m*3 20 C 0 km/h
2215 09-09-2011 11:17:02 19.9 C 10.65 g/m*3 19.9 C 0 km/h
2216 09-09-2011 11:29:02 19.8 C 10.76 g/m*3 19.8 C 0 km/h
2217 09-09-2011 11:41:02 19.3 C 10.78 g/m*3 19.3 C 0 km/h
2218 09-09-2011 11:53:02 18.8 C 11.11 g/m*3 18.8 C 0 km/h
2219 09-09-2011 12:05:02 18.9 C 11.5 g/m*3 18.9 C 0 km/h
2220 09-09-2011 12:17:01 19.3 C 11.61 g/m*3 19.3 C 0 km/h
2221 09-09-2011 12:29:01 19.9 C 12.03 g/m*3 19.9 C 0 km/h
2222 09-09-2011 12:41:02 20.3 C 11.43 g/m*3 20.3 C 0 km/h
2223 09-09-2011 12:53:02 20.5 C 11.39 g/m*3 20.5 C 0 km/h
2224 09-09-2011 13:05:02 20.8 C 11.23 g/m*3 20.8 C 0 km/h
2225 09-09-2011 13:17:02 20.7 C 11.34 g/m*3 20.7 C 0 km/h
Sensor: Nr:Datum:Temp:Abs-Feuchte:Windchill:Wind:
Aussen-T/F 2226 09-09-2011 13:29:02 19.9 C 11.85 g/m*3 19.9 C 0 km/h
2227 09-09-2011 13:41:02 19.1 C 11.97 g/m*3 19.1 C 0 km/h
2228 09-09-2011 13:53:01 19.2 C 12.2 g/m*3 19.2 C 0 km/h
2229 09-09-2011 14:05:02 20.1 C 12.52 g/m*3 20.1 C 0 km/h
2230 09-09-2011 14:17:36 21.4 C 12.19 g/m*3 21.4 C 0 km/h
2231 09-09-2011 14:29:36 21.8 C 12.28 g/m*3 21.8 C 0 km/h
2232 09-09-2011 14:41:02 22 C 12.42 g/m*3 22 C 0 km/h
2233 09-09-2011 14:53:02 22 C 12.23 g/m*3 22 C 0 km/h
2234 09-09-2011 15:05:02 22.1 C 11.91 g/m*3 22.1 C 0 km/h
2235 09-09-2011 15:17:02 22.7 C 12.12 g/m*3 22.7 C 0 km/h
2236 09-09-2011 15:29:02 24 C 11.75 g/m*3 24 C 0 km/h
2237 09-09-2011 15:41:02 22.8 C 11.99 g/m*3 22.8 C 0 km/h
2238 09-09-2011 15:53:01 22.6 C 12.46 g/m*3 22.6 C 0 km/h
2239 09-09-2011 16:05:02 22 C 12.23 g/m*3 22 C 0 km/h
2240 09-09-2011 16:17:01 22.4 C 12.31 g/m*3 22.4 C 0 km/h
2241 09-09-2011 16:29:01 22.8 C 12.4 g/m*3 22.8 C 0 km/h
2242 09-09-2011 16:41:02 23 C 12.33 g/m*3 23 C 0 km/h
2243 09-09-2011 16:53:02 22.9 C 12.26 g/m*3 22.9 C 0 km/h
2244 09-09-2011 17:05:02 22.9 C 12.47 g/m*3 22.9 C 0 km/h
2245 09-09-2011 17:17:02 22.7 C 12.53 g/m*3 22.7 C 0 km/h
2246 09-09-2011 17:29:02 22.5 C 12.98 g/m*3 22.5 C 0 km/h
2247 09-09-2011 17:41:02 21.6 C 13.09 g/m*3 21.6 C 0 km/h
2248 09-09-2011 17:53:02 21.4 C 13.69 g/m*3 21.4 C 0 km/h
2249 09-09-2011 18:05:02 21.7 C 13.93 g/m*3 21.7 C 0 km/h
2250 09-09-2011 18:17:02 22.2 C 13.74 g/m*3 22.2 C 0 km/h
Sensor: Nr:Datum:Temp:Abs-Feuchte:Windchill:Wind:
Aussen-T/F 2251 09-09-2011 18:29:03 22.5 C 13.38 g/m*3 22.5 C 0 km/h
2252 09-09-2011 18:41:02 22.1 C 13.47 g/m*3 22.1 C 0 km/h
2253 09-09-2011 18:53:02 21.2 C 13.34 g/m*3 21.2 C 0 km/h
2254 09-09-2011 19:05:01 20.6 C 13.6 g/m*3 20.6 C 0 km/h
2255 09-09-2011 19:17:02 20.4 C 13.98 g/m*3 20.4 C 0 km/h
2256 09-09-2011 19:29:02 20.2 C 14.16 g/m*3 20.2 C 0 km/h
2257 09-09-2011 19:41:02 20 C 14.17 g/m*3 20 C 0 km/h
2258 09-09-2011 19:53:01 19.8 C 14.35 g/m*3 19.8 C 0 km/h
2259 09-09-2011 20:05:02 19.7 C 14.26 g/m*3 19.7 C 0 km/h
2260 09-09-2011 20:17:01 19.5 C 14.27 g/m*3 19.5 C 0 km/h
2261 09-09-2011 20:29:01 19.4 C 14.18 g/m*3 19.4 C 0 km/h
2262 09-09-2011 20:41:02 19.2 C 14.18 g/m*3 19.2 C 0 km/h
2263 09-09-2011 20:53:01 19 C 14.01 g/m*3 19 C 0 km/h
2264 09-09-2011 21:05:02 18.9 C 14.09 g/m*3 18.9 C 0 km/h
2265 09-09-2011 21:17:01 19.1 C 14.1 g/m*3 19.1 C 0 km/h
2266 09-09-2011 21:29:01 19.2 C 14.35 g/m*3 19.2 C 0 km/h
2267 09-09-2011 21:41:02 19 C 14.18 g/m*3 19 C 0 km/h
2268 09-09-2011 21:53:01 18.9 C 14.09 g/m*3 18.9 C 0 km/h
2269 09-09-2011 22:05:02 18.9 C 14.26 g/m*3 18.9 C 0 km/h
2270 09-09-2011 22:17:02 18.7 C 14.09 g/m*3 18.7 C 0 km/h
2271 09-09-2011 22:29:02 18.6 C 14.01 g/m*3 18.6 C 0 km/h
2272 09-09-2011 22:41:02 18.3 C 13.76 g/m*3 18.3 C 0 km/h
2273 09-09-2011 22:53:02 18.4 C 13.84 g/m*3 18.4 C 0 km/h
2274 09-09-2011 23:05:02 18.4 C 13.84 g/m*3 18.4 C 0 km/h
2275 09-09-2011 23:18:47 18.6 C 14.01 g/m*3 18.6 C 0 km/h
Sensor: Nr:Datum:Temp:Abs-Feuchte:Windchill:Wind:
Aussen-T/F 2276 09-09-2011 23:30:47 18.5 C 13.92 g/m*3 18.5 C 0 km/h
2277 09-09-2011 23:42:47 18.4 C 13.84 g/m*3 18.4 C 0 km/h
2278 09-09-2011 23:54:47 18.1 C 13.6 g/m*3 18.1 C 0 km/h
2279 10-09-2011 00:06:47 18.2 C 13.68 g/m*3 18.2 C 0 km/h
2280 10-09-2011 00:18:47 18.1 C 13.6 g/m*3 18.1 C 0 km/h
2281 10-09-2011 00:30:47 18.3 C 13.76 g/m*3 18.3 C 0 km/h
2282 10-09-2011 00:42:47 18.3 C 13.76 g/m*3 18.3 C 0 km/h
2283 10-09-2011 00:54:47 18.4 C 13.84 g/m*3 18.4 C 0 km/h
2284 10-09-2011 01:06:47 18.2 C 13.68 g/m*3 18.2 C 0 km/h
2285 10-09-2011 01:18:47 18 C 13.52 g/m*3 18 C 0 km/h
2286 10-09-2011 01:30:47 17.9 C 13.59 g/m*3 17.9 C 0 km/h
2287 10-09-2011 01:42:47 17.9 C 13.59 g/m*3 17.9 C 0 km/h
2288 10-09-2011 01:54:47 17.6 C 13.35 g/m*3 17.6 C 0 km/h
2289 10-09-2011 02:06:47 17.1 C 12.96 g/m*3 17.1 C 0 km/h
2290 10-09-2011 02:18:48 17 C 12.73 g/m*3 17 C 0 km/h
2291 10-09-2011 02:30:48 17.3 C 13.11 g/m*3 17.3 C 0 km/h
2292 10-09-2011 02:42:48 17.6 C 13.35 g/m*3 17.6 C 0 km/h
2293 10-09-2011 02:54:48 17.7 C 13.43 g/m*3 17.7 C 0 km/h
2294 10-09-2011 03:06:48 17.7 C 13.43 g/m*3 17.7 C 0 km/h
2295 10-09-2011 03:18:48 17.7 C 13.43 g/m*3 17.7 C 0 km/h
2296 10-09-2011 03:30:48 17.8 C 13.51 g/m*3 17.8 C 0 km/h
2297 10-09-2011 03:42:48 17.8 C 13.51 g/m*3 17.8 C 0 km/h
2298 10-09-2011 03:54:48 17.8 C 13.51 g/m*3 17.8 C 0 km/h
2299 10-09-2011 04:06:48 17.7 C 13.43 g/m*3 17.7 C 0 km/h
2300 10-09-2011 04:18:48 17.5 C 13.27 g/m*3 17.5 C 0 km/h
Sensor: Nr:Datum:Temp:Abs-Feuchte:Windchill:Wind:
Aussen-T/F 2301 10-09-2011 04:30:48 17.5 C 13.27 g/m*3 17.5 C 0 km/h
2302 10-09-2011 04:42:48 17.5 C 13.27 g/m*3 17.5 C 0 km/h
2303 10-09-2011 04:54:48 17.5 C 13.27 g/m*3 17.5 C 0 km/h
2304 10-09-2011 05:06:48 17.4 C 13.19 g/m*3 17.4 C 0 km/h
2305 10-09-2011 05:18:48 17.4 C 13.19 g/m*3 17.4 C 0 km/h
2306 10-09-2011 05:30:48 17.5 C 13.27 g/m*3 17.5 C 0 km/h
2307 10-09-2011 05:42:48 17.6 C 13.5 g/m*3 17.6 C 0 km/h
2308 10-09-2011 05:54:48 17.6 C 13.5 g/m*3 17.6 C 0 km/h
2309 10-09-2011 06:06:48 17.6 C 13.5 g/m*3 17.6 C 0 km/h
2310 10-09-2011 06:18:49 17.6 C 13.5 g/m*3 17.6 C 0 km/h
2311 10-09-2011 06:30:49 17.6 C 13.5 g/m*3 17.6 C 0 km/h
2312 10-09-2011 06:42:49 17.5 C 13.42 g/m*3 17.5 C 0 km/h
2313 10-09-2011 06:54:49 17.5 C 13.42 g/m*3 17.5 C 0 km/h
2314 10-09-2011 07:06:49 17.4 C 13.34 g/m*3 17.4 C 0 km/h
2315 10-09-2011 07:18:49 17.4 C 13.34 g/m*3 17.4 C 0 km/h
2316 10-09-2011 07:30:49 17.4 C 13.34 g/m*3 17.4 C 0 km/h
2317 10-09-2011 07:42:49 17.5 C 13.42 g/m*3 17.5 C 0 km/h
2318 10-09-2011 07:54:02 17.5 C 13.42 g/m*3 17.5 C 0 km/h
2319 10-09-2011 08:06:01 17.5 C 13.42 g/m*3 17.5 C 0 km/h
2320 10-09-2011 08:18:01 17.4 C 13.34 g/m*3 17.4 C 0 km/h
2321 10-09-2011 08:30:01 17.4 C 13.34 g/m*3 17.4 C 0 km/h
2322 10-09-2011 08:42:01 17.6 C 13.5 g/m*3 17.6 C 0 km/h
2323 10-09-2011 08:54:02 17.9 C 13.74 g/m*3 17.9 C 0 km/h
2324 10-09-2011 09:06:03 18.3 C 13.92 g/m*3 18.3 C 0 km/h
2325 10-09-2011 09:18:02 19.2 C 14.51 g/m*3 19.2 C 0 km/h
Sensor: Nr:Datum:Temp:Abs-Feuchte:Windchill:Wind:
Aussen-T/F 2326 10-09-2011 09:30:02 19.7 C 15.11 g/m*3 19.7 C 0 km/h
2327 10-09-2011 09:42:02 19.8 C 15.2 g/m*3 19.8 C 0 km/h
2328 10-09-2011 09:54:01 19.9 C 15.12 g/m*3 19.9 C 0 km/h
2329 10-09-2011 10:06:02 19.6 C 14.52 g/m*3 19.6 C 0 km/h
2330 10-09-2011 10:18:01 19.6 C 14.35 g/m*3 19.6 C 0 km/h
2331 10-09-2011 10:30:01 19.3 C 13.93 g/m*3 19.3 C 0 km/h
2332 10-09-2011 10:42:01 19.2 C 14.02 g/m*3 19.2 C 0 km/h
2333 10-09-2011 10:54:01 19.3 C 14.1 g/m*3 19.3 C 0 km/h
2334 10-09-2011 11:06:02 19.7 C 14.6 g/m*3 19.7 C 0 km/h
2335 10-09-2011 11:18:02 19.7 C 14.6 g/m*3 19.7 C 0 km/h
2336 10-09-2011 11:30:02 20.1 C 14.95 g/m*3 20.1 C 0 km/h
2337 10-09-2011 11:42:01 20.4 C 15.21 g/m*3 20.4 C 0 km/h
2338 10-09-2011 11:54:02 20.8 C 15.21 g/m*3 20.8 C 0 km/h
2339 10-09-2011 12:06:01 20.8 C 15.21 g/m*3 20.8 C 0 km/h
2340 10-09-2011 12:18:02 21 C 15.02 g/m*3 21 C 0 km/h
2341 10-09-2011 12:30:03 21.7 C 15.07 g/m*3 21.7 C 0 km/h
2342 10-09-2011 12:42:01 21.7 C 14.69 g/m*3 21.7 C 0 km/h
2343 10-09-2011 12:54:02 22.1 C 14.45 g/m*3 22.1 C 0 km/h
2344 10-09-2011 13:06:02 22.5 C 14.18 g/m*3 22.5 C 0 km/h
2345 10-09-2011 13:18:02 22.9 C 13.9 g/m*3 22.9 C 0 km/h
2346 10-09-2011 13:30:02 23.4 C 13.46 g/m*3 23.4 C 0 km/h
2347 10-09-2011 13:42:02 23.8 C 13.34 g/m*3 23.8 C 0 km/h
2348 10-09-2011 13:54:02 25.2 C 13.04 g/m*3 25.2 C 0 km/h
2349 10-09-2011 14:06:03 24.9 C 13.51 g/m*3 24.9 C 0 km/h
2350 10-09-2011 14:18:03 24.9 C 13.73 g/m*3 24.9 C 0 km/h
Sensor: Nr:Datum:Temp:Abs-Feuchte:Windchill:Wind:
Aussen-T/F 2351 10-09-2011 14:30:03 25.5 C 13.02 g/m*3 25.5 C 0 km/h
2352 10-09-2011 14:42:03 26.5 C 13.27 g/m*3 26.5 C 0 km/h
2353 10-09-2011 14:54:02 27.1 C 12.94 g/m*3 27.1 C 0 km/h
2354 10-09-2011 15:06:02 28.3 C 12.72 g/m*3 28.3 C 0 km/h
2355 10-09-2011 15:18:01 30.3 C 12.33 g/m*3 30.3 C 0 km/h
2356 10-09-2011 15:30:01 28.3 C 14.1 g/m*3 28.3 C 0 km/h
2357 10-09-2011 15:42:01 29.9 C 12.06 g/m*3 29.9 C 0 km/h
2358 10-09-2011 15:54:01 29.4 C 13.21 g/m*3 29.4 C 0 km/h
2359 10-09-2011 16:06:01 30.1 C 13.11 g/m*3 30.1 C 0 km/h
2360 10-09-2011 16:18:01 30.9 C 12.41 g/m*3 30.9 C 0 km/h
2361 10-09-2011 16:30:01 30.1 C 13.42 g/m*3 30.1 C 0 km/h
2362 10-09-2011 16:42:01 29.4 C 12.33 g/m*3 29.4 C 0 km/h
2363 10-09-2011 16:54:02 30.6 C 12.84 g/m*3 30.6 C 0 km/h
2364 10-09-2011 17:06:02 29.7 C 13.43 g/m*3 29.7 C 0 km/h
2365 10-09-2011 17:18:02 28.7 C 14.41 g/m*3 28.7 C 0 km/h
2366 10-09-2011 17:30:02 28.6 C 14.89 g/m*3 28.6 C 0 km/h
2367 10-09-2011 17:42:02 28.4 C 14.18 g/m*3 28.4 C 0 km/h
2368 10-09-2011 17:54:02 27 C 15.18 g/m*3 27 C 0 km/h
2369 10-09-2011 18:06:02 27 C 15.44 g/m*3 27 C 0 km/h
2370 10-09-2011 18:18:02 27.2 C 15.09 g/m*3 27.2 C 0 km/h
2371 10-09-2011 18:30:02 25.6 C 15 g/m*3 25.6 C 0 km/h
2372 10-09-2011 18:42:02 25 C 14.96 g/m*3 25 C 0 km/h
2373 10-09-2011 18:54:02 24.7 C 15.16 g/m*3 24.7 C 0 km/h
2374 10-09-2011 19:06:02 24.5 C 14.99 g/m*3 24.5 C 0 km/h
2375 10-09-2011 19:18:01 24 C 15.01 g/m*3 24 C 0 km/h
Sensor: Nr:Datum:Temp:Abs-Feuchte:Windchill:Wind:
Aussen-T/F 2376 10-09-2011 19:30:01 23.5 C 15.23 g/m*3 23.5 C 0 km/h
2377 10-09-2011 19:42:02 22.9 C 15.12 g/m*3 22.9 C 0 km/h
2378 10-09-2011 19:54:59 22.3 C 15.01 g/m*3 22.3 C 0 km/h
2379 10-09-2011 20:06:52 22 C 14.94 g/m*3 22 C 0 km/h
2380 10-09-2011 20:18:43 21.8 C 15.16 g/m*3 21.8 C 0 km/h
2381 10-09-2011 20:30:32 21.4 C 14.81 g/m*3 21.4 C 0 km/h
2382 10-09-2011 20:42:32 21.1 C 14.74 g/m*3 21.1 C 0 km/h
2383 10-09-2011 20:54:53 21.1 C 14.92 g/m*3 21.1 C 0 km/h
2384 10-09-2011 21:06:45 20.7 C 14.76 g/m*3 20.7 C 0 km/h
2385 10-09-2011 21:18:34 20.7 C 14.76 g/m*3 20.7 C 0 km/h
2386 10-09-2011 21:30:24 20.6 C 14.86 g/m*3 20.6 C 0 km/h
2387 10-09-2011 21:42:24 20.4 C 14.68 g/m*3 20.4 C 0 km/h
2388 10-09-2011 21:54:47 20.4 C 14.68 g/m*3 20.4 C 0 km/h
2389 10-09-2011 22:06:53 20.3 C 14.77 g/m*3 20.3 C 0 km/h
2390 10-09-2011 22:18:46 20.1 C 14.6 g/m*3 20.1 C 0 km/h
2391 10-09-2011 22:30:39 20 C 14.52 g/m*3 20 C 0 km/h
2392 10-09-2011 22:42:39 20.1 C 14.6 g/m*3 20.1 C 0 km/h
2393 10-09-2011 22:54:59 20.1 C 14.6 g/m*3 20.1 C 0 km/h
2394 10-09-2011 23:06:52 19.9 C 14.6 g/m*3 19.9 C 0 km/h
2395 10-09-2011 23:18:44 19.7 C 14.43 g/m*3 19.7 C 0 km/h
2396 10-09-2011 23:30:38 19.7 C 14.43 g/m*3 19.7 C 0 km/h
2397 10-09-2011 23:42:38 19.6 C 14.35 g/m*3 19.6 C 0 km/h
2398 10-09-2011 23:54:01 19.7 C 14.6 g/m*3 19.7 C 0 km/h
2399 11-09-2011 00:06:58 19.6 C 14.52 g/m*3 19.6 C 0 km/h
2400 11-09-2011 00:18:56 19.6 C 14.52 g/m*3 19.6 C 0 km/h
Sensor: Nr:Datum:Temp:Abs-Feuchte:Windchill:Wind:
Aussen-T/F 2401 11-09-2011 00:30:49 19.8 C 14.69 g/m*3 19.8 C 0 km/h
2402 11-09-2011 00:42:49 19.6 C 14.52 g/m*3 19.6 C 0 km/h
2403 11-09-2011 00:54:00 19.5 C 14.43 g/m*3 19.5 C 0 km/h
2404 11-09-2011 01:06:57 19.2 C 14.02 g/m*3 19.2 C 0 km/h
2405 11-09-2011 01:18:58 19.1 C 13.93 g/m*3 19.1 C 0 km/h
2406 11-09-2011 01:30:57 19.2 C 14.18 g/m*3 19.2 C 0 km/h
2407 11-09-2011 01:42:57 19.6 C 14.35 g/m*3 19.6 C 0 km/h
2408 11-09-2011 01:54:00 19.6 C 14.18 g/m*3 19.6 C 0 km/h
2409 11-09-2011 02:06:00 19.7 C 14.26 g/m*3 19.7 C 0 km/h
2410 11-09-2011 02:18:00 19.9 C 14.26 g/m*3 19.9 C 0 km/h
2411 11-09-2011 02:30:00 20.1 C 13.73 g/m*3 20.1 C 0 km/h
2412 11-09-2011 02:42:59 20.4 C 13.44 g/m*3 20.4 C 0 km/h
2413 11-09-2011 02:54:01 20.4 C 13.44 g/m*3 20.4 C 0 km/h
2414 11-09-2011 03:06:01 20.4 C 13.44 g/m*3 20.4 C 0 km/h
2415 11-09-2011 03:18:02 20.4 C 13.27 g/m*3 20.4 C 0 km/h
2416 11-09-2011 03:30:02 20.2 C 13.29 g/m*3 20.2 C 0 km/h
2417 11-09-2011 03:43:01 20.2 C 13.29 g/m*3 20.2 C 0 km/h
2418 11-09-2011 03:55:02 20 C 13.13 g/m*3 20 C 0 km/h
2419 11-09-2011 04:07:01 19.8 C 13.49 g/m*3 19.8 C 0 km/h
2420 11-09-2011 04:19:01 19.7 C 13.41 g/m*3 19.7 C 0 km/h
2421 11-09-2011 04:31:02 19.5 C 13.26 g/m*3 19.5 C 0 km/h
2422 11-09-2011 04:43:02 20.2 C 13.11 g/m*3 20.2 C 0 km/h
2423 11-09-2011 04:55:01 19.7 C 13.08 g/m*3 19.7 C 0 km/h
2424 11-09-2011 05:07:02 19.5 C 13.09 g/m*3 19.5 C 0 km/h
2425 11-09-2011 05:19:01 19.7 C 13.25 g/m*3 19.7 C 0 km/h
Sensor: Nr:Datum:Temp:Abs-Feuchte:Windchill:Wind:
Aussen-T/F 2426 11-09-2011 05:31:01 19 C 13.04 g/m*3 19 C 0 km/h
2427 11-09-2011 05:43:01 19.2 C 13.03 g/m*3 19.2 C 0 km/h
2428 11-09-2011 05:55:01 19.1 C 12.79 g/m*3 19.1 C 0 km/h
2429 11-09-2011 06:07:01 18.5 C 12.66 g/m*3 18.5 C 0 km/h
2430 11-09-2011 06:19:01 18.1 C 12.67 g/m*3 18.1 C 0 km/h
2431 11-09-2011 06:31:01 17.9 C 12.83 g/m*3 17.9 C 0 km/h
2432 11-09-2011 06:43:01 18.1 C 12.82 g/m*3 18.1 C 0 km/h
2433 11-09-2011 06:55:01 17.9 C 12.83 g/m*3 17.9 C 0 km/h
2434 11-09-2011 07:07:01 18 C 12.9 g/m*3 18 C 0 km/h
2435 11-09-2011 07:19:02 18 C 12.9 g/m*3 18 C 0 km/h
2436 11-09-2011 07:31:01 18 C 12.9 g/m*3 18 C 0 km/h
2437 11-09-2011 07:43:01 17.8 C 12.9 g/m*3 17.8 C 0 km/h
2438 11-09-2011 07:55:02 17.7 C 12.82 g/m*3 17.7 C 0 km/h
2439 11-09-2011 08:07:01 17.7 C 12.98 g/m*3 17.7 C 0 km/h
2440 11-09-2011 08:19:01 17.7 C 12.98 g/m*3 17.7 C 0 km/h
2441 11-09-2011 08:31:02 17.6 C 12.9 g/m*3 17.6 C 0 km/h
2442 11-09-2011 08:43:02 17.7 C 12.98 g/m*3 17.7 C 0 km/h
2443 11-09-2011 08:55:01 17.9 C 13.13 g/m*3 17.9 C 0 km/h
2444 11-09-2011 09:07:02 18.1 C 13.29 g/m*3 18.1 C 0 km/h
2445 11-09-2011 09:19:01 19 C 13.85 g/m*3 19 C 0 km/h
2446 11-09-2011 09:31:01 19.5 C 14.27 g/m*3 19.5 C 0 km/h
2447 11-09-2011 09:43:02 19.6 C 14.18 g/m*3 19.6 C 0 km/h
2448 11-09-2011 09:55:01 21.3 C 12.86 g/m*3 21.3 C 0 km/h
2449 11-09-2011 10:07:01 22.1 C 12.1 g/m*3 22.1 C 0 km/h
2450 11-09-2011 10:19:01 22.1 C 11.91 g/m*3 22.1 C 0 km/h
Sensor: Nr:Datum:Temp:Abs-Feuchte:Windchill:Wind:
Aussen-T/F 2451 11-09-2011 10:31:01 22.7 C 11.92 g/m*3 22.7 C 0 km/h
2452 11-09-2011 10:43:01 22.8 C 12.19 g/m*3 22.8 C 0 km/h
2453 11-09-2011 10:55:01 22.9 C 11.65 g/m*3 22.9 C 0 km/h
2454 11-09-2011 11:07:01 23.2 C 11.43 g/m*3 23.2 C 0 km/h
2455 11-09-2011 11:18:02 23.1 C 10.96 g/m*3 23.1 C 0 km/h
2456 11-09-2011 11:30:02 23.5 C 11 g/m*3 23.5 C 0 km/h
2457 11-09-2011 11:42:01 24.1 C 11.16 g/m*3 24.1 C 0 km/h
2458 11-09-2011 11:54:02 23.7 C 11.76 g/m*3 23.7 C 0 km/h
2459 11-09-2011 12:06:01 22.9 C 12.06 g/m*3 22.9 C 0 km/h
2460 11-09-2011 12:18:01 22.9 C 12.88 g/m*3 22.9 C 0 km/h
2461 11-09-2011 12:30:01 23.3 C 12.13 g/m*3 23.3 C 0 km/h
2462 11-09-2011 12:42:01 22.8 C 12.4 g/m*3 22.8 C 0 km/h
2463 11-09-2011 12:54:02 22 C 11.84 g/m*3 22 C 0 km/h
2464 11-09-2011 13:06:19 20.2 C 12.41 g/m*3 20.2 C 0 km/h
2465 11-09-2011 13:18:19 19 C 12.87 g/m*3 19 C 0 km/h
2466 11-09-2011 13:30:02 18.3 C 12.66 g/m*3 18.3 C 0 km/h
2467 11-09-2011 13:42:02 18.4 C 13.05 g/m*3 18.4 C 0 km/h
2468 11-09-2011 13:54:02 18.2 C 13.06 g/m*3 18.2 C 0 km/h
2469 11-09-2011 14:06:01 18.1 C 12.98 g/m*3 18.1 C 0 km/h
2470 11-09-2011 14:18:01 18 C 13.06 g/m*3 18 C 0 km/h
2471 11-09-2011 14:30:01 17.6 C 12.9 g/m*3 17.6 C 0 km/h
2472 11-09-2011 14:42:01 17.4 C 12.89 g/m*3 17.4 C 0 km/h
2473 11-09-2011 14:54:02 17.3 C 12.82 g/m*3 17.3 C 0 km/h
2474 11-09-2011 15:06:02 17.2 C 12.74 g/m*3 17.2 C 0 km/h
2475 11-09-2011 15:17:06 17.3 C 12.82 g/m*3 17.3 C 0 km/h
Sensor: Nr:Datum:Temp:Abs-Feuchte:Windchill:Wind:
Aussen-T/F 2476 11-09-2011 15:29:06 17.2 C 12.89 g/m*3 17.2 C 0 km/h
2477 11-09-2011 15:41:03 17.4 C 13.04 g/m*3 17.4 C 0 km/h
2478 11-09-2011 15:53:01 17.4 C 12.89 g/m*3 17.4 C 0 km/h
2479 11-09-2011 16:05:01 17.2 C 12.74 g/m*3 17.2 C 0 km/h
2480 11-09-2011 16:17:02 17.3 C 12.82 g/m*3 17.3 C 0 km/h
2481 11-09-2011 16:29:02 17 C 12.59 g/m*3 17 C 0 km/h
2482 11-09-2011 16:41:01 16.5 C 12.22 g/m*3 16.5 C 0 km/h
2483 11-09-2011 16:52:02 16 C 11.72 g/m*3 16 C 0 km/h
2484 11-09-2011 17:04:01 15.8 C 11.71 g/m*3 15.8 C 0 km/h
2485 11-09-2011 17:16:01 15.8 C 11.85 g/m*3 15.8 C 0 km/h
2486 11-09-2011 17:28:02 15.7 C 11.77 g/m*3 15.7 C 0 km/h
2487 11-09-2011 17:40:01 15.5 C 11.63 g/m*3 15.5 C 0 km/h
2488 11-09-2011 17:52:02 15.4 C 11.56 g/m*3 15.4 C 0 km/h
2489 11-09-2011 18:04:01 15.4 C 11.56 g/m*3 15.4 C 0 km/h
2490 11-09-2011 18:15:01 15.4 C 11.56 g/m*3 15.4 C 0 km/h
2491 11-09-2011 18:27:01 15.3 C 11.49 g/m*3 15.3 C 0 km/h
2492 11-09-2011 18:39:02 15.1 C 11.35 g/m*3 15.1 C 0 km/h
2493 11-09-2011 18:51:01 15.2 C 11.29 g/m*3 15.2 C 0 km/h
2494 11-09-2011 19:03:02 15.2 C 11.29 g/m*3 15.2 C 0 km/h
2495 11-09-2011 19:15:01 15 C 11.16 g/m*3 15 C 0 km/h
2496 11-09-2011 19:27:01 14.7 C 11.08 g/m*3 14.7 C 0 km/h
2497 11-09-2011 19:39:01 14.7 C 11.08 g/m*3 14.7 C 0 km/h
2498 11-09-2011 19:50:01 14.6 C 11.01 g/m*3 14.6 C 0 km/h
2499 11-09-2011 20:02:01 14.3 C 10.81 g/m*3 14.3 C 0 km/h
2500 11-09-2011 20:14:01 13.9 C 10.55 g/m*3 13.9 C 0 km/h
Sensor: Nr:Datum:Temp:Abs-Feuchte:Windchill:Wind:
Aussen-T/F 2501 11-09-2011 20:26:01 13.6 C 10.36 g/m*3 13.6 C 0 km/h
2502 11-09-2011 20:38:01 13.6 C 10.47 g/m*3 13.6 C 0 km/h
2503 11-09-2011 20:50:01 13.6 C 10.47 g/m*3 13.6 C 0 km/h
2504 11-09-2011 21:02:01 13.6 C 10.47 g/m*3 13.6 C 0 km/h
2505 11-09-2011 21:14:01 13.7 C 10.54 g/m*3 13.7 C 0 km/h
2506 11-09-2011 21:25:02 13.6 C 10.47 g/m*3 13.6 C 0 km/h
2507 11-09-2011 21:37:01 13.5 C 10.41 g/m*3 13.5 C 0 km/h
2508 11-09-2011 21:49:02 13.1 C 10.16 g/m*3 13.1 C 0 km/h
2509 11-09-2011 22:07:34 12.9 C 10.03 g/m*3 12.9 C 0 km/h
2510 11-09-2011 22:19:34 12.7 C 9.91 g/m*3 12.7 C 0 km/h
2511 11-09-2011 22:31:34 12.6 C 9.85 g/m*3 12.6 C 0 km/h
2512 11-09-2011 22:43:34 12.5 C 9.78 g/m*3 12.5 C 0 km/h
2513 11-09-2011 22:55:34 12.8 C 9.97 g/m*3 12.8 C 0 km/h
2514 11-09-2011 23:07:34 12.8 C 10.08 g/m*3 12.8 C 0 km/h
2515 11-09-2011 23:19:34 12.6 C 9.96 g/m*3 12.6 C 0 km/h
2516 11-09-2011 23:31:34 12.1 C 9.54 g/m*3 12.1 C 0 km/h
2517 11-09-2011 23:43:35 12.9 C 10.14 g/m*3 12.9 C 0 km/h
2518 11-09-2011 23:55:35 13.1 C 10.27 g/m*3 13.1 C 0 km/h
2519 12-09-2011 00:07:35 13.2 C 10.33 g/m*3 13.2 C 0 km/h
2520 12-09-2011 00:19:35 13 C 10.21 g/m*3 13 C 0 km/h
2521 12-09-2011 00:31:35 12.9 C 10.14 g/m*3 12.9 C 0 km/h
2522 12-09-2011 00:43:35 12.7 C 10.02 g/m*3 12.7 C 0 km/h
2523 12-09-2011 00:55:35 12.8 C 10.08 g/m*3 12.8 C 0 km/h
2524 12-09-2011 01:07:35 12.6 C 9.96 g/m*3 12.6 C 0 km/h
2525 12-09-2011 01:19:35 12.2 C 9.71 g/m*3 12.2 C 0 km/h
Sensor: Nr:Datum:Temp:Abs-Feuchte:Windchill:Wind:
Aussen-T/F 2526 12-09-2011 01:31:35 12.4 C 9.83 g/m*3 12.4 C 0 km/h
2527 12-09-2011 01:43:35 12.4 C 9.83 g/m*3 12.4 C 0 km/h
2528 12-09-2011 01:55:35 12.4 C 9.83 g/m*3 12.4 C 0 km/h
2529 12-09-2011 02:07:35 12.6 C 9.96 g/m*3 12.6 C 0 km/h
2530 12-09-2011 02:19:35 12.3 C 9.77 g/m*3 12.3 C 0 km/h
2531 12-09-2011 02:31:35 12.3 C 9.88 g/m*3 12.3 C 0 km/h
2532 12-09-2011 02:43:35 12.4 C 9.94 g/m*3 12.4 C 0 km/h
2533 12-09-2011 02:55:35 12.8 C 10.19 g/m*3 12.8 C 0 km/h
2534 12-09-2011 03:07:35 12.9 C 10.26 g/m*3 12.9 C 0 km/h
2535 12-09-2011 03:19:35 13 C 10.21 g/m*3 13 C 0 km/h
2536 12-09-2011 03:31:35 12.8 C 10.19 g/m*3 12.8 C 0 km/h
2537 12-09-2011 03:43:35 12.7 C 10.13 g/m*3 12.7 C 0 km/h
2538 12-09-2011 03:55:35 12.8 C 10.19 g/m*3 12.8 C 0 km/h
2539 12-09-2011 04:07:35 12.8 C 10.3 g/m*3 12.8 C 0 km/h
2540 12-09-2011 04:19:36 12.7 C 10.13 g/m*3 12.7 C 0 km/h
2541 12-09-2011 04:31:36 12.6 C 10.07 g/m*3 12.6 C 0 km/h
2542 12-09-2011 04:43:36 12.5 C 10 g/m*3 12.5 C 0 km/h
2543 12-09-2011 04:55:36 12.7 C 10.13 g/m*3 12.7 C 0 km/h
2544 12-09-2011 05:07:36 12.6 C 10.07 g/m*3 12.6 C 0 km/h
2545 12-09-2011 05:19:36 12.5 C 10 g/m*3 12.5 C 0 km/h
2546 12-09-2011 05:31:36 12.2 C 9.82 g/m*3 12.2 C 0 km/h
2547 12-09-2011 05:43:36 12.3 C 9.88 g/m*3 12.3 C 0 km/h
2548 12-09-2011 05:55:36 12.2 C 9.82 g/m*3 12.2 C 0 km/h
2549 12-09-2011 06:07:36 12.1 C 9.76 g/m*3 12.1 C 0 km/h
2550 12-09-2011 06:19:36 12.1 C 9.76 g/m*3 12.1 C 0 km/h
Sensor: Nr:Datum:Temp:Abs-Feuchte:Windchill:Wind:
Aussen-T/F 2551 12-09-2011 06:31:36 11.9 C 9.64 g/m*3 11.9 C 0 km/h
2552 12-09-2011 06:43:36 12.1 C 9.76 g/m*3 12.1 C 0 km/h
2553 12-09-2011 06:55:36 12.1 C 9.76 g/m*3 12.1 C 0 km/h
2554 12-09-2011 07:07:36 12.1 C 9.76 g/m*3 12.1 C 0 km/h
2555 12-09-2011 07:19:36 12.4 C 9.94 g/m*3 12.4 C 0 km/h
2556 12-09-2011 07:31:44 12.9 C 10.26 g/m*3 12.9 C 0 km/h
2557 12-09-2011 07:43:53 13.1 C 10.38 g/m*3 13.1 C 0 km/h
2558 12-09-2011 07:55:36 13.3 C 10.51 g/m*3 13.3 C 0 km/h
2559 12-09-2011 08:07:38 13.7 C 10.78 g/m*3 13.7 C 0 km/h
2560 12-09-2011 08:19:34 13.9 C 10.91 g/m*3 13.9 C 0 km/h
2561 12-09-2011 08:31:34 14 C 10.86 g/m*3 14 C 0 km/h
2562 12-09-2011 08:43:36 13.9 C 10.91 g/m*3 13.9 C 0 km/h
2563 12-09-2011 08:55:29 14.2 C 10.99 g/m*3 14.2 C 0 km/h
2564 12-09-2011 09:07:23 14.1 C 10.92 g/m*3 14.1 C 0 km/h
2565 12-09-2011 09:19:02 14.6 C 11.26 g/m*3 14.6 C 0 km/h
2566 12-09-2011 09:31:02 14.8 C 11.27 g/m*3 14.8 C 0 km/h
2567 12-09-2011 09:43:02 15 C 11.16 g/m*3 15 C 0 km/h
2568 12-09-2011 09:55:02 15.6 C 11.17 g/m*3 15.6 C 0 km/h
2569 12-09-2011 10:07:02 15.9 C 11.1 g/m*3 15.9 C 0 km/h
2570 12-09-2011 10:19:01 16.2 C 10.89 g/m*3 16.2 C 0 km/h
2571 12-09-2011 10:31:02 16.6 C 10.31 g/m*3 16.6 C 0 km/h
2572 12-09-2011 10:43:02 16.8 C 10.15 g/m*3 16.8 C 0 km/h
2573 12-09-2011 10:55:02 17.4 C 9.48 g/m*3 17.4 C 0 km/h
2574 12-09-2011 11:07:02 17.9 C 9.77 g/m*3 17.9 C 0 km/h
2575 12-09-2011 11:19:01 18.1 C 9.73 g/m*3 18.1 C 0 km/h
Sensor: Nr:Datum:Temp:Abs-Feuchte:Windchill:Wind:
Aussen-T/F 2576 12-09-2011 11:31:02 18.6 C 8.75 g/m*3 18.6 C 0 km/h
2577 12-09-2011 11:43:02 18.4 C 8.81 g/m*3 18.4 C 0 km/h
2578 12-09-2011 11:55:01 18.2 C 9.01 g/m*3 18.2 C 0 km/h
2579 12-09-2011 12:07:02 18.4 C 8.97 g/m*3 18.4 C 0 km/h
2580 12-09-2011 12:19:02 18.6 C 8.91 g/m*3 18.6 C 0 km/h
2581 12-09-2011 12:31:01 18.9 C 8.91 g/m*3 18.9 C 0 km/h
2582 12-09-2011 12:43:01 18.9 C 9.23 g/m*3 18.9 C 0 km/h
2583 12-09-2011 12:55:02 19.9 C 9.11 g/m*3 19.9 C 0 km/h
2584 12-09-2011 13:07:01 20 C 8.64 g/m*3 20 C 0 km/h
2585 12-09-2011 13:19:01 20.1 C 8.69 g/m*3 20.1 C 0 km/h
2586 12-09-2011 13:31:02 20.8 C 8.69 g/m*3 20.8 C 0 km/h
2587 12-09-2011 13:43:02 21.2 C 8.71 g/m*3 21.2 C 0 km/h
2588 12-09-2011 13:55:02 21.5 C 8.11 g/m*3 21.5 C 0 km/h
2589 12-09-2011 14:07:01 21.8 C 8.44 g/m*3 21.8 C 0 km/h
2590 12-09-2011 14:19:02 22.1 C 8.2 g/m*3 22.1 C 0 km/h
2591 12-09-2011 14:31:02 22.1 C 8.59 g/m*3 22.1 C 0 km/h
2592 12-09-2011 14:43:02 22.6 C 8.04 g/m*3 22.6 C 0 km/h
2593 12-09-2011 14:55:02 22.8 C 8.33 g/m*3 22.8 C 0 km/h
2594 12-09-2011 15:07:02 23.4 C 8.2 g/m*3 23.4 C 0 km/h
2595 12-09-2011 15:19:02 24.8 C 7.74 g/m*3 24.8 C 0 km/h
2596 12-09-2011 15:31:02 25.2 C 7.45 g/m*3 25.2 C 0 km/h
2597 12-09-2011 15:43:02 26.8 C 7.64 g/m*3 26.8 C 0 km/h
2598 12-09-2011 15:55:01 26.2 C 7.14 g/m*3 26.2 C 0 km/h
2599 12-09-2011 16:07:01 25.6 C 7.14 g/m*3 25.6 C 0 km/h
2600 12-09-2011 16:19:02 27.3 C 7.85 g/m*3 27.3 C 0 km/h
Sensor: Nr:Datum:Temp:Abs-Feuchte:Windchill:Wind:
Aussen-T/F 2601 12-09-2011 16:31:01 24.9 C 7.55 g/m*3 24.9 C 0 km/h
2602 12-09-2011 16:43:01 23.4 C 7.78 g/m*3 23.4 C 0 km/h
2603 12-09-2011 16:55:02 23.6 C 7.87 g/m*3 23.6 C 0 km/h
2604 12-09-2011 17:07:02 23.7 C 8.34 g/m*3 23.7 C 0 km/h
2605 12-09-2011 17:19:03 23 C 8.22 g/m*3 23 C 0 km/h
2606 12-09-2011 17:31:02 22.5 C 8.39 g/m*3 22.5 C 0 km/h
2607 12-09-2011 17:43:02 21.9 C 9.26 g/m*3 21.9 C 0 km/h
2608 12-09-2011 17:55:02 21.8 C 9.02 g/m*3 21.8 C 0 km/h
2609 12-09-2011 18:07:02 21.8 C 9.02 g/m*3 21.8 C 0 km/h
2610 12-09-2011 18:19:02 21.7 C 9.16 g/m*3 21.7 C 0 km/h
2611 12-09-2011 18:31:02 21.5 C 9.24 g/m*3 21.5 C 0 km/h
2612 12-09-2011 18:43:02 21.5 C 9.05 g/m*3 21.5 C 0 km/h
2613 12-09-2011 18:55:02 21.4 C 9.19 g/m*3 21.4 C 0 km/h
2614 12-09-2011 19:07:02 21.1 C 9.21 g/m*3 21.1 C 0 km/h
2615 12-09-2011 19:19:01 20.9 C 9.47 g/m*3 20.9 C 0 km/h
2616 12-09-2011 19:31:02 20.8 C 9.78 g/m*3 20.8 C 0 km/h
2617 12-09-2011 19:43:03 20.3 C 9.85 g/m*3 20.3 C 0 km/h
2618 12-09-2011 19:55:02 20 C 10.02 g/m*3 20 C 0 km/h
2619 12-09-2011 20:07:02 20.2 C 10.14 g/m*3 20.2 C 0 km/h
2620 12-09-2011 20:19:01 20.1 C 10.26 g/m*3 20.1 C 0 km/h
2621 12-09-2011 20:31:02 20 C 10.2 g/m*3 20 C 0 km/h
2622 12-09-2011 20:43:02 19.9 C 10.31 g/m*3 19.9 C 0 km/h
2623 12-09-2011 20:55:02 20.1 C 10.26 g/m*3 20.1 C 0 km/h
2624 12-09-2011 21:07:02 19.8 C 10.42 g/m*3 19.8 C 0 km/h
2625 12-09-2011 21:19:02 19.7 C 10.53 g/m*3 19.7 C 0 km/h
Sensor: Nr:Datum:Temp:Abs-Feuchte:Windchill:Wind:
Aussen-T/F 2626 12-09-2011 21:31:02 19.4 C 10.51 g/m*3 19.4 C 0 km/h
2627 12-09-2011 21:43:02 19.3 C 10.62 g/m*3 19.3 C 0 km/h
2628 12-09-2011 21:55:02 19.5 C 10.57 g/m*3 19.5 C 0 km/h
2629 12-09-2011 22:07:02 18.8 C 10.95 g/m*3 18.8 C 0 km/h
2630 12-09-2011 22:19:02 19.4 C 10.84 g/m*3 19.4 C 0 km/h
2631 12-09-2011 22:32:02 19.6 C 10.8 g/m*3 19.6 C 0 km/h
2632 12-09-2011 22:44:02 19.6 C 10.8 g/m*3 19.6 C 0 km/h
2633 12-09-2011 22:56:02 19.7 C 10.87 g/m*3 19.7 C 0 km/h
2634 12-09-2011 23:08:03 19.5 C 10.91 g/m*3 19.5 C 0 km/h
2635 12-09-2011 23:20:03 18.8 C 10.95 g/m*3 18.8 C 0 km/h
2636 12-09-2011 23:32:03 18.4 C 11.17 g/m*3 18.4 C 0 km/h
2637 12-09-2011 23:44:03 17.9 C 11.3 g/m*3 17.9 C 0 km/h
2638 12-09-2011 23:56:03 17.5 C 11.48 g/m*3 17.5 C 0 km/h
2639 13-09-2011 00:08:03 16.9 C 11.36 g/m*3 16.9 C 0 km/h
2640 13-09-2011 00:20:03 16.9 C 11.65 g/m*3 16.9 C 0 km/h
2641 13-09-2011 00:32:03 16.8 C 11.72 g/m*3 16.8 C 0 km/h
2642 13-09-2011 00:44:03 16.5 C 11.65 g/m*3 16.5 C 0 km/h
2643 13-09-2011 00:56:03 16.4 C 11.58 g/m*3 16.4 C 0 km/h
2644 13-09-2011 01:08:03 16.4 C 11.72 g/m*3 16.4 C 0 km/h
2645 13-09-2011 01:20:03 16.6 C 12.01 g/m*3 16.6 C 0 km/h
2646 13-09-2011 01:32:03 16.5 C 11.8 g/m*3 16.5 C 0 km/h
2647 13-09-2011 01:44:03 16.4 C 11.72 g/m*3 16.4 C 0 km/h
2648 13-09-2011 01:56:03 16.3 C 11.79 g/m*3 16.3 C 0 km/h
2649 13-09-2011 02:08:04 16.6 C 12.01 g/m*3 16.6 C 0 km/h
2650 13-09-2011 02:20:04 16.7 C 11.94 g/m*3 16.7 C 0 km/h
Sensor: Nr:Datum:Temp:Abs-Feuchte:Windchill:Wind:
Aussen-T/F 2651 13-09-2011 02:32:04 17.2 C 12.01 g/m*3 17.2 C 0 km/h
2652 13-09-2011 02:44:04 17.1 C 11.65 g/m*3 17.1 C 0 km/h
2653 13-09-2011 02:56:04 17.5 C 11.63 g/m*3 17.5 C 0 km/h
2654 13-09-2011 03:08:04 17.8 C 11.69 g/m*3 17.8 C 0 km/h
2655 13-09-2011 03:20:04 17.3 C 11.34 g/m*3 17.3 C 0 km/h
2656 13-09-2011 03:32:04 17.7 C 11.77 g/m*3 17.7 C 0 km/h
2657 13-09-2011 03:44:04 18.3 C 11.41 g/m*3 18.3 C 0 km/h
2658 13-09-2011 03:56:04 17.5 C 11.33 g/m*3 17.5 C 0 km/h
2659 13-09-2011 04:08:04 17.3 C 11.64 g/m*3 17.3 C 0 km/h
2660 13-09-2011 04:20:04 17.5 C 11.93 g/m*3 17.5 C 0 km/h
2661 13-09-2011 04:32:04 17.5 C 11.93 g/m*3 17.5 C 0 km/h
2662 13-09-2011 04:44:04 17.4 C 11.86 g/m*3 17.4 C 0 km/h
2663 13-09-2011 04:56:04 17.4 C 12 g/m*3 17.4 C 0 km/h
2664 13-09-2011 05:08:04 17.3 C 12.08 g/m*3 17.3 C 0 km/h
2665 13-09-2011 05:20:04 17.3 C 12.08 g/m*3 17.3 C 0 km/h
2666 13-09-2011 05:32:04 17.3 C 12.08 g/m*3 17.3 C 0 km/h
2667 13-09-2011 05:44:04 17.3 C 12.23 g/m*3 17.3 C 0 km/h
2668 13-09-2011 05:56:04 17.4 C 12.3 g/m*3 17.4 C 0 km/h
2669 13-09-2011 06:08:04 17.4 C 12.3 g/m*3 17.4 C 0 km/h
2670 13-09-2011 06:20:04 17.6 C 12.3 g/m*3 17.6 C 0 km/h
2671 13-09-2011 06:32:04 18 C 12.13 g/m*3 18 C 0 km/h
2672 13-09-2011 06:44:05 18.3 C 11.88 g/m*3 18.3 C 0 km/h
2673 13-09-2011 06:56:05 17.9 C 11.91 g/m*3 17.9 C 0 km/h
2674 13-09-2011 07:08:05 17.4 C 12 g/m*3 17.4 C 0 km/h
2675 13-09-2011 07:20:02 17.1 C 11.94 g/m*3 17.1 C 0 km/h
Sensor: Nr:Datum:Temp:Abs-Feuchte:Windchill:Wind:
Aussen-T/F 2676 13-09-2011 07:32:01 17 C 12.01 g/m*3 17 C 0 km/h
2677 13-09-2011 07:44:01 16.9 C 12.23 g/m*3 16.9 C 0 km/h
2678 13-09-2011 07:56:02 16.7 C 12.08 g/m*3 16.7 C 0 km/h
2679 13-09-2011 08:08:01 16.7 C 12.22 g/m*3 16.7 C 0 km/h
2680 13-09-2011 08:20:02 16.8 C 12.3 g/m*3 16.8 C 0 km/h
2681 13-09-2011 08:32:02 17.1 C 12.37 g/m*3 17.1 C 0 km/h
2682 13-09-2011 08:44:02 16.9 C 12.23 g/m*3 16.9 C 0 km/h
2683 13-09-2011 08:56:02 16.8 C 12.15 g/m*3 16.8 C 0 km/h
2684 13-09-2011 09:08:03 17.7 C 12.98 g/m*3 17.7 C 0 km/h
2685 13-09-2011 09:20:02 18.1 C 12.82 g/m*3 18.1 C 0 km/h
2686 13-09-2011 09:32:02 18.3 C 12.66 g/m*3 18.3 C 0 km/h
2687 13-09-2011 09:44:02 18.6 C 11.46 g/m*3 18.6 C 0 km/h
2688 13-09-2011 09:56:01 18.5 C 10.92 g/m*3 18.5 C 0 km/h
2689 13-09-2011 10:08:02 18.8 C 10.95 g/m*3 18.8 C 0 km/h
2690 13-09-2011 10:20:01 18.9 C 10.37 g/m*3 18.9 C 0 km/h
2691 13-09-2011 10:32:01 18.8 C 10.95 g/m*3 18.8 C 0 km/h
2692 13-09-2011 10:44:01 18.5 C 10.28 g/m*3 18.5 C 0 km/h
2693 13-09-2011 10:56:02 18.4 C 9.75 g/m*3 18.4 C 0 km/h
2694 13-09-2011 11:08:03 18.4 C 9.44 g/m*3 18.4 C 0 km/h
2695 13-09-2011 11:20:02 18.3 C 9.38 g/m*3 18.3 C 0 km/h
2696 13-09-2011 11:32:03 18.4 C 9.28 g/m*3 18.4 C 0 km/h
2697 13-09-2011 11:44:03 19 C 9.13 g/m*3 19 C 0 km/h
2698 13-09-2011 11:56:02 19.1 C 9.02 g/m*3 19.1 C 0 km/h
2699 13-09-2011 12:08:02 19.4 C 9.18 g/m*3 19.4 C 0 km/h
2700 13-09-2011 12:20:03 19.4 C 9.18 g/m*3 19.4 C 0 km/h
Sensor: Nr:Datum:Temp:Abs-Feuchte:Windchill:Wind:
Aussen-T/F 2701 13-09-2011 12:32:02 19.3 C 9.12 g/m*3 19.3 C 0 km/h
2702 13-09-2011 12:44:02 19.7 C 9.68 g/m*3 19.7 C 0 km/h
2703 13-09-2011 12:56:02 19.5 C 9.06 g/m*3 19.5 C 0 km/h
2704 13-09-2011 13:08:01 19.4 C 9.18 g/m*3 19.4 C 0 km/h
2705 13-09-2011 13:20:01 20.1 C 9.04 g/m*3 20.1 C 0 km/h
2706 13-09-2011 13:32:01 21.5 C 9.43 g/m*3 21.5 C 0 km/h
2707 13-09-2011 13:44:01 21 C 9.16 g/m*3 21 C 0 km/h
2708 13-09-2011 13:56:02 20.7 C 9 g/m*3 20.7 C 0 km/h
2709 13-09-2011 14:08:01 20.5 C 9.07 g/m*3 20.5 C 0 km/h
2710 13-09-2011 14:20:02 20.1 C 9.21 g/m*3 20.1 C 0 km/h
2711 13-09-2011 14:32:02 20.2 C 9.62 g/m*3 20.2 C 0 km/h
2712 13-09-2011 14:44:02 20 C 9.16 g/m*3 20 C 0 km/h
2713 13-09-2011 14:56:02 20.3 C 9.15 g/m*3 20.3 C 0 km/h
2714 13-09-2011 15:08:02 20.4 C 9.38 g/m*3 20.4 C 0 km/h
2715 13-09-2011 15:20:02 20.9 C 9.65 g/m*3 20.9 C 0 km/h
2716 13-09-2011 15:32:02 21 C 8.06 g/m*3 21 C 0 km/h
2717 13-09-2011 15:44:02 20.7 C 8.28 g/m*3 20.7 C 0 km/h
2718 13-09-2011 15:56:01 22.4 C 7.94 g/m*3 22.4 C 0 km/h
2719 13-09-2011 16:08:01 21.2 C 7.97 g/m*3 21.2 C 0 km/h
2720 13-09-2011 16:20:01 20.3 C 8.27 g/m*3 20.3 C 0 km/h
2721 13-09-2011 16:32:01 20.5 C 8.19 g/m*3 20.5 C 0 km/h
2722 13-09-2011 16:44:01 20.7 C 7.92 g/m*3 20.7 C 0 km/h
2723 13-09-2011 16:56:02 21.2 C 8.9 g/m*3 21.2 C 0 km/h
2724 13-09-2011 17:08:02 22 C 7.57 g/m*3 22 C 0 km/h
2725 13-09-2011 17:20:03 24.2 C 7.04 g/m*3 24.2 C 0 km/h
Sensor: Nr:Datum:Temp:Abs-Feuchte:Windchill:Wind:
Aussen-T/F 2726 13-09-2011 17:32:02 22 C 7.57 g/m*3 22 C 0 km/h
2727 13-09-2011 17:44:02 20.6 C 7.7 g/m*3 20.6 C 0 km/h
2728 13-09-2011 17:56:03 20.2 C 7.69 g/m*3 20.2 C 0 km/h
2729 13-09-2011 18:08:02 20.2 C 7.87 g/m*3 20.2 C 0 km/h
2730 13-09-2011 18:20:02 23.2 C 7.48 g/m*3 23.2 C 0 km/h
2731 13-09-2011 18:32:03 22.9 C 7.36 g/m*3 22.9 C 0 km/h
2732 13-09-2011 18:44:03 21.2 C 7.6 g/m*3 21.2 C 0 km/h
2733 13-09-2011 18:56:02 20.9 C 7.83 g/m*3 20.9 C 0 km/h
2734 13-09-2011 19:08:02 20.7 C 7.56 g/m*3 20.7 C 0 km/h
2735 13-09-2011 19:20:02 19.2 C 7.59 g/m*3 19.2 C 0 km/h
2736 13-09-2011 19:32:02 18.2 C 7.77 g/m*3 18.2 C 0 km/h
2737 13-09-2011 19:44:02 17.4 C 8.6 g/m*3 17.4 C 0 km/h
2738 13-09-2011 19:56:01 17.3 C 7.96 g/m*3 17.3 C 0 km/h
2739 13-09-2011 20:08:02 16.4 C 8.37 g/m*3 16.4 C 0 km/h
2740 13-09-2011 20:20:01 16.1 C 8.77 g/m*3 16.1 C 0 km/h
2741 13-09-2011 20:32:02 16.1 C 8.77 g/m*3 16.1 C 0 km/h
2742 13-09-2011 20:44:02 16 C 8.86 g/m*3 16 C 0 km/h
2743 13-09-2011 20:56:01 16 C 8.99 g/m*3 16 C 0 km/h
2744 13-09-2011 21:08:02 15.9 C 9.21 g/m*3 15.9 C 0 km/h
2745 13-09-2011 21:20:02 15.9 C 9.21 g/m*3 15.9 C 0 km/h
2746 13-09-2011 21:32:01 15.7 C 8.7 g/m*3 15.7 C 0 km/h
2747 13-09-2011 21:44:01 15.1 C 8.77 g/m*3 15.1 C 0 km/h
2748 13-09-2011 21:56:02 14.6 C 8.63 g/m*3 14.6 C 0 km/h
2749 13-09-2011 22:09:02 14.3 C 8.72 g/m*3 14.3 C 0 km/h
2750 13-09-2011 22:21:02 14 C 8.81 g/m*3 14 C 0 km/h
Sensor: Nr:Datum:Temp:Abs-Feuchte:Windchill:Wind:
Aussen-T/F 2751 13-09-2011 22:33:02 13.5 C 8.77 g/m*3 13.5 C 0 km/h
2752 13-09-2011 22:45:02 13.3 C 8.78 g/m*3 13.3 C 0 km/h
2753 13-09-2011 22:57:02 13.3 C 9.01 g/m*3 13.3 C 0 km/h
2754 13-09-2011 23:09:02 13 C 8.85 g/m*3 13 C 0 km/h
2755 13-09-2011 23:21:02 12.9 C 9.02 g/m*3 12.9 C 0 km/h
2756 13-09-2011 23:33:02 12.9 C 9.02 g/m*3 12.9 C 0 km/h
2757 13-09-2011 23:45:02 12.8 C 9.07 g/m*3 12.8 C 0 km/h
2758 13-09-2011 23:57:03 12.7 C 9.02 g/m*3 12.7 C 0 km/h
2759 14-09-2011 00:09:03 12.8 C 9.07 g/m*3 12.8 C 0 km/h
2760 14-09-2011 00:21:03 12.8 C 8.96 g/m*3 12.8 C 0 km/h
2761 14-09-2011 00:33:03 12.7 C 8.91 g/m*3 12.7 C 0 km/h
2762 14-09-2011 00:45:03 12.5 C 8.91 g/m*3 12.5 C 0 km/h
2763 14-09-2011 00:57:03 12.5 C 9.13 g/m*3 12.5 C 0 km/h
2764 14-09-2011 01:09:03 12.4 C 9.07 g/m*3 12.4 C 0 km/h
2765 14-09-2011 01:21:03 12.7 C 9.35 g/m*3 12.7 C 0 km/h
2766 14-09-2011 01:33:03 13 C 9.41 g/m*3 13 C 0 km/h
2767 14-09-2011 01:45:03 13.1 C 9.24 g/m*3 13.1 C 0 km/h
2768 14-09-2011 01:57:03 13.1 C 9.01 g/m*3 13.1 C 0 km/h
2769 14-09-2011 02:09:03 12.8 C 8.85 g/m*3 12.8 C 0 km/h
2770 14-09-2011 02:21:03 12.4 C 8.74 g/m*3 12.4 C 0 km/h
2771 14-09-2011 02:33:03 12 C 8.74 g/m*3 12 C 0 km/h
2772 14-09-2011 02:45:03 11.8 C 8.84 g/m*3 11.8 C 0 km/h
2773 14-09-2011 02:57:03 11.6 C 8.73 g/m*3 11.6 C 0 km/h
2774 14-09-2011 03:09:03 11.5 C 8.78 g/m*3 11.5 C 0 km/h
2775 14-09-2011 03:21:03 10.8 C 8.4 g/m*3 10.8 C 0 km/h
Sensor: Nr:Datum:Temp:Abs-Feuchte:Windchill:Wind:
Aussen-T/F 2776 14-09-2011 03:33:03 10.9 C 8.55 g/m*3 10.9 C 0 km/h
2777 14-09-2011 03:45:03 10.9 C 8.55 g/m*3 10.9 C 0 km/h
2778 14-09-2011 03:57:03 11 C 8.61 g/m*3 11 C 0 km/h
2779 14-09-2011 04:09:03 11.8 C 8.74 g/m*3 11.8 C 0 km/h
2780 14-09-2011 04:21:03 12.1 C 7.94 g/m*3 12.1 C 0 km/h
2781 14-09-2011 04:33:04 11.7 C 7.64 g/m*3 11.7 C 0 km/h
2782 14-09-2011 04:45:04 11.5 C 7.54 g/m*3 11.5 C 0 km/h
2783 14-09-2011 04:57:04 11.6 C 7.59 g/m*3 11.6 C 0 km/h
2784 14-09-2011 05:09:04 11.5 C 7.64 g/m*3 11.5 C 0 km/h
2785 14-09-2011 05:21:04 11 C 7.51 g/m*3 11 C 0 km/h
2786 14-09-2011 05:33:04 10.4 C 7.61 g/m*3 10.4 C 0 km/h
2787 14-09-2011 05:45:04 10.1 C 7.56 g/m*3 10.1 C 0 km/h
2788 14-09-2011 05:57:04 9.9 C 7.66 g/m*3 9.9 C 0 km/h
2789 14-09-2011 06:09:04 9.8 C 7.7 g/m*3 9.8 C 0 km/h
2790 14-09-2011 06:21:04 9.7 C 7.65 g/m*3 9.7 C 0 km/h
2791 14-09-2011 06:33:02 9.6 C 7.69 g/m*3 9.6 C 0 km/h
2792 14-09-2011 06:45:02 9.5 C 7.65 g/m*3 9.5 C 0 km/h
2793 14-09-2011 06:57:02 9.3 C 7.64 g/m*3 9.3 C 0 km/h
2794 14-09-2011 07:09:02 9.3 C 7.64 g/m*3 9.3 C 0 km/h
2795 14-09-2011 07:21:02 9.5 C 7.74 g/m*3 9.5 C 0 km/h
2796 14-09-2011 07:33:02 9.7 C 7.84 g/m*3 9.7 C 0 km/h
2797 14-09-2011 07:45:01 10.1 C 7.75 g/m*3 10.1 C 0 km/h
2798 14-09-2011 07:57:01 10.5 C 7.66 g/m*3 10.5 C 0 km/h
2799 14-09-2011 08:09:02 10.6 C 7.52 g/m*3 10.6 C 0 km/h
2800 14-09-2011 08:21:01 10.8 C 7.51 g/m*3 10.8 C 0 km/h
Sensor: Nr:Datum:Temp:Abs-Feuchte:Windchill:Wind:
Aussen-T/F 2801 14-09-2011 08:33:01 11 C 7.61 g/m*3 11 C 0 km/h
2802 14-09-2011 08:45:01 11.4 C 7.6 g/m*3 11.4 C 0 km/h
2803 14-09-2011 08:57:01 11.5 C 7.54 g/m*3 11.5 C 0 km/h
2804 14-09-2011 09:09:02 11.5 C 7.33 g/m*3 11.5 C 0 km/h
2805 14-09-2011 09:21:01 11.7 C 7.32 g/m*3 11.7 C 0 km/h
2806 14-09-2011 09:33:01 11.9 C 7.2 g/m*3 11.9 C 0 km/h
2807 14-09-2011 09:45:02 12.2 C 7.01 g/m*3 12.2 C 0 km/h
2808 14-09-2011 09:57:02 12.2 C 7.01 g/m*3 12.2 C 0 km/h
2809 14-09-2011 10:09:02 12.6 C 6.97 g/m*3 12.6 C 0 km/h
2810 14-09-2011 10:21:01 12.8 C 7.06 g/m*3 12.8 C 0 km/h
2811 14-09-2011 10:33:02 13 C 6.92 g/m*3 13 C 0 km/h
2812 14-09-2011 10:45:01 13.3 C 6.82 g/m*3 13.3 C 0 km/h
2813 14-09-2011 10:57:01 13.4 C 6.86 g/m*3 13.4 C 0 km/h
2814 14-09-2011 11:09:02 13.7 C 6.75 g/m*3 13.7 C 0 km/h
2815 14-09-2011 11:21:02 14.1 C 6.67 g/m*3 14.1 C 0 km/h
2816 14-09-2011 11:33:02 14.3 C 6.76 g/m*3 14.3 C 0 km/h
2817 14-09-2011 11:45:02 14.5 C 6.34 g/m*3 14.5 C 0 km/h
2818 14-09-2011 11:57:02 14.6 C 6.26 g/m*3 14.6 C 0 km/h
2819 14-09-2011 12:09:01 15 C 5.9 g/m*3 15 C 0 km/h
2820 14-09-2011 12:21:02 15.4 C 6.04 g/m*3 15.4 C 0 km/h
2821 14-09-2011 12:33:01 15.3 C 6.27 g/m*3 15.3 C 0 km/h
2822 14-09-2011 12:45:01 16 C 6.4 g/m*3 16 C 0 km/h
2823 14-09-2011 12:57:02 16 C 6.13 g/m*3 16 C 0 km/h
2824 14-09-2011 13:09:01 16.5 C 6.18 g/m*3 16.5 C 0 km/h
2825 14-09-2011 13:21:01 16.9 C 6.47 g/m*3 16.9 C 0 km/h
Sensor: Nr:Datum:Temp:Abs-Feuchte:Windchill:Wind:
Aussen-T/F 2826 14-09-2011 13:33:02 17 C 6.08 g/m*3 17 C 0 km/h
2827 14-09-2011 13:45:02 18.3 C 6.25 g/m*3 18.3 C 0 km/h
2828 14-09-2011 13:57:02 18.7 C 6.08 g/m*3 18.7 C 0 km/h
2829 14-09-2011 14:09:02 18.4 C 5.98 g/m*3 18.4 C 0 km/h
2830 14-09-2011 14:21:01 18.2 C 5.91 g/m*3 18.2 C 0 km/h
2831 14-09-2011 14:33:02 18.5 C 5.85 g/m*3 18.5 C 0 km/h
2832 14-09-2011 14:45:01 19.1 C 5.9 g/m*3 19.1 C 0 km/h
2833 14-09-2011 14:57:01 19.7 C 6.11 g/m*3 19.7 C 0 km/h
2834 14-09-2011 15:09:02 18.9 C 5.83 g/m*3 18.9 C 0 km/h
2835 14-09-2011 15:21:02 22.5 C 5.59 g/m*3 22.5 C 0 km/h
2836 14-09-2011 15:33:02 22.1 C 5.27 g/m*3 22.1 C 0 km/h
2837 14-09-2011 15:45:02 22.2 C 4.91 g/m*3 22.2 C 0 km/h
2838 14-09-2011 15:57:02 22.1 C 5.08 g/m*3 22.1 C 0 km/h
2839 14-09-2011 16:09:02 23.3 C 5.23 g/m*3 23.3 C 0 km/h
2840 14-09-2011 16:21:02 23.4 C 5.26 g/m*3 23.4 C 0 km/h
2841 14-09-2011 16:33:01 24 C 5 g/m*3 24 C 0 km/h
2842 14-09-2011 16:45:02 22.8 C 5.08 g/m*3 22.8 C 0 km/h
2843 14-09-2011 16:57:02 24.1 C 5.03 g/m*3 24.1 C 0 km/h
2844 14-09-2011 17:09:01 24.4 C 5.34 g/m*3 24.4 C 0 km/h
2845 14-09-2011 17:21:01 20.7 C 5.94 g/m*3 20.7 C 0 km/h
2846 14-09-2011 17:33:02 22.1 C 5.27 g/m*3 22.1 C 0 km/h
2847 14-09-2011 17:45:02 21.1 C 4.97 g/m*3 21.1 C 0 km/h
2848 14-09-2011 17:57:02 22.9 C 4.7 g/m*3 22.9 C 0 km/h
2849 14-09-2011 18:09:02 21 C 4.58 g/m*3 21 C 0 km/h
2850 14-09-2011 18:21:02 19.1 C 5.25 g/m*3 19.1 C 0 km/h
Sensor: Nr:Datum:Temp:Abs-Feuchte:Windchill:Wind:
Aussen-T/F 2851 14-09-2011 18:33:02 18.3 C 5.32 g/m*3 18.3 C 0 km/h
2852 14-09-2011 18:45:02 17.8 C 5.46 g/m*3 17.8 C 0 km/h
2853 14-09-2011 18:57:02 16.4 C 6.42 g/m*3 16.4 C 0 km/h
2854 14-09-2011 19:09:02 15.9 C 6.64 g/m*3 15.9 C 0 km/h
2855 14-09-2011 19:21:02 16.6 C 5.79 g/m*3 16.6 C 0 km/h
2856 14-09-2011 19:33:02 16.1 C 6.03 g/m*3 16.1 C 0 km/h
2857 14-09-2011 19:45:01 15.3 C 6.66 g/m*3 15.3 C 0 km/h
2858 14-09-2011 19:57:01 14.1 C 6.8 g/m*3 14.1 C 0 km/h
2859 14-09-2011 20:09:02 13.6 C 6.94 g/m*3 13.6 C 0 km/h
2860 14-09-2011 20:21:02 13.4 C 6.86 g/m*3 13.4 C 0 km/h
2861 14-09-2011 20:33:02 13.1 C 6.85 g/m*3 13.1 C 0 km/h
2862 14-09-2011 20:45:02 12.8 C 6.94 g/m*3 12.8 C 0 km/h
2863 14-09-2011 20:57:02 12.7 C 6.79 g/m*3 12.7 C 0 km/h
2864 14-09-2011 21:09:01 12.7 C 6.9 g/m*3 12.7 C 0 km/h
2865 14-09-2011 21:21:02 12.7 C 7.12 g/m*3 12.7 C 0 km/h
2866 14-09-2011 21:33:01 13 C 7.14 g/m*3 13 C 0 km/h
2867 14-09-2011 21:45:02 13.7 C 6.87 g/m*3 13.7 C 0 km/h
2868 14-09-2011 21:57:02 13.4 C 7.09 g/m*3 13.4 C 0 km/h
2869 14-09-2011 22:10:02 13.1 C 7.3 g/m*3 13.1 C 0 km/h
2870 14-09-2011 22:22:02 13.4 C 7.32 g/m*3 13.4 C 0 km/h
2871 14-09-2011 22:34:02 13.4 C 7.44 g/m*3 13.4 C 0 km/h
2872 14-09-2011 22:46:02 13.2 C 7.46 g/m*3 13.2 C 0 km/h
2873 14-09-2011 22:58:03 13.7 C 7.46 g/m*3 13.7 C 0 km/h
2874 14-09-2011 23:10:03 13.7 C 7.22 g/m*3 13.7 C 0 km/h
2875 14-09-2011 23:22:03 13.6 C 7.53 g/m*3 13.6 C 0 km/h
Sensor: Nr:Datum:Temp:Abs-Feuchte:Windchill:Wind:
Aussen-T/F 2876 14-09-2011 23:34:03 13.6 C 7.3 g/m*3 13.6 C 0 km/h
2877 14-09-2011 23:46:03 12.8 C 7.5 g/m*3 12.8 C 0 km/h
2878 14-09-2011 23:58:03 11.9 C 7.31 g/m*3 11.9 C 0 km/h
2879 15-09-2011 00:10:03 11.4 C 7.39 g/m*3 11.4 C 0 km/h
2880 15-09-2011 00:22:03 10.7 C 7.37 g/m*3 10.7 C 0 km/h
2881 15-09-2011 00:34:03 10.5 C 7.47 g/m*3 10.5 C 0 km/h
2882 15-09-2011 00:46:03 10.6 C 7.71 g/m*3 10.6 C 0 km/h
2883 15-09-2011 00:58:03 11.2 C 8.01 g/m*3 11.2 C 0 km/h
2884 15-09-2011 01:10:03 11.9 C 8.15 g/m*3 11.9 C 0 km/h
2885 15-09-2011 01:22:03 12.4 C 8.09 g/m*3 12.4 C 0 km/h
2886 15-09-2011 01:34:03 13 C 7.83 g/m*3 13 C 0 km/h
2887 15-09-2011 01:46:03 13.5 C 7.72 g/m*3 13.5 C 0 km/h
2888 15-09-2011 01:58:03 13.4 C 7.67 g/m*3 13.4 C 0 km/h
2889 15-09-2011 02:10:03 13.2 C 7.46 g/m*3 13.2 C 0 km/h
2890 15-09-2011 02:22:03 13 C 7.71 g/m*3 13 C 0 km/h
2891 15-09-2011 02:34:03 12.8 C 7.73 g/m*3 12.8 C 0 km/h
2892 15-09-2011 02:46:03 12.5 C 7.7 g/m*3 12.5 C 0 km/h
2893 15-09-2011 02:58:03 12.1 C 7.83 g/m*3 12.1 C 0 km/h
2894 15-09-2011 03:10:04 11.7 C 7.95 g/m*3 11.7 C 0 km/h
2895 15-09-2011 03:22:04 11.1 C 7.76 g/m*3 11.1 C 0 km/h
2896 15-09-2011 03:34:04 10.8 C 7.91 g/m*3 10.8 C 0 km/h
2897 15-09-2011 03:46:04 10.7 C 7.96 g/m*3 10.7 C 0 km/h
2898 15-09-2011 03:58:04 10.8 C 8.11 g/m*3 10.8 C 0 km/h
2899 15-09-2011 04:10:04 10.1 C 7.75 g/m*3 10.1 C 0 km/h
2900 15-09-2011 04:22:04 10.2 C 7.9 g/m*3 10.2 C 0 km/h
Sensor: Nr:Datum:Temp:Abs-Feuchte:Windchill:Wind:
Aussen-T/F 2901 15-09-2011 04:34:04 10.9 C 8.36 g/m*3 10.9 C 0 km/h
2902 15-09-2011 04:46:04 11.7 C 8.68 g/m*3 11.7 C 0 km/h
2903 15-09-2011 04:58:04 11.1 C 7.96 g/m*3 11.1 C 0 km/h
2904 15-09-2011 05:10:04 10.1 C 7.47 g/m*3 10.1 C 0 km/h
2905 15-09-2011 05:22:04 9.8 C 7.7 g/m*3 9.8 C 0 km/h
2906 15-09-2011 05:34:04 9.6 C 7.69 g/m*3 9.6 C 0 km/h
2907 15-09-2011 05:46:04 9.5 C 7.65 g/m*3 9.5 C 0 km/h
2908 15-09-2011 05:58:04 9.4 C 7.69 g/m*3 9.4 C 0 km/h
2909 15-09-2011 06:10:04 8.9 C 7.53 g/m*3 8.9 C 0 km/h
2910 15-09-2011 06:22:04 8.9 C 7.62 g/m*3 8.9 C 0 km/h
2911 15-09-2011 06:34:02 8.9 C 7.71 g/m*3 8.9 C 0 km/h
2912 15-09-2011 06:46:01 9.2 C 7.77 g/m*3 9.2 C 0 km/h
2913 15-09-2011 06:58:01 9.1 C 7.72 g/m*3 9.1 C 0 km/h
2914 15-09-2011 07:10:02 9.1 C 7.72 g/m*3 9.1 C 0 km/h
2915 15-09-2011 07:22:01 9.5 C 8.01 g/m*3 9.5 C 0 km/h
2916 15-09-2011 07:34:01 9.7 C 8.11 g/m*3 9.7 C 0 km/h
2917 15-09-2011 07:46:01 9.7 C 8.02 g/m*3 9.7 C 0 km/h
2918 15-09-2011 07:58:01 9.4 C 7.78 g/m*3 9.4 C 0 km/h
2919 15-09-2011 08:10:02 9.3 C 7.73 g/m*3 9.3 C 0 km/h
2920 15-09-2011 08:22:02 9.4 C 7.78 g/m*3 9.4 C 0 km/h
2921 15-09-2011 08:34:01 9.5 C 7.83 g/m*3 9.5 C 0 km/h
2922 15-09-2011 08:46:02 9.6 C 7.88 g/m*3 9.6 C 0 km/h
2923 15-09-2011 08:58:02 9.5 C 7.83 g/m*3 9.5 C 0 km/h
2924 15-09-2011 09:10:01 9.5 C 7.83 g/m*3 9.5 C 0 km/h
2925 15-09-2011 09:22:02 9.3 C 7.73 g/m*3 9.3 C 0 km/h
Sensor: Nr:Datum:Temp:Abs-Feuchte:Windchill:Wind:
Aussen-T/F 2926 15-09-2011 09:34:01 9.8 C 8.07 g/m*3 9.8 C 0 km/h
2927 15-09-2011 09:46:02 10.1 C 8.13 g/m*3 10.1 C 0 km/h
2928 15-09-2011 09:58:02 10.2 C 8.18 g/m*3 10.2 C 0 km/h
2929 15-09-2011 10:10:02 10.5 C 8.44 g/m*3 10.5 C 0 km/h
2930 15-09-2011 10:22:02 11.2 C 8.72 g/m*3 11.2 C 0 km/h
2931 15-09-2011 10:34:02 11.4 C 8.72 g/m*3 11.4 C 0 km/h
2932 15-09-2011 10:46:02 11.5 C 8.88 g/m*3 11.5 C 0 km/h
2933 15-09-2011 10:58:02 11.7 C 8.89 g/m*3 11.7 C 0 km/h
2934 15-09-2011 11:10:02 12 C 9.06 g/m*3 12 C 0 km/h
2935 15-09-2011 11:22:01 12.6 C 8.96 g/m*3 12.6 C 0 km/h
2936 15-09-2011 11:34:02 12.9 C 9.02 g/m*3 12.9 C 0 km/h
2937 15-09-2011 11:46:02 13.5 C 8.54 g/m*3 13.5 C 0 km/h
2938 15-09-2011 11:58:02 14.3 C 7.99 g/m*3 14.3 C 0 km/h
2939 15-09-2011 12:10:02 14.4 C 7.79 g/m*3 14.4 C 0 km/h
2940 15-09-2011 12:22:01 14.6 C 7.63 g/m*3 14.6 C 0 km/h
2941 15-09-2011 12:34:02 14.8 C 7.98 g/m*3 14.8 C 0 km/h
2942 15-09-2011 12:46:01 15 C 7.95 g/m*3 15 C 0 km/h
2943 15-09-2011 12:58:01 16 C 7.49 g/m*3 16 C 0 km/h
2944 15-09-2011 13:10:02 16.8 C 7.01 g/m*3 16.8 C 0 km/h
2945 15-09-2011 13:22:02 16.7 C 6.68 g/m*3 16.7 C 0 km/h
2946 15-09-2011 13:34:02 17.2 C 6.88 g/m*3 17.2 C 0 km/h
2947 15-09-2011 13:46:02 18.5 C 6.96 g/m*3 18.5 C 0 km/h
2948 15-09-2011 13:58:02 20 C 6.39 g/m*3 20 C 0 km/h
2949 15-09-2011 14:10:01 19 C 6.36 g/m*3 19 C 0 km/h
2950 15-09-2011 14:22:02 18.9 C 6.48 g/m*3 18.9 C 0 km/h
Sensor: Nr:Datum:Temp:Abs-Feuchte:Windchill:Wind:
Aussen-T/F 2951 15-09-2011 14:34:01 19.5 C 6.21 g/m*3 19.5 C 0 km/h
2952 15-09-2011 14:46:02 19.3 C 5.97 g/m*3 19.3 C 0 km/h
2953 15-09-2011 14:58:03 19.4 C 6.34 g/m*3 19.4 C 0 km/h
2954 15-09-2011 15:10:02 19.9 C 6.19 g/m*3 19.9 C 0 km/h
2955 15-09-2011 15:22:02 21.8 C 6.33 g/m*3 21.8 C 0 km/h
2956 15-09-2011 15:34:03 22.6 C 6.03 g/m*3 22.6 C 0 km/h
2957 15-09-2011 15:46:02 24.8 C 6.15 g/m*3 24.8 C 0 km/h
2958 15-09-2011 15:58:02 26.1 C 5.39 g/m*3 26.1 C 0 km/h
2959 15-09-2011 16:10:02 25.5 C 5.21 g/m*3 25.5 C 0 km/h
2960 15-09-2011 16:22:01 26.4 C 5.48 g/m*3 26.4 C 0 km/h
2961 15-09-2011 16:34:02 24.5 C 5.15 g/m*3 24.5 C 0 km/h
2962 15-09-2011 16:46:02 24.6 C 4.95 g/m*3 24.6 C 0 km/h
2963 15-09-2011 16:58:02 26.2 C 5.91 g/m*3 26.2 C 0 km/h
2964 15-09-2011 17:10:02 26.6 C 5.29 g/m*3 26.6 C 0 km/h
2965 15-09-2011 17:22:01 26.3 C 5.2 g/m*3 26.3 C 0 km/h
2966 15-09-2011 17:34:02 24.3 C 5.09 g/m*3 24.3 C 0 km/h
2967 15-09-2011 17:46:01 24.4 C 5.56 g/m*3 24.4 C 0 km/h
2968 15-09-2011 17:58:01 24.7 C 5.66 g/m*3 24.7 C 0 km/h
2969 15-09-2011 18:10:02 24 C 5.66 g/m*3 24 C 0 km/h
2970 15-09-2011 18:22:02 22.9 C 6.74 g/m*3 22.9 C 0 km/h
2971 15-09-2011 18:34:02 20.5 C 7.65 g/m*3 20.5 C 0 km/h
2972 15-09-2011 18:46:02 19.5 C 7.38 g/m*3 19.5 C 0 km/h
2973 15-09-2011 18:58:02 17.2 C 7.32 g/m*3 17.2 C 0 km/h
2974 15-09-2011 19:10:01 16.2 C 7.17 g/m*3 16.2 C 0 km/h
2975 15-09-2011 19:22:02 15.2 C 7.4 g/m*3 15.2 C 0 km/h
Sensor: Nr:Datum:Temp:Abs-Feuchte:Windchill:Wind:
Aussen-T/F 2976 15-09-2011 19:34:02 14.6 C 7.51 g/m*3 14.6 C 0 km/h
2977 15-09-2011 19:46:02 14.1 C 7.4 g/m*3 14.1 C 0 km/h
2978 15-09-2011 19:58:02 14 C 7.6 g/m*3 14 C 0 km/h
2979 15-09-2011 20:10:02 13.8 C 7.51 g/m*3 13.8 C 0 km/h
2980 15-09-2011 20:22:02 13.3 C 7.63 g/m*3 13.3 C 0 km/h
2981 15-09-2011 20:34:02 12.4 C 7.54 g/m*3 12.4 C 0 km/h
2982 15-09-2011 20:46:01 12.5 C 8.03 g/m*3 12.5 C 0 km/h
2983 15-09-2011 20:58:01 11.9 C 7.73 g/m*3 11.9 C 0 km/h
2984 15-09-2011 21:10:02 11.2 C 7.4 g/m*3 11.2 C 0 km/h
2985 15-09-2011 21:22:01 11 C 7.41 g/m*3 11 C 0 km/h
2986 15-09-2011 21:34:02 11.2 C 7.8 g/m*3 11.2 C 0 km/h
2987 15-09-2011 21:46:01 11.1 C 7.96 g/m*3 11.1 C 0 km/h
2988 15-09-2011 21:58:01 10.5 C 7.66 g/m*3 10.5 C 0 km/h
2989 15-09-2011 22:10:02 10.4 C 7.61 g/m*3 10.4 C 0 km/h
2990 15-09-2011 22:22:01 10.3 C 7.57 g/m*3 10.3 C 0 km/h
2991 15-09-2011 22:34:02 10 C 7.52 g/m*3 10 C 0 km/h
2992 15-09-2011 22:46:01 9.5 C 7.37 g/m*3 9.5 C 0 km/h
2993 15-09-2011 22:58:01 9.6 C 7.51 g/m*3 9.6 C 0 km/h
2994 15-09-2011 23:10:02 9.1 C 7.28 g/m*3 9.1 C 0 km/h
2995 15-09-2011 23:22:02 9.2 C 7.5 g/m*3 9.2 C 0 km/h
2996 15-09-2011 23:34:02 8.9 C 7.36 g/m*3 8.9 C 0 km/h
2997 15-09-2011 23:46:02 8.6 C 7.22 g/m*3 8.6 C 0 km/h
2998 15-09-2011 23:58:02 8.5 C 7.26 g/m*3 8.5 C 0 km/h
2999 16-09-2011 00:10:02 8.2 C 7.12 g/m*3 8.2 C 0 km/h
3000 16-09-2011 00:22:02 8.6 C 7.39 g/m*3 8.6 C 0 km/h
Sensor: Nr:Datum:Temp:Abs-Feuchte:Windchill:Wind:
Aussen-T/F 3001 16-09-2011 00:34:01 8.1 C 7.16 g/m*3 8.1 C 0 km/h
3002 16-09-2011 00:46:02 7.9 C 7.15 g/m*3 7.9 C 0 km/h
3003 16-09-2011 00:58:02 8.4 C 7.38 g/m*3 8.4 C 0 km/h
3004 16-09-2011 01:10:01 7.8 C 7.18 g/m*3 7.8 C 0 km/h
3005 16-09-2011 01:22:02 7.8 C 7.18 g/m*3 7.8 C 0 km/h
3006 16-09-2011 01:34:02 7.7 C 7.14 g/m*3 7.7 C 0 km/h
3007 16-09-2011 01:46:02 7.5 C 7.04 g/m*3 7.5 C 0 km/h
3008 16-09-2011 01:58:02 7.3 C 6.95 g/m*3 7.3 C 0 km/h
3009 16-09-2011 02:10:02 7.8 C 7.18 g/m*3 7.8 C 0 km/h
3010 16-09-2011 02:22:02 7.6 C 7.17 g/m*3 7.6 C 0 km/h
3011 16-09-2011 02:34:02 7.1 C 6.94 g/m*3 7.1 C 0 km/h
3012 16-09-2011 02:47:03 7.1 C 6.94 g/m*3 7.1 C 0 km/h
3013 16-09-2011 02:59:03 7.5 C 7.12 g/m*3 7.5 C 0 km/h
3014 16-09-2011 03:11:03 7.1 C 6.94 g/m*3 7.1 C 0 km/h
3015 16-09-2011 03:23:03 6.8 C 6.81 g/m*3 6.8 C 0 km/h
3016 16-09-2011 03:35:02 6.8 C 6.81 g/m*3 6.8 C 0 km/h
3017 16-09-2011 03:47:02 6.8 C 6.81 g/m*3 6.8 C 0 km/h
3018 16-09-2011 03:59:02 6.8 C 6.81 g/m*3 6.8 C 0 km/h
3019 16-09-2011 04:11:01 6.6 C 6.72 g/m*3 6.6 C 0 km/h
3020 16-09-2011 04:23:01 6.6 C 6.72 g/m*3 6.6 C 0 km/h
3021 16-09-2011 04:35:02 6.6 C 6.79 g/m*3 6.6 C 0 km/h
3022 16-09-2011 04:47:02 6.4 C 6.71 g/m*3 6.4 C 0 km/h
3023 16-09-2011 04:59:02 6.4 C 6.63 g/m*3 6.4 C 0 km/h
3024 16-09-2011 05:11:02 6.4 C 6.63 g/m*3 6.4 C 0 km/h
3025 16-09-2011 05:23:02 6.3 C 6.66 g/m*3 6.3 C 0 km/h
Sensor: Nr:Datum:Temp:Abs-Feuchte:Windchill:Wind:
Aussen-T/F 3026 16-09-2011 05:35:02 7.1 C 7.02 g/m*3 7.1 C 0 km/h
3027 16-09-2011 05:47:02 7.6 C 7.25 g/m*3 7.6 C 0 km/h
3028 16-09-2011 05:59:02 8 C 7.44 g/m*3 8 C 0 km/h
3029 16-09-2011 06:11:02 8.1 C 7.49 g/m*3 8.1 C 0 km/h
3030 16-09-2011 06:23:02 8.2 C 7.54 g/m*3 8.2 C 0 km/h
3031 16-09-2011 06:35:02 8.2 C 7.54 g/m*3 8.2 C 0 km/h
3032 16-09-2011 06:47:02 8.1 C 7.57 g/m*3 8.1 C 0 km/h
3033 16-09-2011 06:59:02 8.1 C 7.57 g/m*3 8.1 C 0 km/h
3034 16-09-2011 07:11:02 8.1 C 7.57 g/m*3 8.1 C 0 km/h
3035 16-09-2011 07:23:02 8.1 C 7.57 g/m*3 8.1 C 0 km/h
3036 16-09-2011 07:35:02 8.1 C 7.57 g/m*3 8.1 C 0 km/h
3037 16-09-2011 07:47:02 8.2 C 7.62 g/m*3 8.2 C 0 km/h
3038 16-09-2011 07:59:02 8.2 C 7.62 g/m*3 8.2 C 0 km/h
3039 16-09-2011 08:11:01 8.4 C 7.72 g/m*3 8.4 C 0 km/h
3040 16-09-2011 08:23:02 8.5 C 7.77 g/m*3 8.5 C 0 km/h
3041 16-09-2011 08:35:02 8.6 C 7.82 g/m*3 8.6 C 0 km/h
3042 16-09-2011 08:47:02 8.7 C 7.87 g/m*3 8.7 C 0 km/h
3043 16-09-2011 08:59:02 8.7 C 7.87 g/m*3 8.7 C 0 km/h
3044 16-09-2011 09:11:03 8.7 C 7.87 g/m*3 8.7 C 0 km/h
3045 16-09-2011 09:23:02 9.1 C 7.99 g/m*3 9.1 C 0 km/h
3046 16-09-2011 09:35:02 9.5 C 8.28 g/m*3 9.5 C 0 km/h
3047 16-09-2011 09:47:01 9.8 C 8.44 g/m*3 9.8 C 0 km/h
3048 16-09-2011 09:59:01 9.9 C 8.4 g/m*3 9.9 C 0 km/h
3049 16-09-2011 10:11:01 10.4 C 8.58 g/m*3 10.4 C 0 km/h
3050 16-09-2011 10:23:01 10.6 C 8.59 g/m*3 10.6 C 0 km/h
Sensor: Nr:Datum:Temp:Abs-Feuchte:Windchill:Wind:
Aussen-T/F 3051 16-09-2011 10:35:01 10.7 C 8.55 g/m*3 10.7 C 0 km/h
3052 16-09-2011 10:47:02 11 C 8.61 g/m*3 11 C 0 km/h
3053 16-09-2011 10:59:02 11.2 C 8.72 g/m*3 11.2 C 0 km/h
3054 16-09-2011 11:11:02 11.8 C 9.05 g/m*3 11.8 C 0 km/h
3055 16-09-2011 11:23:03 12.4 C 9.29 g/m*3 12.4 C 0 km/h
3056 16-09-2011 11:35:02 13 C 9.41 g/m*3 13 C 0 km/h
3057 16-09-2011 11:47:02 13.5 C 9.71 g/m*3 13.5 C 0 km/h
3058 16-09-2011 11:59:02 14.1 C 9.83 g/m*3 14.1 C 0 km/h
3059 16-09-2011 12:11:02 15 C 9.87 g/m*3 15 C 0 km/h
3060 16-09-2011 12:23:02 15.1 C 9.68 g/m*3 15.1 C 0 km/h
3061 16-09-2011 12:35:01 15.6 C 9.84 g/m*3 15.6 C 0 km/h
3062 16-09-2011 12:47:02 16.2 C 9.1 g/m*3 16.2 C 0 km/h
3063 16-09-2011 12:59:02 17.5 C 8.65 g/m*3 17.5 C 0 km/h
3064 16-09-2011 13:11:01 18 C 8.29 g/m*3 18 C 0 km/h
3065 16-09-2011 13:23:01 18.8 C 8.37 g/m*3 18.8 C 0 km/h
3066 16-09-2011 13:35:02 19.8 C 7.69 g/m*3 19.8 C 0 km/h
3067 16-09-2011 13:47:02 21.5 C 7.17 g/m*3 21.5 C 0 km/h
3068 16-09-2011 13:59:02 20 C 8.47 g/m*3 20 C 0 km/h
3069 16-09-2011 14:11:02 21.3 C 8.02 g/m*3 21.3 C 0 km/h
3070 16-09-2011 14:23:02 22 C 7.18 g/m*3 22 C 0 km/h
3071 16-09-2011 14:35:02 22.9 C 6.95 g/m*3 22.9 C 0 km/h
3072 16-09-2011 14:47:02 22.8 C 6.91 g/m*3 22.8 C 0 km/h
3073 16-09-2011 14:59:02 22.5 C 7.39 g/m*3 22.5 C 0 km/h
3074 16-09-2011 15:11:02 22.4 C 7.55 g/m*3 22.4 C 0 km/h
3075 16-09-2011 15:23:01 22.9 C 7.56 g/m*3 22.9 C 0 km/h
Sensor: Nr:Datum:Temp:Abs-Feuchte:Windchill:Wind:
Aussen-T/F 3076 16-09-2011 15:35:02 22.4 C 7.94 g/m*3 22.4 C 0 km/h
3077 16-09-2011 15:47:01 22.1 C 8 g/m*3 22.1 C 0 km/h
3078 16-09-2011 15:59:01 21.5 C 9.05 g/m*3 21.5 C 0 km/h
3079 16-09-2011 16:11:02 21.6 C 8.35 g/m*3 21.6 C 0 km/h
3080 16-09-2011 16:23:02 21.3 C 9.88 g/m*3 21.3 C 0 km/h
3081 16-09-2011 16:35:02 20 C 9.51 g/m*3 20 C 0 km/h
3082 16-09-2011 16:47:02 19 C 9.94 g/m*3 19 C 0 km/h
3083 16-09-2011 16:59:02 17.9 C 10.08 g/m*3 17.9 C 0 km/h
3084 16-09-2011 17:11:01 17 C 10.13 g/m*3 17 C 0 km/h
3085 16-09-2011 17:23:02 16.6 C 10.45 g/m*3 16.6 C 0 km/h
3086 16-09-2011 17:35:01 16.5 C 10.67 g/m*3 16.5 C 0 km/h
3087 16-09-2011 17:47:01 16.5 C 10.53 g/m*3 16.5 C 0 km/h
3088 16-09-2011 17:59:02 16 C 10.35 g/m*3 16 C 0 km/h
3089 16-09-2011 18:11:01 15.7 C 10.84 g/m*3 15.7 C 0 km/h
3090 16-09-2011 18:23:01 15.5 C 10.84 g/m*3 15.5 C 0 km/h
3091 16-09-2011 18:35:02 15.6 C 11.04 g/m*3 15.6 C 0 km/h
3092 16-09-2011 18:47:02 15.6 C 11.04 g/m*3 15.6 C 0 km/h
3093 16-09-2011 18:59:02 15.6 C 11.17 g/m*3 15.6 C 0 km/h
3094 16-09-2011 19:11:02 15.3 C 10.84 g/m*3 15.3 C 0 km/h
3095 16-09-2011 19:23:01 14.9 C 10.71 g/m*3 14.9 C 0 km/h
3096 16-09-2011 19:35:02 14.8 C 10.64 g/m*3 14.8 C 0 km/h
3097 16-09-2011 19:47:02 14.8 C 10.77 g/m*3 14.8 C 0 km/h
3098 16-09-2011 19:59:02 14.5 C 10.57 g/m*3 14.5 C 0 km/h
3099 16-09-2011 20:11:02 14.5 C 10.57 g/m*3 14.5 C 0 km/h
3100 16-09-2011 20:23:01 15 C 10.9 g/m*3 15 C 0 km/h
Sensor: Nr:Datum:Temp:Abs-Feuchte:Windchill:Wind:
Aussen-T/F 3101 16-09-2011 20:35:02 15.3 C 10.97 g/m*3 15.3 C 0 km/h
3102 16-09-2011 20:47:01 15.4 C 10.77 g/m*3 15.4 C 0 km/h
3103 16-09-2011 20:59:01 15.2 C 10.51 g/m*3 15.2 C 0 km/h
3104 16-09-2011 21:11:02 15 C 10.51 g/m*3 15 C 0 km/h
3105 16-09-2011 21:23:02 14.9 C 10.58 g/m*3 14.9 C 0 km/h
3106 16-09-2011 21:35:02 15 C 10.64 g/m*3 15 C 0 km/h
3107 16-09-2011 21:47:02 14.9 C 10.71 g/m*3 14.9 C 0 km/h
3108 16-09-2011 21:59:02 14.7 C 10.58 g/m*3 14.7 C 0 km/h
3109 16-09-2011 22:11:01 14.6 C 10.51 g/m*3 14.6 C 0 km/h
3110 16-09-2011 22:23:02 14.6 C 10.51 g/m*3 14.6 C 0 km/h
3111 16-09-2011 22:35:01 14.6 C 10.64 g/m*3 14.6 C 0 km/h
3112 16-09-2011 22:47:02 14.3 C 10.32 g/m*3 14.3 C 0 km/h
3113 16-09-2011 22:59:02 14.2 C 10.26 g/m*3 14.2 C 0 km/h
3114 16-09-2011 23:11:01 14 C 10.13 g/m*3 14 C 0 km/h
3115 16-09-2011 23:23:01 13.9 C 10.19 g/m*3 13.9 C 0 km/h
3116 16-09-2011 23:35:02 13.8 C 10.25 g/m*3 13.8 C 0 km/h
3117 16-09-2011 23:47:02 14 C 10.25 g/m*3 14 C 0 km/h
3118 16-09-2011 23:59:02 14 C 10.25 g/m*3 14 C 0 km/h
3119 17-09-2011 00:11:02 13.7 C 10.18 g/m*3 13.7 C 0 km/h
3120 17-09-2011 00:23:02 13.4 C 10 g/m*3 13.4 C 0 km/h
3121 17-09-2011 00:35:02 13.6 C 10.24 g/m*3 13.6 C 0 km/h
3122 17-09-2011 00:47:02 13.5 C 10.18 g/m*3 13.5 C 0 km/h
3123 17-09-2011 00:59:02 12.9 C 9.92 g/m*3 12.9 C 0 km/h
3124 17-09-2011 01:11:02 13.1 C 9.93 g/m*3 13.1 C 0 km/h
3125 17-09-2011 01:23:02 13.4 C 10.23 g/m*3 13.4 C 0 km/h
Sensor: Nr:Datum:Temp:Abs-Feuchte:Windchill:Wind:
Aussen-T/F 3126 17-09-2011 01:35:02 13.7 C 10.42 g/m*3 13.7 C 0 km/h
3127 17-09-2011 01:47:01 13.5 C 10.29 g/m*3 13.5 C 0 km/h
3128 17-09-2011 01:59:01 13.4 C 10.23 g/m*3 13.4 C 0 km/h
3129 17-09-2011 02:11:01 13.4 C 10.23 g/m*3 13.4 C 0 km/h
3130 17-09-2011 02:23:01 12.8 C 9.97 g/m*3 12.8 C 0 km/h
3131 17-09-2011 02:35:01 12.9 C 10.03 g/m*3 12.9 C 0 km/h
3132 17-09-2011 02:47:01 12.8 C 9.97 g/m*3 12.8 C 0 km/h
3133 17-09-2011 02:59:01 12.7 C 9.91 g/m*3 12.7 C 0 km/h
3134 17-09-2011 03:11:01 12.5 C 9.78 g/m*3 12.5 C 0 km/h
3135 17-09-2011 03:23:01 12.6 C 9.85 g/m*3 12.6 C 0 km/h
3136 17-09-2011 03:35:01 12.5 C 9.78 g/m*3 12.5 C 0 km/h
3137 17-09-2011 03:47:01 12.1 C 9.54 g/m*3 12.1 C 0 km/h
3138 17-09-2011 03:59:01 12 C 9.48 g/m*3 12 C 0 km/h
3139 17-09-2011 04:11:01 12 C 9.48 g/m*3 12 C 0 km/h
3140 17-09-2011 04:23:01 13 C 10.09 g/m*3 13 C 0 km/h
3141 17-09-2011 04:35:01 13.2 C 10.22 g/m*3 13.2 C 0 km/h
3142 17-09-2011 04:47:02 13.4 C 10.46 g/m*3 13.4 C 0 km/h
3143 17-09-2011 04:59:02 13.5 C 10.53 g/m*3 13.5 C 0 km/h
3144 17-09-2011 05:11:01 13.5 C 10.53 g/m*3 13.5 C 0 km/h
3145 17-09-2011 05:23:02 13.6 C 10.59 g/m*3 13.6 C 0 km/h
3146 17-09-2011 05:35:01 13.5 C 10.53 g/m*3 13.5 C 0 km/h
3147 17-09-2011 05:47:02 13.8 C 10.72 g/m*3 13.8 C 0 km/h
3148 17-09-2011 05:59:02 13.6 C 10.59 g/m*3 13.6 C 0 km/h
3149 17-09-2011 06:11:01 13.1 C 10.27 g/m*3 13.1 C 0 km/h
3150 17-09-2011 06:23:01 13 C 10.21 g/m*3 13 C 0 km/h
Sensor: Nr:Datum:Temp:Abs-Feuchte:Windchill:Wind:
Aussen-T/F 3151 17-09-2011 06:35:02 14.1 C 10.8 g/m*3 14.1 C 0 km/h
3152 17-09-2011 06:47:01 14.5 C 11.19 g/m*3 14.5 C 0 km/h
3153 17-09-2011 06:59:01 14.9 C 11.47 g/m*3 14.9 C 0 km/h
3154 17-09-2011 07:11:02 14.9 C 11.47 g/m*3 14.9 C 0 km/h
3155 17-09-2011 07:23:01 14.9 C 11.47 g/m*3 14.9 C 0 km/h
3156 17-09-2011 07:35:02 14.8 C 11.4 g/m*3 14.8 C 0 km/h
3157 17-09-2011 07:47:01 14.7 C 11.33 g/m*3 14.7 C 0 km/h
3158 17-09-2011 07:59:01 14.9 C 11.47 g/m*3 14.9 C 0 km/h
3159 17-09-2011 08:11:02 15.3 C 11.62 g/m*3 15.3 C 0 km/h
3160 17-09-2011 08:23:01 15.2 C 11.55 g/m*3 15.2 C 0 km/h
3161 17-09-2011 08:35:01 15.2 C 11.55 g/m*3 15.2 C 0 km/h
3162 17-09-2011 08:47:01 15.7 C 12.04 g/m*3 15.7 C 0 km/h
3163 17-09-2011 08:59:01 16.1 C 12.2 g/m*3 16.1 C 0 km/h
3164 17-09-2011 09:11:01 16 C 12.13 g/m*3 16 C 0 km/h
3165 17-09-2011 09:23:02 16.3 C 12.21 g/m*3 16.3 C 0 km/h
3166 17-09-2011 09:35:01 16.4 C 12 g/m*3 16.4 C 0 km/h
3167 17-09-2011 09:47:02 17.1 C 10.77 g/m*3 17.1 C 0 km/h
3168 17-09-2011 09:59:02 16.8 C 10.29 g/m*3 16.8 C 0 km/h
3169 17-09-2011 10:11:01 17.1 C 9.46 g/m*3 17.1 C 0 km/h
3170 17-09-2011 10:23:02 17.5 C 9.84 g/m*3 17.5 C 0 km/h
3171 17-09-2011 10:35:01 18.4 C 9.44 g/m*3 18.4 C 0 km/h
3172 17-09-2011 10:47:02 18.7 C 8.81 g/m*3 18.7 C 0 km/h
3173 17-09-2011 10:59:02 19.7 C 8.83 g/m*3 19.7 C 0 km/h
3174 17-09-2011 11:11:01 19.6 C 8.61 g/m*3 19.6 C 0 km/h
3175 17-09-2011 11:23:01 19 C 8.47 g/m*3 19 C 0 km/h
Sensor: Nr:Datum:Temp:Abs-Feuchte:Windchill:Wind:
Aussen-T/F 3176 17-09-2011 11:35:02 18.7 C 8.65 g/m*3 18.7 C 0 km/h
3177 17-09-2011 11:47:01 18.6 C 8.59 g/m*3 18.6 C 0 km/h
3178 17-09-2011 11:59:01 19 C 8.15 g/m*3 19 C 0 km/h
3179 17-09-2011 12:11:02 19.1 C 7.87 g/m*3 19.1 C 0 km/h
3180 17-09-2011 12:23:01 19.4 C 8.18 g/m*3 19.4 C 0 km/h
3181 17-09-2011 12:35:01 19.5 C 7.89 g/m*3 19.5 C 0 km/h
3182 17-09-2011 12:47:01 20 C 7.95 g/m*3 20 C 0 km/h
3183 17-09-2011 12:59:01 20.2 C 8.22 g/m*3 20.2 C 0 km/h
3184 17-09-2011 13:11:02 20.6 C 7.87 g/m*3 20.6 C 0 km/h
3185 17-09-2011 13:23:01 20.7 C 7.92 g/m*3 20.7 C 0 km/h
3186 17-09-2011 13:35:01 20.6 C 8.05 g/m*3 20.6 C 0 km/h
3187 17-09-2011 13:47:01 20.6 C 8.23 g/m*3 20.6 C 0 km/h
3188 17-09-2011 13:59:01 20.8 C 8.51 g/m*3 20.8 C 0 km/h
3189 17-09-2011 14:11:01 20.7 C 8.28 g/m*3 20.7 C 0 km/h
3190 17-09-2011 14:23:02 21.9 C 8.49 g/m*3 21.9 C 0 km/h
3191 17-09-2011 14:35:01 22.9 C 8.58 g/m*3 22.9 C 0 km/h
3192 17-09-2011 14:47:02 21.1 C 8.48 g/m*3 21.1 C 0 km/h
3193 17-09-2011 14:59:02 21.3 C 8.57 g/m*3 21.3 C 0 km/h
3194 17-09-2011 15:11:01 21.8 C 8.83 g/m*3 21.8 C 0 km/h
3195 17-09-2011 15:23:01 22 C 8.73 g/m*3 22 C 0 km/h
3196 17-09-2011 15:35:01 23.9 C 8.87 g/m*3 23.9 C 0 km/h
3197 17-09-2011 15:47:01 23.1 C 8.06 g/m*3 23.1 C 0 km/h
3198 17-09-2011 15:59:02 22.9 C 9.2 g/m*3 22.9 C 0 km/h
3199 17-09-2011 16:11:01 23.3 C 8.36 g/m*3 23.3 C 0 km/h
3200 17-09-2011 16:23:01 22.5 C 8.19 g/m*3 22.5 C 0 km/h
Sensor: Nr:Datum:Temp:Abs-Feuchte:Windchill:Wind:
Aussen-T/F 3201 17-09-2011 16:35:02 21.8 C 8.63 g/m*3 21.8 C 0 km/h
3202 17-09-2011 16:47:01 22 C 8.35 g/m*3 22 C 0 km/h
3203 17-09-2011 16:59:01 23.4 C 8.41 g/m*3 23.4 C 0 km/h
3204 17-09-2011 17:11:02 23.5 C 8.67 g/m*3 23.5 C 0 km/h
3205 17-09-2011 17:23:01 22.5 C 8.39 g/m*3 22.5 C 0 km/h
3206 17-09-2011 17:35:01 22.2 C 8.25 g/m*3 22.2 C 0 km/h
3207 17-09-2011 17:47:01 21.6 C 8.53 g/m*3 21.6 C 0 km/h
3208 17-09-2011 17:59:01 20.6 C 9.13 g/m*3 20.6 C 0 km/h
3209 17-09-2011 18:11:01 21 C 8.79 g/m*3 21 C 0 km/h
3210 17-09-2011 18:23:01 20.7 C 8.64 g/m*3 20.7 C 0 km/h
3211 17-09-2011 18:35:01 19.9 C 8.42 g/m*3 19.9 C 0 km/h
3212 17-09-2011 18:47:02 19.4 C 7.84 g/m*3 19.4 C 0 km/h
3213 17-09-2011 18:59:02 18.9 C 7.94 g/m*3 18.9 C 0 km/h
3214 17-09-2011 19:11:01 17.9 C 8.24 g/m*3 17.9 C 0 km/h
3215 17-09-2011 19:23:02 17.3 C 8.25 g/m*3 17.3 C 0 km/h
3216 17-09-2011 19:35:01 17.1 C 7.86 g/m*3 17.1 C 0 km/h
3217 17-09-2011 19:47:02 16.8 C 8.01 g/m*3 16.8 C 0 km/h
3218 17-09-2011 19:59:02 16 C 8.17 g/m*3 16 C 0 km/h
3219 17-09-2011 20:11:01 15.4 C 8.41 g/m*3 15.4 C 0 km/h
3220 17-09-2011 20:23:01 15.4 C 8.54 g/m*3 15.4 C 0 km/h
3221 17-09-2011 20:35:02 15.9 C 8.4 g/m*3 15.9 C 0 km/h
3222 17-09-2011 20:47:01 16.5 C 8 g/m*3 16.5 C 0 km/h
3223 17-09-2011 20:59:01 15.9 C 8.13 g/m*3 15.9 C 0 km/h
3224 17-09-2011 21:11:02 15.5 C 8.2 g/m*3 15.5 C 0 km/h
3225 17-09-2011 21:23:01 15.4 C 8.41 g/m*3 15.4 C 0 km/h
Sensor: Nr:Datum:Temp:Abs-Feuchte:Windchill:Wind:
Aussen-T/F 3226 17-09-2011 21:35:02 15.3 C 8.23 g/m*3 15.3 C 0 km/h
3227 17-09-2011 21:47:01 15.2 C 8.05 g/m*3 15.2 C 0 km/h
3228 17-09-2011 21:59:01 15 C 7.69 g/m